<?xml version="1.0" encoding="UTF-8" standalone="no" ?>
<gpx xmlns="http://www.topografix.com/GPX/1/1" xmlns:xsi="http://www.w3.org/2001/XMLSchema-instance" xsi:schemaLocation="http://www.topografix.com/GPX/1/1 http://www.topografix.com/GPX/1/1/gpx.xsd" version="1.1" creator="VisuGPX - https://www.visugpx.com">
  <metadata>
    <name>point 1916m col de crabe</name>
    <desc><![CDATA[description à venir
[url][/url]
[img][/img]]]></desc>
  </metadata>
  <trk>
    <name><![CDATA[point 1916m col de crabe]]></name>
    <trkseg>
      <trkpt lat="42.93289" lon="0.29269">
        <ele>1146</ele>
        <time>2014-03-30T07:53:15Z</time>
      </trkpt>
      <trkpt lat="42.93289" lon="0.29269">
        <ele>1146</ele>
        <time>2014-03-30T07:53:16Z</time>
      </trkpt>
      <trkpt lat="42.93294" lon="0.29271">
        <ele>1146</ele>
        <time>2014-03-30T07:53:41Z</time>
      </trkpt>
      <trkpt lat="42.93293" lon="0.2927">
        <ele>1142</ele>
        <time>2014-03-30T07:54:00Z</time>
      </trkpt>
      <trkpt lat="42.93295" lon="0.29274">
        <ele>1142</ele>
        <time>2014-03-30T07:54:31Z</time>
      </trkpt>
      <trkpt lat="42.93297" lon="0.29267">
        <ele>1143</ele>
        <time>2014-03-30T07:55:02Z</time>
      </trkpt>
      <trkpt lat="42.93295" lon="0.29264">
        <ele>1143</ele>
        <time>2014-03-30T07:55:30Z</time>
      </trkpt>
      <trkpt lat="42.93298" lon="0.29269">
        <ele>1143</ele>
        <time>2014-03-30T07:56:05Z</time>
      </trkpt>
      <trkpt lat="42.93296" lon="0.2927">
        <ele>1143</ele>
        <time>2014-03-30T07:56:29Z</time>
      </trkpt>
      <trkpt lat="42.93297" lon="0.29272">
        <ele>1144</ele>
        <time>2014-03-30T07:57:00Z</time>
      </trkpt>
      <trkpt lat="42.93295" lon="0.29271">
        <ele>1144</ele>
        <time>2014-03-30T07:57:17Z</time>
      </trkpt>
      <trkpt lat="42.93299" lon="0.29274">
        <ele>1145</ele>
        <time>2014-03-30T07:57:41Z</time>
      </trkpt>
      <trkpt lat="42.93299" lon="0.29271">
        <ele>1145</ele>
        <time>2014-03-30T07:58:12Z</time>
      </trkpt>
      <trkpt lat="42.93296" lon="0.2927">
        <ele>1145</ele>
        <time>2014-03-30T07:58:30Z</time>
      </trkpt>
      <trkpt lat="42.93298" lon="0.29278">
        <ele>1145</ele>
        <time>2014-03-30T07:58:42Z</time>
      </trkpt>
      <trkpt lat="42.93298" lon="0.29281">
        <ele>1145</ele>
        <time>2014-03-30T07:58:44Z</time>
      </trkpt>
      <trkpt lat="42.93286" lon="0.29303">
        <ele>1146</ele>
        <time>2014-03-30T07:59:02Z</time>
      </trkpt>
      <trkpt lat="42.93271" lon="0.29315">
        <ele>1147</ele>
        <time>2014-03-30T07:59:16Z</time>
      </trkpt>
      <trkpt lat="42.93261" lon="0.29323">
        <ele>1147</ele>
        <time>2014-03-30T07:59:28Z</time>
      </trkpt>
      <trkpt lat="42.93247" lon="0.2933">
        <ele>1147</ele>
        <time>2014-03-30T07:59:43Z</time>
      </trkpt>
      <trkpt lat="42.93233" lon="0.29332">
        <ele>1147</ele>
        <time>2014-03-30T07:59:59Z</time>
      </trkpt>
      <trkpt lat="42.93223" lon="0.29344">
        <ele>1149</ele>
        <time>2014-03-30T08:00:13Z</time>
      </trkpt>
      <trkpt lat="42.93213" lon="0.2936">
        <ele>1150</ele>
        <time>2014-03-30T08:00:28Z</time>
      </trkpt>
      <trkpt lat="42.93207" lon="0.29362">
        <ele>1151</ele>
        <time>2014-03-30T08:00:38Z</time>
      </trkpt>
      <trkpt lat="42.93199" lon="0.29363">
        <ele>1151</ele>
        <time>2014-03-30T08:00:45Z</time>
      </trkpt>
      <trkpt lat="42.9319" lon="0.29369">
        <ele>1152</ele>
        <time>2014-03-30T08:01:00Z</time>
      </trkpt>
      <trkpt lat="42.93177" lon="0.29378">
        <ele>1153</ele>
        <time>2014-03-30T08:01:25Z</time>
      </trkpt>
      <trkpt lat="42.93176" lon="0.29387">
        <ele>1152</ele>
        <time>2014-03-30T08:01:56Z</time>
      </trkpt>
      <trkpt lat="42.93171" lon="0.29373">
        <ele>1154</ele>
        <time>2014-03-30T08:02:14Z</time>
      </trkpt>
      <trkpt lat="42.9316" lon="0.29376">
        <ele>1157</ele>
        <time>2014-03-30T08:02:31Z</time>
      </trkpt>
      <trkpt lat="42.93147" lon="0.29379">
        <ele>1158</ele>
        <time>2014-03-30T08:02:45Z</time>
      </trkpt>
      <trkpt lat="42.93125" lon="0.29381">
        <ele>1159</ele>
        <time>2014-03-30T08:03:02Z</time>
      </trkpt>
      <trkpt lat="42.93109" lon="0.2938">
        <ele>1161</ele>
        <time>2014-03-30T08:03:17Z</time>
      </trkpt>
      <trkpt lat="42.93088" lon="0.29384">
        <ele>1162</ele>
        <time>2014-03-30T08:03:33Z</time>
      </trkpt>
      <trkpt lat="42.9308" lon="0.29381">
        <ele>1163</ele>
        <time>2014-03-30T08:03:49Z</time>
      </trkpt>
      <trkpt lat="42.93071" lon="0.29377">
        <ele>1165</ele>
        <time>2014-03-30T08:04:05Z</time>
      </trkpt>
      <trkpt lat="42.93058" lon="0.29371">
        <ele>1167</ele>
        <time>2014-03-30T08:04:24Z</time>
      </trkpt>
      <trkpt lat="42.93051" lon="0.29369">
        <ele>1168</ele>
        <time>2014-03-30T08:04:40Z</time>
      </trkpt>
      <trkpt lat="42.93042" lon="0.29369">
        <ele>1169</ele>
        <time>2014-03-30T08:04:57Z</time>
      </trkpt>
      <trkpt lat="42.93035" lon="0.29361">
        <ele>1171</ele>
        <time>2014-03-30T08:05:13Z</time>
      </trkpt>
      <trkpt lat="42.93026" lon="0.29357">
        <ele>1172</ele>
        <time>2014-03-30T08:05:28Z</time>
      </trkpt>
      <trkpt lat="42.93012" lon="0.29357">
        <ele>1173</ele>
        <time>2014-03-30T08:05:44Z</time>
      </trkpt>
      <trkpt lat="42.92999" lon="0.29357">
        <ele>1175</ele>
        <time>2014-03-30T08:05:59Z</time>
      </trkpt>
      <trkpt lat="42.92992" lon="0.29352">
        <ele>1176</ele>
        <time>2014-03-30T08:06:14Z</time>
      </trkpt>
      <trkpt lat="42.9298" lon="0.29349">
        <ele>1179</ele>
        <time>2014-03-30T08:06:29Z</time>
      </trkpt>
      <trkpt lat="42.92955" lon="0.29346">
        <ele>1181</ele>
        <time>2014-03-30T08:06:46Z</time>
      </trkpt>
      <trkpt lat="42.92928" lon="0.29347">
        <ele>1184</ele>
        <time>2014-03-30T08:07:06Z</time>
      </trkpt>
      <trkpt lat="42.92914" lon="0.29342">
        <ele>1185</ele>
        <time>2014-03-30T08:07:26Z</time>
      </trkpt>
      <trkpt lat="42.92907" lon="0.29343">
        <ele>1186</ele>
        <time>2014-03-30T08:07:35Z</time>
      </trkpt>
      <trkpt lat="42.92898" lon="0.2934">
        <ele>1188</ele>
        <time>2014-03-30T08:07:49Z</time>
      </trkpt>
      <trkpt lat="42.92885" lon="0.2934">
        <ele>1189</ele>
        <time>2014-03-30T08:08:05Z</time>
      </trkpt>
      <trkpt lat="42.92878" lon="0.29339">
        <ele>1191</ele>
        <time>2014-03-30T08:08:20Z</time>
      </trkpt>
      <trkpt lat="42.92881" lon="0.29337">
        <ele>1190</ele>
        <time>2014-03-30T08:08:36Z</time>
      </trkpt>
      <trkpt lat="42.92868" lon="0.29344">
        <ele>1194</ele>
        <time>2014-03-30T08:09:05Z</time>
      </trkpt>
      <trkpt lat="42.92869" lon="0.29345">
        <ele>1190</ele>
        <time>2014-03-30T08:09:06Z</time>
      </trkpt>
      <trkpt lat="42.92851" lon="0.29342">
        <ele>1192</ele>
        <time>2014-03-30T08:09:30Z</time>
      </trkpt>
      <trkpt lat="42.92856" lon="0.29344">
        <ele>1192</ele>
        <time>2014-03-30T08:09:54Z</time>
      </trkpt>
      <trkpt lat="42.92819" lon="0.29343">
        <ele>1192</ele>
        <time>2014-03-30T08:10:29Z</time>
      </trkpt>
      <trkpt lat="42.92819" lon="0.29351">
        <ele>1193</ele>
        <time>2014-03-30T08:11:05Z</time>
      </trkpt>
      <trkpt lat="42.9282" lon="0.29358">
        <ele>1193</ele>
        <time>2014-03-30T08:11:36Z</time>
      </trkpt>
      <trkpt lat="42.92825" lon="0.2935">
        <ele>1193</ele>
        <time>2014-03-30T08:11:56Z</time>
      </trkpt>
      <trkpt lat="42.92826" lon="0.2935">
        <ele>1193</ele>
        <time>2014-03-30T08:12:23Z</time>
      </trkpt>
      <trkpt lat="42.92828" lon="0.29349">
        <ele>1194</ele>
        <time>2014-03-30T08:12:42Z</time>
      </trkpt>
      <trkpt lat="42.9283" lon="0.2935">
        <ele>1194</ele>
        <time>2014-03-30T08:12:54Z</time>
      </trkpt>
      <trkpt lat="42.92833" lon="0.29349">
        <ele>1194</ele>
        <time>2014-03-30T08:13:12Z</time>
      </trkpt>
      <trkpt lat="42.92835" lon="0.29349">
        <ele>1195</ele>
        <time>2014-03-30T08:13:32Z</time>
      </trkpt>
      <trkpt lat="42.92837" lon="0.29347">
        <ele>1194</ele>
        <time>2014-03-30T08:13:47Z</time>
      </trkpt>
      <trkpt lat="42.92835" lon="0.2934">
        <ele>1195</ele>
        <time>2014-03-30T08:14:07Z</time>
      </trkpt>
      <trkpt lat="42.92828" lon="0.29342">
        <ele>1196</ele>
        <time>2014-03-30T08:14:24Z</time>
      </trkpt>
      <trkpt lat="42.92819" lon="0.29346">
        <ele>1198</ele>
        <time>2014-03-30T08:14:41Z</time>
      </trkpt>
      <trkpt lat="42.92807" lon="0.29351">
        <ele>1199</ele>
        <time>2014-03-30T08:15:01Z</time>
      </trkpt>
      <trkpt lat="42.92794" lon="0.2935">
        <ele>1202</ele>
        <time>2014-03-30T08:15:20Z</time>
      </trkpt>
      <trkpt lat="42.92784" lon="0.29347">
        <ele>1203</ele>
        <time>2014-03-30T08:15:35Z</time>
      </trkpt>
      <trkpt lat="42.9278" lon="0.29346">
        <ele>1204</ele>
        <time>2014-03-30T08:15:41Z</time>
      </trkpt>
      <trkpt lat="42.92761" lon="0.29343">
        <ele>1206</ele>
        <time>2014-03-30T08:16:00Z</time>
      </trkpt>
      <trkpt lat="42.9275" lon="0.29339">
        <ele>1207</ele>
        <time>2014-03-30T08:16:16Z</time>
      </trkpt>
      <trkpt lat="42.92738" lon="0.29336">
        <ele>1209</ele>
        <time>2014-03-30T08:16:30Z</time>
      </trkpt>
      <trkpt lat="42.92726" lon="0.29329">
        <ele>1210</ele>
        <time>2014-03-30T08:16:49Z</time>
      </trkpt>
      <trkpt lat="42.92708" lon="0.29327">
        <ele>1212</ele>
        <time>2014-03-30T08:17:07Z</time>
      </trkpt>
      <trkpt lat="42.92691" lon="0.29319">
        <ele>1214</ele>
        <time>2014-03-30T08:17:25Z</time>
      </trkpt>
      <trkpt lat="42.92682" lon="0.29316">
        <ele>1215</ele>
        <time>2014-03-30T08:17:40Z</time>
      </trkpt>
      <trkpt lat="42.92674" lon="0.29314">
        <ele>1217</ele>
        <time>2014-03-30T08:17:55Z</time>
      </trkpt>
      <trkpt lat="42.92666" lon="0.29306">
        <ele>1219</ele>
        <time>2014-03-30T08:18:10Z</time>
      </trkpt>
      <trkpt lat="42.92656" lon="0.29301">
        <ele>1221</ele>
        <time>2014-03-30T08:18:24Z</time>
      </trkpt>
      <trkpt lat="42.92639" lon="0.29296">
        <ele>1223</ele>
        <time>2014-03-30T08:18:45Z</time>
      </trkpt>
      <trkpt lat="42.92623" lon="0.29291">
        <ele>1224</ele>
        <time>2014-03-30T08:19:00Z</time>
      </trkpt>
      <trkpt lat="42.92604" lon="0.29286">
        <ele>1226</ele>
        <time>2014-03-30T08:19:17Z</time>
      </trkpt>
      <trkpt lat="42.92589" lon="0.29282">
        <ele>1228</ele>
        <time>2014-03-30T08:19:33Z</time>
      </trkpt>
      <trkpt lat="42.92574" lon="0.29276">
        <ele>1230</ele>
        <time>2014-03-30T08:19:52Z</time>
      </trkpt>
      <trkpt lat="42.92563" lon="0.2927">
        <ele>1231</ele>
        <time>2014-03-30T08:20:08Z</time>
      </trkpt>
      <trkpt lat="42.92541" lon="0.29271">
        <ele>1233</ele>
        <time>2014-03-30T08:20:26Z</time>
      </trkpt>
      <trkpt lat="42.92521" lon="0.29271">
        <ele>1236</ele>
        <time>2014-03-30T08:20:47Z</time>
      </trkpt>
      <trkpt lat="42.92507" lon="0.29271">
        <ele>1237</ele>
        <time>2014-03-30T08:21:02Z</time>
      </trkpt>
      <trkpt lat="42.92502" lon="0.29277">
        <ele>1238</ele>
        <time>2014-03-30T08:21:17Z</time>
      </trkpt>
      <trkpt lat="42.92486" lon="0.29284">
        <ele>1240</ele>
        <time>2014-03-30T08:21:36Z</time>
      </trkpt>
      <trkpt lat="42.92467" lon="0.29285">
        <ele>1242</ele>
        <time>2014-03-30T08:21:54Z</time>
      </trkpt>
      <trkpt lat="42.92449" lon="0.29288">
        <ele>1244</ele>
        <time>2014-03-30T08:22:13Z</time>
      </trkpt>
      <trkpt lat="42.92435" lon="0.29297">
        <ele>1245</ele>
        <time>2014-03-30T08:22:32Z</time>
      </trkpt>
      <trkpt lat="42.92415" lon="0.29303">
        <ele>1247</ele>
        <time>2014-03-30T08:22:51Z</time>
      </trkpt>
      <trkpt lat="42.92405" lon="0.29309">
        <ele>1249</ele>
        <time>2014-03-30T08:23:05Z</time>
      </trkpt>
      <trkpt lat="42.92388" lon="0.29312">
        <ele>1251</ele>
        <time>2014-03-30T08:23:22Z</time>
      </trkpt>
      <trkpt lat="42.92377" lon="0.29317">
        <ele>1250</ele>
        <time>2014-03-30T08:23:37Z</time>
      </trkpt>
      <trkpt lat="42.92352" lon="0.2932">
        <ele>1252</ele>
        <time>2014-03-30T08:23:56Z</time>
      </trkpt>
      <trkpt lat="42.92331" lon="0.29323">
        <ele>1253</ele>
        <time>2014-03-30T08:24:12Z</time>
      </trkpt>
      <trkpt lat="42.92329" lon="0.29322">
        <ele>1253</ele>
        <time>2014-03-30T08:24:13Z</time>
      </trkpt>
      <trkpt lat="42.92309" lon="0.29324">
        <ele>1254</ele>
        <time>2014-03-30T08:24:31Z</time>
      </trkpt>
      <trkpt lat="42.92282" lon="0.2933">
        <ele>1256</ele>
        <time>2014-03-30T08:24:49Z</time>
      </trkpt>
      <trkpt lat="42.92264" lon="0.29329">
        <ele>1257</ele>
        <time>2014-03-30T08:25:07Z</time>
      </trkpt>
      <trkpt lat="42.92262" lon="0.29329">
        <ele>1258</ele>
        <time>2014-03-30T08:25:09Z</time>
      </trkpt>
      <trkpt lat="42.92255" lon="0.29333">
        <ele>1258</ele>
        <time>2014-03-30T08:25:26Z</time>
      </trkpt>
      <trkpt lat="42.92238" lon="0.29336">
        <ele>1260</ele>
        <time>2014-03-30T08:25:44Z</time>
      </trkpt>
      <trkpt lat="42.92235" lon="0.29347">
        <ele>1260</ele>
        <time>2014-03-30T08:26:04Z</time>
      </trkpt>
      <trkpt lat="42.9221" lon="0.2935">
        <ele>1261</ele>
        <time>2014-03-30T08:26:42Z</time>
      </trkpt>
      <trkpt lat="42.92211" lon="0.2935">
        <ele>1260</ele>
        <time>2014-03-30T08:27:15Z</time>
      </trkpt>
      <trkpt lat="42.92206" lon="0.29354">
        <ele>1260</ele>
        <time>2014-03-30T08:27:41Z</time>
      </trkpt>
      <trkpt lat="42.92204" lon="0.29358">
        <ele>1261</ele>
        <time>2014-03-30T08:28:17Z</time>
      </trkpt>
      <trkpt lat="42.92208" lon="0.29343">
        <ele>1261</ele>
        <time>2014-03-30T08:28:33Z</time>
      </trkpt>
      <trkpt lat="42.92205" lon="0.29332">
        <ele>1262</ele>
        <time>2014-03-30T08:28:50Z</time>
      </trkpt>
      <trkpt lat="42.92192" lon="0.29313">
        <ele>1262</ele>
        <time>2014-03-30T08:29:06Z</time>
      </trkpt>
      <trkpt lat="42.92175" lon="0.29306">
        <ele>1263</ele>
        <time>2014-03-30T08:29:21Z</time>
      </trkpt>
      <trkpt lat="42.92164" lon="0.29291">
        <ele>1265</ele>
        <time>2014-03-30T08:29:37Z</time>
      </trkpt>
      <trkpt lat="42.92154" lon="0.29276">
        <ele>1267</ele>
        <time>2014-03-30T08:29:52Z</time>
      </trkpt>
      <trkpt lat="42.92141" lon="0.29263">
        <ele>1269</ele>
        <time>2014-03-30T08:30:07Z</time>
      </trkpt>
      <trkpt lat="42.9213" lon="0.2925">
        <ele>1271</ele>
        <time>2014-03-30T08:30:21Z</time>
      </trkpt>
      <trkpt lat="42.9213" lon="0.29241">
        <ele>1272</ele>
        <time>2014-03-30T08:30:36Z</time>
      </trkpt>
      <trkpt lat="42.92135" lon="0.29225">
        <ele>1274</ele>
        <time>2014-03-30T08:30:55Z</time>
      </trkpt>
      <trkpt lat="42.92151" lon="0.29213">
        <ele>1276</ele>
        <time>2014-03-30T08:31:17Z</time>
      </trkpt>
      <trkpt lat="42.92168" lon="0.292">
        <ele>1277</ele>
        <time>2014-03-30T08:31:34Z</time>
      </trkpt>
      <trkpt lat="42.92183" lon="0.29189">
        <ele>1278</ele>
        <time>2014-03-30T08:31:51Z</time>
      </trkpt>
      <trkpt lat="42.92194" lon="0.2918">
        <ele>1280</ele>
        <time>2014-03-30T08:32:09Z</time>
      </trkpt>
      <trkpt lat="42.92206" lon="0.29177">
        <ele>1281</ele>
        <time>2014-03-30T08:32:25Z</time>
      </trkpt>
      <trkpt lat="42.92218" lon="0.29168">
        <ele>1283</ele>
        <time>2014-03-30T08:32:41Z</time>
      </trkpt>
      <trkpt lat="42.92234" lon="0.29165">
        <ele>1284</ele>
        <time>2014-03-30T08:33:00Z</time>
      </trkpt>
      <trkpt lat="42.92248" lon="0.29164">
        <ele>1287</ele>
        <time>2014-03-30T08:33:19Z</time>
      </trkpt>
      <trkpt lat="42.92262" lon="0.29161">
        <ele>1289</ele>
        <time>2014-03-30T08:33:39Z</time>
      </trkpt>
      <trkpt lat="42.92272" lon="0.29154">
        <ele>1291</ele>
        <time>2014-03-30T08:33:57Z</time>
      </trkpt>
      <trkpt lat="42.92287" lon="0.2914">
        <ele>1294</ele>
        <time>2014-03-30T08:34:14Z</time>
      </trkpt>
      <trkpt lat="42.923" lon="0.29121">
        <ele>1295</ele>
        <time>2014-03-30T08:34:29Z</time>
      </trkpt>
      <trkpt lat="42.92316" lon="0.29102">
        <ele>1296</ele>
        <time>2014-03-30T08:34:45Z</time>
      </trkpt>
      <trkpt lat="42.92326" lon="0.2909">
        <ele>1298</ele>
        <time>2014-03-30T08:35:02Z</time>
      </trkpt>
      <trkpt lat="42.92327" lon="0.2909">
        <ele>1298</ele>
        <time>2014-03-30T08:35:03Z</time>
      </trkpt>
      <trkpt lat="42.92339" lon="0.29086">
        <ele>1299</ele>
        <time>2014-03-30T08:35:19Z</time>
      </trkpt>
      <trkpt lat="42.9235" lon="0.29082">
        <ele>1301</ele>
        <time>2014-03-30T08:35:34Z</time>
      </trkpt>
      <trkpt lat="42.92363" lon="0.29071">
        <ele>1303</ele>
        <time>2014-03-30T08:35:50Z</time>
      </trkpt>
      <trkpt lat="42.92375" lon="0.29058">
        <ele>1304</ele>
        <time>2014-03-30T08:36:08Z</time>
      </trkpt>
      <trkpt lat="42.9237" lon="0.29054">
        <ele>1307</ele>
        <time>2014-03-30T08:36:25Z</time>
      </trkpt>
      <trkpt lat="42.92362" lon="0.29029">
        <ele>1308</ele>
        <time>2014-03-30T08:36:45Z</time>
      </trkpt>
      <trkpt lat="42.92354" lon="0.29011">
        <ele>1310</ele>
        <time>2014-03-30T08:37:02Z</time>
      </trkpt>
      <trkpt lat="42.9235" lon="0.28981">
        <ele>1311</ele>
        <time>2014-03-30T08:37:18Z</time>
      </trkpt>
      <trkpt lat="42.92346" lon="0.28957">
        <ele>1313</ele>
        <time>2014-03-30T08:37:33Z</time>
      </trkpt>
      <trkpt lat="42.92342" lon="0.2894">
        <ele>1313</ele>
        <time>2014-03-30T08:37:45Z</time>
      </trkpt>
      <trkpt lat="42.92333" lon="0.28922">
        <ele>1315</ele>
        <time>2014-03-30T08:38:04Z</time>
      </trkpt>
      <trkpt lat="42.9232" lon="0.28907">
        <ele>1317</ele>
        <time>2014-03-30T08:38:20Z</time>
      </trkpt>
      <trkpt lat="42.92314" lon="0.28903">
        <ele>1317</ele>
        <time>2014-03-30T08:38:27Z</time>
      </trkpt>
      <trkpt lat="42.92297" lon="0.28895">
        <ele>1318</ele>
        <time>2014-03-30T08:38:43Z</time>
      </trkpt>
      <trkpt lat="42.92293" lon="0.28874">
        <ele>1320</ele>
        <time>2014-03-30T08:39:00Z</time>
      </trkpt>
      <trkpt lat="42.92287" lon="0.2886">
        <ele>1320</ele>
        <time>2014-03-30T08:39:18Z</time>
      </trkpt>
      <trkpt lat="42.92279" lon="0.28851">
        <ele>1321</ele>
        <time>2014-03-30T08:39:34Z</time>
      </trkpt>
      <trkpt lat="42.92257" lon="0.2884">
        <ele>1322</ele>
        <time>2014-03-30T08:39:53Z</time>
      </trkpt>
      <trkpt lat="42.92248" lon="0.28837">
        <ele>1323</ele>
        <time>2014-03-30T08:39:59Z</time>
      </trkpt>
      <trkpt lat="42.92238" lon="0.28825">
        <ele>1323</ele>
        <time>2014-03-30T08:40:17Z</time>
      </trkpt>
      <trkpt lat="42.92232" lon="0.28812">
        <ele>1324</ele>
        <time>2014-03-30T08:40:33Z</time>
      </trkpt>
      <trkpt lat="42.92213" lon="0.28807">
        <ele>1325</ele>
        <time>2014-03-30T08:40:48Z</time>
      </trkpt>
      <trkpt lat="42.92199" lon="0.28798">
        <ele>1326</ele>
        <time>2014-03-30T08:41:05Z</time>
      </trkpt>
      <trkpt lat="42.92186" lon="0.28786">
        <ele>1326</ele>
        <time>2014-03-30T08:41:21Z</time>
      </trkpt>
      <trkpt lat="42.9218" lon="0.28779">
        <ele>1326</ele>
        <time>2014-03-30T08:41:33Z</time>
      </trkpt>
      <trkpt lat="42.92162" lon="0.28771">
        <ele>1327</ele>
        <time>2014-03-30T08:41:51Z</time>
      </trkpt>
      <trkpt lat="42.92152" lon="0.28765">
        <ele>1327</ele>
        <time>2014-03-30T08:42:06Z</time>
      </trkpt>
      <trkpt lat="42.92141" lon="0.28758">
        <ele>1328</ele>
        <time>2014-03-30T08:42:23Z</time>
      </trkpt>
      <trkpt lat="42.92137" lon="0.28755">
        <ele>1327</ele>
        <time>2014-03-30T08:42:30Z</time>
      </trkpt>
      <trkpt lat="42.92121" lon="0.28743">
        <ele>1328</ele>
        <time>2014-03-30T08:42:45Z</time>
      </trkpt>
      <trkpt lat="42.9211" lon="0.28731">
        <ele>1330</ele>
        <time>2014-03-30T08:43:00Z</time>
      </trkpt>
      <trkpt lat="42.92103" lon="0.2872">
        <ele>1331</ele>
        <time>2014-03-30T08:43:16Z</time>
      </trkpt>
      <trkpt lat="42.92094" lon="0.28715">
        <ele>1331</ele>
        <time>2014-03-30T08:43:29Z</time>
      </trkpt>
      <trkpt lat="42.9208" lon="0.28704">
        <ele>1332</ele>
        <time>2014-03-30T08:43:44Z</time>
      </trkpt>
      <trkpt lat="42.92066" lon="0.28696">
        <ele>1331</ele>
        <time>2014-03-30T08:43:59Z</time>
      </trkpt>
      <trkpt lat="42.92052" lon="0.28689">
        <ele>1332</ele>
        <time>2014-03-30T08:44:14Z</time>
      </trkpt>
      <trkpt lat="42.92042" lon="0.28687">
        <ele>1333</ele>
        <time>2014-03-30T08:44:23Z</time>
      </trkpt>
      <trkpt lat="42.92027" lon="0.28675">
        <ele>1333</ele>
        <time>2014-03-30T08:44:38Z</time>
      </trkpt>
      <trkpt lat="42.92012" lon="0.2867">
        <ele>1335</ele>
        <time>2014-03-30T08:44:55Z</time>
      </trkpt>
      <trkpt lat="42.9201" lon="0.28668">
        <ele>1335</ele>
        <time>2014-03-30T08:44:57Z</time>
      </trkpt>
      <trkpt lat="42.91998" lon="0.28664">
        <ele>1336</ele>
        <time>2014-03-30T08:45:13Z</time>
      </trkpt>
      <trkpt lat="42.91986" lon="0.2866">
        <ele>1337</ele>
        <time>2014-03-30T08:45:26Z</time>
      </trkpt>
      <trkpt lat="42.91967" lon="0.28655">
        <ele>1338</ele>
        <time>2014-03-30T08:45:42Z</time>
      </trkpt>
      <trkpt lat="42.91953" lon="0.28649">
        <ele>1339</ele>
        <time>2014-03-30T08:45:56Z</time>
      </trkpt>
      <trkpt lat="42.91941" lon="0.28643">
        <ele>1340</ele>
        <time>2014-03-30T08:46:12Z</time>
      </trkpt>
      <trkpt lat="42.91927" lon="0.28637">
        <ele>1341</ele>
        <time>2014-03-30T08:46:27Z</time>
      </trkpt>
      <trkpt lat="42.91912" lon="0.28633">
        <ele>1342</ele>
        <time>2014-03-30T08:46:44Z</time>
      </trkpt>
      <trkpt lat="42.91891" lon="0.28622">
        <ele>1343</ele>
        <time>2014-03-30T08:47:02Z</time>
      </trkpt>
      <trkpt lat="42.91874" lon="0.28617">
        <ele>1345</ele>
        <time>2014-03-30T08:47:21Z</time>
      </trkpt>
      <trkpt lat="42.91862" lon="0.28613">
        <ele>1345</ele>
        <time>2014-03-30T08:47:34Z</time>
      </trkpt>
      <trkpt lat="42.91851" lon="0.2861">
        <ele>1347</ele>
        <time>2014-03-30T08:47:49Z</time>
      </trkpt>
      <trkpt lat="42.91838" lon="0.28605">
        <ele>1348</ele>
        <time>2014-03-30T08:48:03Z</time>
      </trkpt>
      <trkpt lat="42.91824" lon="0.28602">
        <ele>1350</ele>
        <time>2014-03-30T08:48:19Z</time>
      </trkpt>
      <trkpt lat="42.91818" lon="0.28601">
        <ele>1350</ele>
        <time>2014-03-30T08:48:26Z</time>
      </trkpt>
      <trkpt lat="42.91808" lon="0.28602">
        <ele>1351</ele>
        <time>2014-03-30T08:48:35Z</time>
      </trkpt>
      <trkpt lat="42.91792" lon="0.28605">
        <ele>1352</ele>
        <time>2014-03-30T08:48:52Z</time>
      </trkpt>
      <trkpt lat="42.91785" lon="0.28605">
        <ele>1353</ele>
        <time>2014-03-30T08:48:59Z</time>
      </trkpt>
      <trkpt lat="42.9177" lon="0.28608">
        <ele>1354</ele>
        <time>2014-03-30T08:49:15Z</time>
      </trkpt>
      <trkpt lat="42.9177" lon="0.28611">
        <ele>1354</ele>
        <time>2014-03-30T08:49:32Z</time>
      </trkpt>
      <trkpt lat="42.91773" lon="0.28613">
        <ele>1354</ele>
        <time>2014-03-30T08:49:57Z</time>
      </trkpt>
      <trkpt lat="42.91766" lon="0.28599">
        <ele>1354</ele>
        <time>2014-03-30T08:50:33Z</time>
      </trkpt>
      <trkpt lat="42.91769" lon="0.28604">
        <ele>1354</ele>
        <time>2014-03-30T08:51:00Z</time>
      </trkpt>
      <trkpt lat="42.91772" lon="0.28609">
        <ele>1354</ele>
        <time>2014-03-30T08:51:32Z</time>
      </trkpt>
      <trkpt lat="42.9177" lon="0.2861">
        <ele>1354</ele>
        <time>2014-03-30T08:51:56Z</time>
      </trkpt>
      <trkpt lat="42.91771" lon="0.28612">
        <ele>1354</ele>
        <time>2014-03-30T08:52:30Z</time>
      </trkpt>
      <trkpt lat="42.91771" lon="0.28614">
        <ele>1353</ele>
        <time>2014-03-30T08:52:56Z</time>
      </trkpt>
      <trkpt lat="42.91764" lon="0.28609">
        <ele>1353</ele>
        <time>2014-03-30T08:53:09Z</time>
      </trkpt>
      <trkpt lat="42.9175" lon="0.28611">
        <ele>1356</ele>
        <time>2014-03-30T08:53:25Z</time>
      </trkpt>
      <trkpt lat="42.91741" lon="0.28612">
        <ele>1357</ele>
        <time>2014-03-30T08:53:38Z</time>
      </trkpt>
      <trkpt lat="42.91726" lon="0.28615">
        <ele>1358</ele>
        <time>2014-03-30T08:53:54Z</time>
      </trkpt>
      <trkpt lat="42.91714" lon="0.2862">
        <ele>1359</ele>
        <time>2014-03-30T08:54:09Z</time>
      </trkpt>
      <trkpt lat="42.91702" lon="0.28624">
        <ele>1360</ele>
        <time>2014-03-30T08:54:24Z</time>
      </trkpt>
      <trkpt lat="42.91694" lon="0.28626">
        <ele>1360</ele>
        <time>2014-03-30T08:54:33Z</time>
      </trkpt>
      <trkpt lat="42.91679" lon="0.28632">
        <ele>1362</ele>
        <time>2014-03-30T08:54:49Z</time>
      </trkpt>
      <trkpt lat="42.91664" lon="0.28639">
        <ele>1363</ele>
        <time>2014-03-30T08:55:06Z</time>
      </trkpt>
      <trkpt lat="42.91652" lon="0.28644">
        <ele>1365</ele>
        <time>2014-03-30T08:55:21Z</time>
      </trkpt>
      <trkpt lat="42.91637" lon="0.28647">
        <ele>1366</ele>
        <time>2014-03-30T08:55:37Z</time>
      </trkpt>
      <trkpt lat="42.91624" lon="0.28653">
        <ele>1368</ele>
        <time>2014-03-30T08:55:53Z</time>
      </trkpt>
      <trkpt lat="42.91614" lon="0.28653">
        <ele>1368</ele>
        <time>2014-03-30T08:56:09Z</time>
      </trkpt>
      <trkpt lat="42.9161" lon="0.28656">
        <ele>1369</ele>
        <time>2014-03-30T08:56:24Z</time>
      </trkpt>
      <trkpt lat="42.91603" lon="0.28652">
        <ele>1370</ele>
        <time>2014-03-30T08:56:40Z</time>
      </trkpt>
      <trkpt lat="42.91598" lon="0.28654">
        <ele>1370</ele>
        <time>2014-03-30T08:56:59Z</time>
      </trkpt>
      <trkpt lat="42.91597" lon="0.28653">
        <ele>1371</ele>
        <time>2014-03-30T08:57:14Z</time>
      </trkpt>
      <trkpt lat="42.91604" lon="0.28653">
        <ele>1371</ele>
        <time>2014-03-30T08:57:36Z</time>
      </trkpt>
      <trkpt lat="42.91609" lon="0.28656">
        <ele>1371</ele>
        <time>2014-03-30T08:58:05Z</time>
      </trkpt>
      <trkpt lat="42.91611" lon="0.28658">
        <ele>1370</ele>
        <time>2014-03-30T08:58:34Z</time>
      </trkpt>
      <trkpt lat="42.91593" lon="0.28653">
        <ele>1371</ele>
        <time>2014-03-30T08:58:55Z</time>
      </trkpt>
      <trkpt lat="42.91576" lon="0.28649">
        <ele>1373</ele>
        <time>2014-03-30T08:59:13Z</time>
      </trkpt>
      <trkpt lat="42.91565" lon="0.28642">
        <ele>1374</ele>
        <time>2014-03-30T08:59:29Z</time>
      </trkpt>
      <trkpt lat="42.91547" lon="0.28639">
        <ele>1376</ele>
        <time>2014-03-30T08:59:49Z</time>
      </trkpt>
      <trkpt lat="42.91532" lon="0.28639">
        <ele>1376</ele>
        <time>2014-03-30T09:00:07Z</time>
      </trkpt>
      <trkpt lat="42.9152" lon="0.28635">
        <ele>1378</ele>
        <time>2014-03-30T09:00:22Z</time>
      </trkpt>
      <trkpt lat="42.91507" lon="0.28632">
        <ele>1379</ele>
        <time>2014-03-30T09:00:36Z</time>
      </trkpt>
      <trkpt lat="42.91495" lon="0.28627">
        <ele>1381</ele>
        <time>2014-03-30T09:00:54Z</time>
      </trkpt>
      <trkpt lat="42.91485" lon="0.28624">
        <ele>1381</ele>
        <time>2014-03-30T09:01:10Z</time>
      </trkpt>
      <trkpt lat="42.91469" lon="0.28617">
        <ele>1382</ele>
        <time>2014-03-30T09:01:28Z</time>
      </trkpt>
      <trkpt lat="42.91462" lon="0.28616">
        <ele>1383</ele>
        <time>2014-03-30T09:01:43Z</time>
      </trkpt>
      <trkpt lat="42.91448" lon="0.28612">
        <ele>1384</ele>
        <time>2014-03-30T09:02:00Z</time>
      </trkpt>
      <trkpt lat="42.9144" lon="0.28609">
        <ele>1385</ele>
        <time>2014-03-30T09:02:10Z</time>
      </trkpt>
      <trkpt lat="42.91426" lon="0.28603">
        <ele>1386</ele>
        <time>2014-03-30T09:02:27Z</time>
      </trkpt>
      <trkpt lat="42.91417" lon="0.28594">
        <ele>1388</ele>
        <time>2014-03-30T09:02:42Z</time>
      </trkpt>
      <trkpt lat="42.91408" lon="0.28585">
        <ele>1389</ele>
        <time>2014-03-30T09:02:57Z</time>
      </trkpt>
      <trkpt lat="42.91398" lon="0.28576">
        <ele>1390</ele>
        <time>2014-03-30T09:03:12Z</time>
      </trkpt>
      <trkpt lat="42.91387" lon="0.28565">
        <ele>1391</ele>
        <time>2014-03-30T09:03:29Z</time>
      </trkpt>
      <trkpt lat="42.91373" lon="0.28554">
        <ele>1393</ele>
        <time>2014-03-30T09:03:46Z</time>
      </trkpt>
      <trkpt lat="42.91355" lon="0.28544">
        <ele>1394</ele>
        <time>2014-03-30T09:04:04Z</time>
      </trkpt>
      <trkpt lat="42.91343" lon="0.28536">
        <ele>1395</ele>
        <time>2014-03-30T09:04:19Z</time>
      </trkpt>
      <trkpt lat="42.91327" lon="0.28527">
        <ele>1395</ele>
        <time>2014-03-30T09:04:36Z</time>
      </trkpt>
      <trkpt lat="42.91318" lon="0.28518">
        <ele>1396</ele>
        <time>2014-03-30T09:04:50Z</time>
      </trkpt>
      <trkpt lat="42.91317" lon="0.28517">
        <ele>1396</ele>
        <time>2014-03-30T09:05:06Z</time>
      </trkpt>
      <trkpt lat="42.91314" lon="0.28519">
        <ele>1395</ele>
        <time>2014-03-30T09:05:36Z</time>
      </trkpt>
      <trkpt lat="42.91313" lon="0.28521">
        <ele>1395</ele>
        <time>2014-03-30T09:06:07Z</time>
      </trkpt>
      <trkpt lat="42.91314" lon="0.28514">
        <ele>1395</ele>
        <time>2014-03-30T09:06:38Z</time>
      </trkpt>
      <trkpt lat="42.91306" lon="0.28509">
        <ele>1395</ele>
        <time>2014-03-30T09:06:51Z</time>
      </trkpt>
      <trkpt lat="42.91291" lon="0.28501">
        <ele>1396</ele>
        <time>2014-03-30T09:07:10Z</time>
      </trkpt>
      <trkpt lat="42.91277" lon="0.28493">
        <ele>1397</ele>
        <time>2014-03-30T09:07:27Z</time>
      </trkpt>
      <trkpt lat="42.91264" lon="0.28485">
        <ele>1398</ele>
        <time>2014-03-30T09:07:42Z</time>
      </trkpt>
      <trkpt lat="42.91251" lon="0.28477">
        <ele>1399</ele>
        <time>2014-03-30T09:07:57Z</time>
      </trkpt>
      <trkpt lat="42.91239" lon="0.28468">
        <ele>1400</ele>
        <time>2014-03-30T09:08:13Z</time>
      </trkpt>
      <trkpt lat="42.91227" lon="0.2846">
        <ele>1401</ele>
        <time>2014-03-30T09:08:29Z</time>
      </trkpt>
      <trkpt lat="42.91214" lon="0.28451">
        <ele>1401</ele>
        <time>2014-03-30T09:08:44Z</time>
      </trkpt>
      <trkpt lat="42.91201" lon="0.28443">
        <ele>1402</ele>
        <time>2014-03-30T09:09:00Z</time>
      </trkpt>
      <trkpt lat="42.91187" lon="0.28438">
        <ele>1403</ele>
        <time>2014-03-30T09:09:16Z</time>
      </trkpt>
      <trkpt lat="42.91175" lon="0.2843">
        <ele>1404</ele>
        <time>2014-03-30T09:09:31Z</time>
      </trkpt>
      <trkpt lat="42.9116" lon="0.28422">
        <ele>1405</ele>
        <time>2014-03-30T09:09:47Z</time>
      </trkpt>
      <trkpt lat="42.91148" lon="0.28413">
        <ele>1406</ele>
        <time>2014-03-30T09:10:03Z</time>
      </trkpt>
      <trkpt lat="42.91136" lon="0.28405">
        <ele>1407</ele>
        <time>2014-03-30T09:10:18Z</time>
      </trkpt>
      <trkpt lat="42.91124" lon="0.28399">
        <ele>1408</ele>
        <time>2014-03-30T09:10:33Z</time>
      </trkpt>
      <trkpt lat="42.91108" lon="0.28391">
        <ele>1409</ele>
        <time>2014-03-30T09:10:50Z</time>
      </trkpt>
      <trkpt lat="42.91099" lon="0.28384">
        <ele>1410</ele>
        <time>2014-03-30T09:11:04Z</time>
      </trkpt>
      <trkpt lat="42.91089" lon="0.28375">
        <ele>1411</ele>
        <time>2014-03-30T09:11:18Z</time>
      </trkpt>
      <trkpt lat="42.91077" lon="0.28365">
        <ele>1411</ele>
        <time>2014-03-30T09:11:34Z</time>
      </trkpt>
      <trkpt lat="42.91078" lon="0.28367">
        <ele>1411</ele>
        <time>2014-03-30T09:11:52Z</time>
      </trkpt>
      <trkpt lat="42.91076" lon="0.28368">
        <ele>1411</ele>
        <time>2014-03-30T09:12:20Z</time>
      </trkpt>
      <trkpt lat="42.91077" lon="0.28365">
        <ele>1411</ele>
        <time>2014-03-30T09:12:46Z</time>
      </trkpt>
      <trkpt lat="42.91075" lon="0.28365">
        <ele>1410</ele>
        <time>2014-03-30T09:13:16Z</time>
      </trkpt>
      <trkpt lat="42.91077" lon="0.28363">
        <ele>1410</ele>
        <time>2014-03-30T09:13:48Z</time>
      </trkpt>
      <trkpt lat="42.9107" lon="0.28358">
        <ele>1410</ele>
        <time>2014-03-30T09:14:07Z</time>
      </trkpt>
      <trkpt lat="42.9106" lon="0.28348">
        <ele>1412</ele>
        <time>2014-03-30T09:14:22Z</time>
      </trkpt>
      <trkpt lat="42.9105" lon="0.28335">
        <ele>1412</ele>
        <time>2014-03-30T09:14:38Z</time>
      </trkpt>
      <trkpt lat="42.91039" lon="0.28328">
        <ele>1413</ele>
        <time>2014-03-30T09:14:52Z</time>
      </trkpt>
      <trkpt lat="42.91031" lon="0.28322">
        <ele>1414</ele>
        <time>2014-03-30T09:15:04Z</time>
      </trkpt>
      <trkpt lat="42.91023" lon="0.28315">
        <ele>1415</ele>
        <time>2014-03-30T09:15:15Z</time>
      </trkpt>
      <trkpt lat="42.91012" lon="0.28301">
        <ele>1416</ele>
        <time>2014-03-30T09:15:33Z</time>
      </trkpt>
      <trkpt lat="42.91002" lon="0.28292">
        <ele>1418</ele>
        <time>2014-03-30T09:15:48Z</time>
      </trkpt>
      <trkpt lat="42.90992" lon="0.28279">
        <ele>1419</ele>
        <time>2014-03-30T09:16:04Z</time>
      </trkpt>
      <trkpt lat="42.9098" lon="0.28267">
        <ele>1420</ele>
        <time>2014-03-30T09:16:21Z</time>
      </trkpt>
      <trkpt lat="42.90969" lon="0.28253">
        <ele>1421</ele>
        <time>2014-03-30T09:16:37Z</time>
      </trkpt>
      <trkpt lat="42.90958" lon="0.28243">
        <ele>1423</ele>
        <time>2014-03-30T09:16:53Z</time>
      </trkpt>
      <trkpt lat="42.90948" lon="0.28232">
        <ele>1425</ele>
        <time>2014-03-30T09:17:08Z</time>
      </trkpt>
      <trkpt lat="42.90939" lon="0.28221">
        <ele>1426</ele>
        <time>2014-03-30T09:17:22Z</time>
      </trkpt>
      <trkpt lat="42.9093" lon="0.28211">
        <ele>1427</ele>
        <time>2014-03-30T09:17:36Z</time>
      </trkpt>
      <trkpt lat="42.90923" lon="0.28202">
        <ele>1428</ele>
        <time>2014-03-30T09:17:49Z</time>
      </trkpt>
      <trkpt lat="42.90915" lon="0.28189">
        <ele>1429</ele>
        <time>2014-03-30T09:18:06Z</time>
      </trkpt>
      <trkpt lat="42.90907" lon="0.2818">
        <ele>1431</ele>
        <time>2014-03-30T09:18:22Z</time>
      </trkpt>
      <trkpt lat="42.90908" lon="0.2818">
        <ele>1431</ele>
        <time>2014-03-30T09:18:52Z</time>
      </trkpt>
      <trkpt lat="42.90909" lon="0.28179">
        <ele>1430</ele>
        <time>2014-03-30T09:19:29Z</time>
      </trkpt>
      <trkpt lat="42.90908" lon="0.28179">
        <ele>1430</ele>
        <time>2014-03-30T09:20:03Z</time>
      </trkpt>
      <trkpt lat="42.90906" lon="0.28178">
        <ele>1429</ele>
        <time>2014-03-30T09:20:41Z</time>
      </trkpt>
      <trkpt lat="42.90905" lon="0.28178">
        <ele>1429</ele>
        <time>2014-03-30T09:21:07Z</time>
      </trkpt>
      <trkpt lat="42.90906" lon="0.28176">
        <ele>1428</ele>
        <time>2014-03-30T09:21:32Z</time>
      </trkpt>
      <trkpt lat="42.90905" lon="0.28174">
        <ele>1429</ele>
        <time>2014-03-30T09:22:05Z</time>
      </trkpt>
      <trkpt lat="42.90906" lon="0.28174">
        <ele>1429</ele>
        <time>2014-03-30T09:22:45Z</time>
      </trkpt>
      <trkpt lat="42.90903" lon="0.28176">
        <ele>1428</ele>
        <time>2014-03-30T09:23:21Z</time>
      </trkpt>
      <trkpt lat="42.909" lon="0.28173">
        <ele>1428</ele>
        <time>2014-03-30T09:23:47Z</time>
      </trkpt>
      <trkpt lat="42.90894" lon="0.28168">
        <ele>1429</ele>
        <time>2014-03-30T09:24:00Z</time>
      </trkpt>
      <trkpt lat="42.90885" lon="0.28159">
        <ele>1431</ele>
        <time>2014-03-30T09:24:15Z</time>
      </trkpt>
      <trkpt lat="42.90877" lon="0.28149">
        <ele>1432</ele>
        <time>2014-03-30T09:24:29Z</time>
      </trkpt>
      <trkpt lat="42.90869" lon="0.28137">
        <ele>1432</ele>
        <time>2014-03-30T09:24:43Z</time>
      </trkpt>
      <trkpt lat="42.90859" lon="0.28124">
        <ele>1434</ele>
        <time>2014-03-30T09:24:59Z</time>
      </trkpt>
      <trkpt lat="42.90851" lon="0.28109">
        <ele>1435</ele>
        <time>2014-03-30T09:25:14Z</time>
      </trkpt>
      <trkpt lat="42.9085" lon="0.28107">
        <ele>1435</ele>
        <time>2014-03-30T09:25:16Z</time>
      </trkpt>
      <trkpt lat="42.90844" lon="0.28092">
        <ele>1436</ele>
        <time>2014-03-30T09:25:31Z</time>
      </trkpt>
      <trkpt lat="42.90842" lon="0.28072">
        <ele>1438</ele>
        <time>2014-03-30T09:25:47Z</time>
      </trkpt>
      <trkpt lat="42.90842" lon="0.28054">
        <ele>1439</ele>
        <time>2014-03-30T09:26:03Z</time>
      </trkpt>
      <trkpt lat="42.9084" lon="0.28033">
        <ele>1441</ele>
        <time>2014-03-30T09:26:21Z</time>
      </trkpt>
      <trkpt lat="42.90841" lon="0.2802">
        <ele>1442</ele>
        <time>2014-03-30T09:26:33Z</time>
      </trkpt>
      <trkpt lat="42.90838" lon="0.28006">
        <ele>1443</ele>
        <time>2014-03-30T09:26:50Z</time>
      </trkpt>
      <trkpt lat="42.90837" lon="0.28005">
        <ele>1443</ele>
        <time>2014-03-30T09:27:13Z</time>
      </trkpt>
      <trkpt lat="42.9084" lon="0.28006">
        <ele>1443</ele>
        <time>2014-03-30T09:27:36Z</time>
      </trkpt>
      <trkpt lat="42.9084" lon="0.28003">
        <ele>1443</ele>
        <time>2014-03-30T09:27:58Z</time>
      </trkpt>
      <trkpt lat="42.90835" lon="0.27984">
        <ele>1445</ele>
        <time>2014-03-30T09:28:16Z</time>
      </trkpt>
      <trkpt lat="42.90829" lon="0.27968">
        <ele>1446</ele>
        <time>2014-03-30T09:28:32Z</time>
      </trkpt>
      <trkpt lat="42.90821" lon="0.27953">
        <ele>1448</ele>
        <time>2014-03-30T09:28:49Z</time>
      </trkpt>
      <trkpt lat="42.90814" lon="0.27937">
        <ele>1449</ele>
        <time>2014-03-30T09:29:06Z</time>
      </trkpt>
      <trkpt lat="42.90807" lon="0.27924">
        <ele>1450</ele>
        <time>2014-03-30T09:29:21Z</time>
      </trkpt>
      <trkpt lat="42.90799" lon="0.2791">
        <ele>1452</ele>
        <time>2014-03-30T09:29:37Z</time>
      </trkpt>
      <trkpt lat="42.90792" lon="0.27896">
        <ele>1453</ele>
        <time>2014-03-30T09:29:51Z</time>
      </trkpt>
      <trkpt lat="42.90788" lon="0.27879">
        <ele>1455</ele>
        <time>2014-03-30T09:30:07Z</time>
      </trkpt>
      <trkpt lat="42.90784" lon="0.27863">
        <ele>1456</ele>
        <time>2014-03-30T09:30:23Z</time>
      </trkpt>
      <trkpt lat="42.90783" lon="0.27848">
        <ele>1456</ele>
        <time>2014-03-30T09:30:38Z</time>
      </trkpt>
      <trkpt lat="42.90784" lon="0.27838">
        <ele>1457</ele>
        <time>2014-03-30T09:30:48Z</time>
      </trkpt>
      <trkpt lat="42.90782" lon="0.27826">
        <ele>1457</ele>
        <time>2014-03-30T09:31:02Z</time>
      </trkpt>
      <trkpt lat="42.90782" lon="0.27822">
        <ele>1457</ele>
        <time>2014-03-30T09:31:15Z</time>
      </trkpt>
      <trkpt lat="42.90783" lon="0.27814">
        <ele>1458</ele>
        <time>2014-03-30T09:31:30Z</time>
      </trkpt>
      <trkpt lat="42.90783" lon="0.27803">
        <ele>1460</ele>
        <time>2014-03-30T09:31:46Z</time>
      </trkpt>
      <trkpt lat="42.90782" lon="0.27796">
        <ele>1462</ele>
        <time>2014-03-30T09:32:00Z</time>
      </trkpt>
      <trkpt lat="42.90782" lon="0.27785">
        <ele>1464</ele>
        <time>2014-03-30T09:32:17Z</time>
      </trkpt>
      <trkpt lat="42.90785" lon="0.27789">
        <ele>1463</ele>
        <time>2014-03-30T09:32:55Z</time>
      </trkpt>
      <trkpt lat="42.90783" lon="0.27787">
        <ele>1464</ele>
        <time>2014-03-30T09:33:18Z</time>
      </trkpt>
      <trkpt lat="42.90785" lon="0.27786">
        <ele>1464</ele>
        <time>2014-03-30T09:33:37Z</time>
      </trkpt>
      <trkpt lat="42.90785" lon="0.27785">
        <ele>1464</ele>
        <time>2014-03-30T09:34:11Z</time>
      </trkpt>
      <trkpt lat="42.90785" lon="0.27786">
        <ele>1464</ele>
        <time>2014-03-30T09:34:47Z</time>
      </trkpt>
      <trkpt lat="42.90785" lon="0.27784">
        <ele>1463</ele>
        <time>2014-03-30T09:35:06Z</time>
      </trkpt>
      <trkpt lat="42.90788" lon="0.27784">
        <ele>1464</ele>
        <time>2014-03-30T09:35:29Z</time>
      </trkpt>
      <trkpt lat="42.90782" lon="0.27779">
        <ele>1464</ele>
        <time>2014-03-30T09:35:50Z</time>
      </trkpt>
      <trkpt lat="42.90781" lon="0.27781">
        <ele>1464</ele>
        <time>2014-03-30T09:36:22Z</time>
      </trkpt>
      <trkpt lat="42.90784" lon="0.27783">
        <ele>1463</ele>
        <time>2014-03-30T09:36:55Z</time>
      </trkpt>
      <trkpt lat="42.90782" lon="0.27781">
        <ele>1463</ele>
        <time>2014-03-30T09:37:30Z</time>
      </trkpt>
      <trkpt lat="42.90782" lon="0.2778">
        <ele>1463</ele>
        <time>2014-03-30T09:38:01Z</time>
      </trkpt>
      <trkpt lat="42.90785" lon="0.27784">
        <ele>1463</ele>
        <time>2014-03-30T09:38:33Z</time>
      </trkpt>
      <trkpt lat="42.90785" lon="0.27782">
        <ele>1463</ele>
        <time>2014-03-30T09:39:01Z</time>
      </trkpt>
      <trkpt lat="42.90784" lon="0.27777">
        <ele>1464</ele>
        <time>2014-03-30T09:39:18Z</time>
      </trkpt>
      <trkpt lat="42.90783" lon="0.27774">
        <ele>1465</ele>
        <time>2014-03-30T09:39:31Z</time>
      </trkpt>
      <trkpt lat="42.90783" lon="0.27771">
        <ele>1465</ele>
        <time>2014-03-30T09:39:46Z</time>
      </trkpt>
      <trkpt lat="42.90782" lon="0.27764">
        <ele>1467</ele>
        <time>2014-03-30T09:39:58Z</time>
      </trkpt>
      <trkpt lat="42.90783" lon="0.27755">
        <ele>1469</ele>
        <time>2014-03-30T09:40:13Z</time>
      </trkpt>
      <trkpt lat="42.90782" lon="0.27741">
        <ele>1470</ele>
        <time>2014-03-30T09:40:30Z</time>
      </trkpt>
      <trkpt lat="42.90781" lon="0.27728">
        <ele>1473</ele>
        <time>2014-03-30T09:40:48Z</time>
      </trkpt>
      <trkpt lat="42.90778" lon="0.27717">
        <ele>1474</ele>
        <time>2014-03-30T09:41:02Z</time>
      </trkpt>
      <trkpt lat="42.90776" lon="0.27707">
        <ele>1476</ele>
        <time>2014-03-30T09:41:15Z</time>
      </trkpt>
      <trkpt lat="42.90773" lon="0.27695">
        <ele>1478</ele>
        <time>2014-03-30T09:41:33Z</time>
      </trkpt>
      <trkpt lat="42.90771" lon="0.27683">
        <ele>1479</ele>
        <time>2014-03-30T09:41:49Z</time>
      </trkpt>
      <trkpt lat="42.90771" lon="0.27672">
        <ele>1482</ele>
        <time>2014-03-30T09:42:05Z</time>
      </trkpt>
      <trkpt lat="42.90773" lon="0.27665">
        <ele>1482</ele>
        <time>2014-03-30T09:42:21Z</time>
      </trkpt>
      <trkpt lat="42.90773" lon="0.27659">
        <ele>1483</ele>
        <time>2014-03-30T09:42:36Z</time>
      </trkpt>
      <trkpt lat="42.90766" lon="0.27649">
        <ele>1486</ele>
        <time>2014-03-30T09:42:54Z</time>
      </trkpt>
      <trkpt lat="42.90764" lon="0.2764">
        <ele>1488</ele>
        <time>2014-03-30T09:43:08Z</time>
      </trkpt>
      <trkpt lat="42.9076" lon="0.27631">
        <ele>1490</ele>
        <time>2014-03-30T09:43:25Z</time>
      </trkpt>
      <trkpt lat="42.9076" lon="0.27628">
        <ele>1491</ele>
        <time>2014-03-30T09:43:29Z</time>
      </trkpt>
      <trkpt lat="42.90758" lon="0.27621">
        <ele>1492</ele>
        <time>2014-03-30T09:43:41Z</time>
      </trkpt>
      <trkpt lat="42.90754" lon="0.27614">
        <ele>1494</ele>
        <time>2014-03-30T09:43:54Z</time>
      </trkpt>
      <trkpt lat="42.90752" lon="0.27607">
        <ele>1496</ele>
        <time>2014-03-30T09:44:07Z</time>
      </trkpt>
      <trkpt lat="42.9075" lon="0.27598">
        <ele>1498</ele>
        <time>2014-03-30T09:44:24Z</time>
      </trkpt>
      <trkpt lat="42.90747" lon="0.27587">
        <ele>1501</ele>
        <time>2014-03-30T09:44:44Z</time>
      </trkpt>
      <trkpt lat="42.90746" lon="0.27579">
        <ele>1503</ele>
        <time>2014-03-30T09:45:00Z</time>
      </trkpt>
      <trkpt lat="42.90746" lon="0.27576">
        <ele>1504</ele>
        <time>2014-03-30T09:45:07Z</time>
      </trkpt>
      <trkpt lat="42.90745" lon="0.27567">
        <ele>1506</ele>
        <time>2014-03-30T09:45:27Z</time>
      </trkpt>
      <trkpt lat="42.90746" lon="0.27564">
        <ele>1506</ele>
        <time>2014-03-30T09:45:43Z</time>
      </trkpt>
      <trkpt lat="42.90744" lon="0.27564">
        <ele>1506</ele>
        <time>2014-03-30T09:46:05Z</time>
      </trkpt>
      <trkpt lat="42.90747" lon="0.27562">
        <ele>1506</ele>
        <time>2014-03-30T09:46:25Z</time>
      </trkpt>
      <trkpt lat="42.90747" lon="0.27564">
        <ele>1507</ele>
        <time>2014-03-30T09:46:50Z</time>
      </trkpt>
      <trkpt lat="42.90747" lon="0.27563">
        <ele>1506</ele>
        <time>2014-03-30T09:47:18Z</time>
      </trkpt>
      <trkpt lat="42.90743" lon="0.27553">
        <ele>1509</ele>
        <time>2014-03-30T09:47:36Z</time>
      </trkpt>
      <trkpt lat="42.90742" lon="0.27546">
        <ele>1511</ele>
        <time>2014-03-30T09:47:49Z</time>
      </trkpt>
      <trkpt lat="42.9074" lon="0.27536">
        <ele>1514</ele>
        <time>2014-03-30T09:48:06Z</time>
      </trkpt>
      <trkpt lat="42.90741" lon="0.27529">
        <ele>1516</ele>
        <time>2014-03-30T09:48:17Z</time>
      </trkpt>
      <trkpt lat="42.9074" lon="0.27517">
        <ele>1517</ele>
        <time>2014-03-30T09:48:37Z</time>
      </trkpt>
      <trkpt lat="42.90739" lon="0.2751">
        <ele>1520</ele>
        <time>2014-03-30T09:48:50Z</time>
      </trkpt>
      <trkpt lat="42.90738" lon="0.275">
        <ele>1523</ele>
        <time>2014-03-30T09:49:08Z</time>
      </trkpt>
      <trkpt lat="42.90737" lon="0.27491">
        <ele>1525</ele>
        <time>2014-03-30T09:49:23Z</time>
      </trkpt>
      <trkpt lat="42.90739" lon="0.27484">
        <ele>1527</ele>
        <time>2014-03-30T09:49:42Z</time>
      </trkpt>
      <trkpt lat="42.90737" lon="0.27477">
        <ele>1529</ele>
        <time>2014-03-30T09:49:57Z</time>
      </trkpt>
      <trkpt lat="42.90735" lon="0.27467">
        <ele>1531</ele>
        <time>2014-03-30T09:50:12Z</time>
      </trkpt>
      <trkpt lat="42.90735" lon="0.2746">
        <ele>1532</ele>
        <time>2014-03-30T09:50:27Z</time>
      </trkpt>
      <trkpt lat="42.90733" lon="0.27456">
        <ele>1532</ele>
        <time>2014-03-30T09:50:51Z</time>
      </trkpt>
      <trkpt lat="42.90732" lon="0.27453">
        <ele>1534</ele>
        <time>2014-03-30T09:51:09Z</time>
      </trkpt>
      <trkpt lat="42.90729" lon="0.27445">
        <ele>1537</ele>
        <time>2014-03-30T09:51:25Z</time>
      </trkpt>
      <trkpt lat="42.90727" lon="0.27434">
        <ele>1539</ele>
        <time>2014-03-30T09:51:41Z</time>
      </trkpt>
      <trkpt lat="42.90726" lon="0.27427">
        <ele>1541</ele>
        <time>2014-03-30T09:51:57Z</time>
      </trkpt>
      <trkpt lat="42.90725" lon="0.27423">
        <ele>1542</ele>
        <time>2014-03-30T09:52:17Z</time>
      </trkpt>
      <trkpt lat="42.90725" lon="0.27414">
        <ele>1544</ele>
        <time>2014-03-30T09:52:32Z</time>
      </trkpt>
      <trkpt lat="42.90726" lon="0.27406">
        <ele>1545</ele>
        <time>2014-03-30T09:52:51Z</time>
      </trkpt>
      <trkpt lat="42.90725" lon="0.27404">
        <ele>1547</ele>
        <time>2014-03-30T09:53:09Z</time>
      </trkpt>
      <trkpt lat="42.90726" lon="0.27393">
        <ele>1549</ele>
        <time>2014-03-30T09:53:26Z</time>
      </trkpt>
      <trkpt lat="42.90725" lon="0.27382">
        <ele>1552</ele>
        <time>2014-03-30T09:53:46Z</time>
      </trkpt>
      <trkpt lat="42.90726" lon="0.27372">
        <ele>1554</ele>
        <time>2014-03-30T09:54:03Z</time>
      </trkpt>
      <trkpt lat="42.90725" lon="0.27362">
        <ele>1556</ele>
        <time>2014-03-30T09:54:19Z</time>
      </trkpt>
      <trkpt lat="42.90724" lon="0.27353">
        <ele>1560</ele>
        <time>2014-03-30T09:54:36Z</time>
      </trkpt>
      <trkpt lat="42.90724" lon="0.27342">
        <ele>1562</ele>
        <time>2014-03-30T09:54:54Z</time>
      </trkpt>
      <trkpt lat="42.90724" lon="0.27334">
        <ele>1565</ele>
        <time>2014-03-30T09:55:11Z</time>
      </trkpt>
      <trkpt lat="42.90724" lon="0.2733">
        <ele>1565</ele>
        <time>2014-03-30T09:55:29Z</time>
      </trkpt>
      <trkpt lat="42.90722" lon="0.27322">
        <ele>1568</ele>
        <time>2014-03-30T09:55:45Z</time>
      </trkpt>
      <trkpt lat="42.90721" lon="0.27313">
        <ele>1570</ele>
        <time>2014-03-30T09:56:01Z</time>
      </trkpt>
      <trkpt lat="42.9072" lon="0.27305">
        <ele>1572</ele>
        <time>2014-03-30T09:56:17Z</time>
      </trkpt>
      <trkpt lat="42.90714" lon="0.27294">
        <ele>1575</ele>
        <time>2014-03-30T09:56:35Z</time>
      </trkpt>
      <trkpt lat="42.90708" lon="0.27295">
        <ele>1578</ele>
        <time>2014-03-30T09:56:51Z</time>
      </trkpt>
      <trkpt lat="42.90714" lon="0.2728">
        <ele>1581</ele>
        <time>2014-03-30T09:57:13Z</time>
      </trkpt>
      <trkpt lat="42.90723" lon="0.27268">
        <ele>1582</ele>
        <time>2014-03-30T09:57:35Z</time>
      </trkpt>
      <trkpt lat="42.90728" lon="0.2726">
        <ele>1586</ele>
        <time>2014-03-30T09:57:49Z</time>
      </trkpt>
      <trkpt lat="42.90722" lon="0.27254">
        <ele>1588</ele>
        <time>2014-03-30T09:58:05Z</time>
      </trkpt>
      <trkpt lat="42.90717" lon="0.27246">
        <ele>1591</ele>
        <time>2014-03-30T09:58:27Z</time>
      </trkpt>
      <trkpt lat="42.9071" lon="0.2724">
        <ele>1592</ele>
        <time>2014-03-30T09:58:46Z</time>
      </trkpt>
      <trkpt lat="42.90706" lon="0.27236">
        <ele>1593</ele>
        <time>2014-03-30T09:59:03Z</time>
      </trkpt>
      <trkpt lat="42.90706" lon="0.27238">
        <ele>1593</ele>
        <time>2014-03-30T09:59:33Z</time>
      </trkpt>
      <trkpt lat="42.90703" lon="0.27239">
        <ele>1594</ele>
        <time>2014-03-30T09:59:49Z</time>
      </trkpt>
      <trkpt lat="42.90703" lon="0.27237">
        <ele>1594</ele>
        <time>2014-03-30T10:00:16Z</time>
      </trkpt>
      <trkpt lat="42.90704" lon="0.27238">
        <ele>1594</ele>
        <time>2014-03-30T10:00:35Z</time>
      </trkpt>
      <trkpt lat="42.90703" lon="0.27235">
        <ele>1594</ele>
        <time>2014-03-30T10:00:59Z</time>
      </trkpt>
      <trkpt lat="42.90703" lon="0.27235">
        <ele>1592</ele>
        <time>2014-03-30T10:01:20Z</time>
      </trkpt>
      <trkpt lat="42.90701" lon="0.27238">
        <ele>1593</ele>
        <time>2014-03-30T10:01:50Z</time>
      </trkpt>
      <trkpt lat="42.90701" lon="0.27238">
        <ele>1592</ele>
        <time>2014-03-30T10:02:16Z</time>
      </trkpt>
      <trkpt lat="42.907" lon="0.27237">
        <ele>1592</ele>
        <time>2014-03-30T10:02:35Z</time>
      </trkpt>
      <trkpt lat="42.907" lon="0.27237">
        <ele>1596</ele>
        <time>2014-03-30T10:02:36Z</time>
      </trkpt>
      <trkpt lat="42.907" lon="0.27236">
        <ele>1594</ele>
        <time>2014-03-30T10:02:37Z</time>
      </trkpt>
      <trkpt lat="42.90699" lon="0.27235">
        <ele>1593</ele>
        <time>2014-03-30T10:02:59Z</time>
      </trkpt>
      <trkpt lat="42.907" lon="0.27236">
        <ele>1593</ele>
        <time>2014-03-30T10:03:30Z</time>
      </trkpt>
      <trkpt lat="42.90701" lon="0.27237">
        <ele>1593</ele>
        <time>2014-03-30T10:04:02Z</time>
      </trkpt>
      <trkpt lat="42.90701" lon="0.27238">
        <ele>1593</ele>
        <time>2014-03-30T10:04:37Z</time>
      </trkpt>
      <trkpt lat="42.907" lon="0.27237">
        <ele>1593</ele>
        <time>2014-03-30T10:05:09Z</time>
      </trkpt>
      <trkpt lat="42.90701" lon="0.27236">
        <ele>1593</ele>
        <time>2014-03-30T10:05:40Z</time>
      </trkpt>
      <trkpt lat="42.90699" lon="0.27235">
        <ele>1593</ele>
        <time>2014-03-30T10:06:04Z</time>
      </trkpt>
      <trkpt lat="42.90699" lon="0.27236">
        <ele>1592</ele>
        <time>2014-03-30T10:06:32Z</time>
      </trkpt>
      <trkpt lat="42.90699" lon="0.27234">
        <ele>1591</ele>
        <time>2014-03-30T10:07:09Z</time>
      </trkpt>
      <trkpt lat="42.907" lon="0.27235">
        <ele>1591</ele>
        <time>2014-03-30T10:07:49Z</time>
      </trkpt>
      <trkpt lat="42.907" lon="0.27235">
        <ele>1591</ele>
        <time>2014-03-30T10:08:22Z</time>
      </trkpt>
      <trkpt lat="42.90701" lon="0.27238">
        <ele>1591</ele>
        <time>2014-03-30T10:08:34Z</time>
      </trkpt>
      <trkpt lat="42.90701" lon="0.27238">
        <ele>1592</ele>
        <time>2014-03-30T10:08:50Z</time>
      </trkpt>
      <trkpt lat="42.907" lon="0.27239">
        <ele>1593</ele>
        <time>2014-03-30T10:09:10Z</time>
      </trkpt>
      <trkpt lat="42.907" lon="0.27234">
        <ele>1593</ele>
        <time>2014-03-30T10:09:27Z</time>
      </trkpt>
      <trkpt lat="42.90701" lon="0.27226">
        <ele>1594</ele>
        <time>2014-03-30T10:09:38Z</time>
      </trkpt>
      <trkpt lat="42.90702" lon="0.27219">
        <ele>1596</ele>
        <time>2014-03-30T10:09:49Z</time>
      </trkpt>
      <trkpt lat="42.90702" lon="0.27215">
        <ele>1598</ele>
        <time>2014-03-30T10:10:02Z</time>
      </trkpt>
      <trkpt lat="42.90699" lon="0.27207">
        <ele>1600</ele>
        <time>2014-03-30T10:10:20Z</time>
      </trkpt>
      <trkpt lat="42.90697" lon="0.27202">
        <ele>1602</ele>
        <time>2014-03-30T10:10:35Z</time>
      </trkpt>
      <trkpt lat="42.90696" lon="0.27196">
        <ele>1604</ele>
        <time>2014-03-30T10:10:49Z</time>
      </trkpt>
      <trkpt lat="42.90695" lon="0.27193">
        <ele>1605</ele>
        <time>2014-03-30T10:11:09Z</time>
      </trkpt>
      <trkpt lat="42.90694" lon="0.27188">
        <ele>1606</ele>
        <time>2014-03-30T10:11:22Z</time>
      </trkpt>
      <trkpt lat="42.90692" lon="0.27181">
        <ele>1609</ele>
        <time>2014-03-30T10:11:35Z</time>
      </trkpt>
      <trkpt lat="42.90691" lon="0.27174">
        <ele>1611</ele>
        <time>2014-03-30T10:11:48Z</time>
      </trkpt>
      <trkpt lat="42.90687" lon="0.27173">
        <ele>1613</ele>
        <time>2014-03-30T10:12:07Z</time>
      </trkpt>
      <trkpt lat="42.90679" lon="0.27172">
        <ele>1616</ele>
        <time>2014-03-30T10:12:25Z</time>
      </trkpt>
      <trkpt lat="42.90676" lon="0.27171">
        <ele>1617</ele>
        <time>2014-03-30T10:12:43Z</time>
      </trkpt>
      <trkpt lat="42.90677" lon="0.27171">
        <ele>1617</ele>
        <time>2014-03-30T10:13:14Z</time>
      </trkpt>
      <trkpt lat="42.9067" lon="0.27168">
        <ele>1619</ele>
        <time>2014-03-30T10:13:27Z</time>
      </trkpt>
      <trkpt lat="42.90668" lon="0.27165">
        <ele>1621</ele>
        <time>2014-03-30T10:13:38Z</time>
      </trkpt>
      <trkpt lat="42.90663" lon="0.2716">
        <ele>1623</ele>
        <time>2014-03-30T10:13:55Z</time>
      </trkpt>
      <trkpt lat="42.90663" lon="0.27151">
        <ele>1625</ele>
        <time>2014-03-30T10:14:08Z</time>
      </trkpt>
      <trkpt lat="42.90666" lon="0.27143">
        <ele>1627</ele>
        <time>2014-03-30T10:14:21Z</time>
      </trkpt>
      <trkpt lat="42.90669" lon="0.27135">
        <ele>1630</ele>
        <time>2014-03-30T10:14:38Z</time>
      </trkpt>
      <trkpt lat="42.90676" lon="0.27124">
        <ele>1632</ele>
        <time>2014-03-30T10:14:55Z</time>
      </trkpt>
      <trkpt lat="42.90679" lon="0.27113">
        <ele>1634</ele>
        <time>2014-03-30T10:15:11Z</time>
      </trkpt>
      <trkpt lat="42.90684" lon="0.27105">
        <ele>1637</ele>
        <time>2014-03-30T10:15:26Z</time>
      </trkpt>
      <trkpt lat="42.90685" lon="0.27096">
        <ele>1638</ele>
        <time>2014-03-30T10:15:42Z</time>
      </trkpt>
      <trkpt lat="42.90684" lon="0.27098">
        <ele>1638</ele>
        <time>2014-03-30T10:15:56Z</time>
      </trkpt>
      <trkpt lat="42.90682" lon="0.27091">
        <ele>1640</ele>
        <time>2014-03-30T10:16:16Z</time>
      </trkpt>
      <trkpt lat="42.90683" lon="0.27081">
        <ele>1641</ele>
        <time>2014-03-30T10:16:31Z</time>
      </trkpt>
      <trkpt lat="42.90682" lon="0.27068">
        <ele>1643</ele>
        <time>2014-03-30T10:16:48Z</time>
      </trkpt>
      <trkpt lat="42.90682" lon="0.27061">
        <ele>1644</ele>
        <time>2014-03-30T10:17:00Z</time>
      </trkpt>
      <trkpt lat="42.90681" lon="0.27054">
        <ele>1644</ele>
        <time>2014-03-30T10:17:15Z</time>
      </trkpt>
      <trkpt lat="42.90679" lon="0.27042">
        <ele>1647</ele>
        <time>2014-03-30T10:17:32Z</time>
      </trkpt>
      <trkpt lat="42.90677" lon="0.2703">
        <ele>1649</ele>
        <time>2014-03-30T10:17:46Z</time>
      </trkpt>
      <trkpt lat="42.90674" lon="0.27018">
        <ele>1650</ele>
        <time>2014-03-30T10:18:00Z</time>
      </trkpt>
      <trkpt lat="42.90672" lon="0.27004">
        <ele>1651</ele>
        <time>2014-03-30T10:18:14Z</time>
      </trkpt>
      <trkpt lat="42.90669" lon="0.26993">
        <ele>1653</ele>
        <time>2014-03-30T10:18:29Z</time>
      </trkpt>
      <trkpt lat="42.90667" lon="0.26982">
        <ele>1655</ele>
        <time>2014-03-30T10:18:43Z</time>
      </trkpt>
      <trkpt lat="42.90665" lon="0.26972">
        <ele>1657</ele>
        <time>2014-03-30T10:18:57Z</time>
      </trkpt>
      <trkpt lat="42.90661" lon="0.2696">
        <ele>1660</ele>
        <time>2014-03-30T10:19:11Z</time>
      </trkpt>
      <trkpt lat="42.90657" lon="0.26948">
        <ele>1661</ele>
        <time>2014-03-30T10:19:26Z</time>
      </trkpt>
      <trkpt lat="42.90656" lon="0.26942">
        <ele>1663</ele>
        <time>2014-03-30T10:19:32Z</time>
      </trkpt>
      <trkpt lat="42.90651" lon="0.26926">
        <ele>1664</ele>
        <time>2014-03-30T10:19:48Z</time>
      </trkpt>
      <trkpt lat="42.90648" lon="0.26913">
        <ele>1666</ele>
        <time>2014-03-30T10:20:03Z</time>
      </trkpt>
      <trkpt lat="42.90648" lon="0.26911">
        <ele>1667</ele>
        <time>2014-03-30T10:20:22Z</time>
      </trkpt>
      <trkpt lat="42.90648" lon="0.26905">
        <ele>1667</ele>
        <time>2014-03-30T10:20:40Z</time>
      </trkpt>
      <trkpt lat="42.90647" lon="0.26892">
        <ele>1668</ele>
        <time>2014-03-30T10:20:52Z</time>
      </trkpt>
      <trkpt lat="42.90646" lon="0.26877">
        <ele>1669</ele>
        <time>2014-03-30T10:21:06Z</time>
      </trkpt>
      <trkpt lat="42.90647" lon="0.26874">
        <ele>1669</ele>
        <time>2014-03-30T10:21:25Z</time>
      </trkpt>
      <trkpt lat="42.90644" lon="0.26866">
        <ele>1669</ele>
        <time>2014-03-30T10:21:37Z</time>
      </trkpt>
      <trkpt lat="42.90645" lon="0.26852">
        <ele>1670</ele>
        <time>2014-03-30T10:21:50Z</time>
      </trkpt>
      <trkpt lat="42.90643" lon="0.2684">
        <ele>1672</ele>
        <time>2014-03-30T10:22:05Z</time>
      </trkpt>
      <trkpt lat="42.90642" lon="0.26828">
        <ele>1674</ele>
        <time>2014-03-30T10:22:19Z</time>
      </trkpt>
      <trkpt lat="42.90641" lon="0.26818">
        <ele>1677</ele>
        <time>2014-03-30T10:22:33Z</time>
      </trkpt>
      <trkpt lat="42.9064" lon="0.26804">
        <ele>1679</ele>
        <time>2014-03-30T10:22:50Z</time>
      </trkpt>
      <trkpt lat="42.9064" lon="0.26803">
        <ele>1679</ele>
        <time>2014-03-30T10:23:04Z</time>
      </trkpt>
      <trkpt lat="42.90641" lon="0.26802">
        <ele>1680</ele>
        <time>2014-03-30T10:23:39Z</time>
      </trkpt>
      <trkpt lat="42.90642" lon="0.26801">
        <ele>1679</ele>
        <time>2014-03-30T10:24:26Z</time>
      </trkpt>
      <trkpt lat="42.90642" lon="0.26801">
        <ele>1679</ele>
        <time>2014-03-30T10:24:44Z</time>
      </trkpt>
      <trkpt lat="42.90642" lon="0.26795">
        <ele>1680</ele>
        <time>2014-03-30T10:25:11Z</time>
      </trkpt>
      <trkpt lat="42.90645" lon="0.26783">
        <ele>1682</ele>
        <time>2014-03-30T10:25:26Z</time>
      </trkpt>
      <trkpt lat="42.90648" lon="0.26769">
        <ele>1684</ele>
        <time>2014-03-30T10:25:41Z</time>
      </trkpt>
      <trkpt lat="42.9065" lon="0.2676">
        <ele>1685</ele>
        <time>2014-03-30T10:25:56Z</time>
      </trkpt>
      <trkpt lat="42.9065" lon="0.26756">
        <ele>1686</ele>
        <time>2014-03-30T10:26:14Z</time>
      </trkpt>
      <trkpt lat="42.90644" lon="0.26751">
        <ele>1689</ele>
        <time>2014-03-30T10:26:30Z</time>
      </trkpt>
      <trkpt lat="42.90636" lon="0.26744">
        <ele>1691</ele>
        <time>2014-03-30T10:26:47Z</time>
      </trkpt>
      <trkpt lat="42.90633" lon="0.26741">
        <ele>1693</ele>
        <time>2014-03-30T10:27:02Z</time>
      </trkpt>
      <trkpt lat="42.90632" lon="0.2674">
        <ele>1693</ele>
        <time>2014-03-30T10:27:40Z</time>
      </trkpt>
      <trkpt lat="42.90635" lon="0.26736">
        <ele>1693</ele>
        <time>2014-03-30T10:27:50Z</time>
      </trkpt>
      <trkpt lat="42.9064" lon="0.26723">
        <ele>1696</ele>
        <time>2014-03-30T10:28:07Z</time>
      </trkpt>
      <trkpt lat="42.90645" lon="0.26711">
        <ele>1699</ele>
        <time>2014-03-30T10:28:23Z</time>
      </trkpt>
      <trkpt lat="42.90649" lon="0.26697">
        <ele>1701</ele>
        <time>2014-03-30T10:28:39Z</time>
      </trkpt>
      <trkpt lat="42.90643" lon="0.26693">
        <ele>1704</ele>
        <time>2014-03-30T10:28:54Z</time>
      </trkpt>
      <trkpt lat="42.90637" lon="0.2669">
        <ele>1706</ele>
        <time>2014-03-30T10:29:09Z</time>
      </trkpt>
      <trkpt lat="42.90629" lon="0.26687">
        <ele>1707</ele>
        <time>2014-03-30T10:29:24Z</time>
      </trkpt>
      <trkpt lat="42.90627" lon="0.26681">
        <ele>1710</ele>
        <time>2014-03-30T10:29:38Z</time>
      </trkpt>
      <trkpt lat="42.90629" lon="0.26669">
        <ele>1712</ele>
        <time>2014-03-30T10:29:57Z</time>
      </trkpt>
      <trkpt lat="42.90631" lon="0.26656">
        <ele>1714</ele>
        <time>2014-03-30T10:30:15Z</time>
      </trkpt>
      <trkpt lat="42.90635" lon="0.26643">
        <ele>1717</ele>
        <time>2014-03-30T10:30:30Z</time>
      </trkpt>
      <trkpt lat="42.90625" lon="0.26644">
        <ele>1719</ele>
        <time>2014-03-30T10:30:49Z</time>
      </trkpt>
      <trkpt lat="42.90615" lon="0.26645">
        <ele>1722</ele>
        <time>2014-03-30T10:31:05Z</time>
      </trkpt>
      <trkpt lat="42.90612" lon="0.2664">
        <ele>1723</ele>
        <time>2014-03-30T10:31:19Z</time>
      </trkpt>
      <trkpt lat="42.90614" lon="0.26629">
        <ele>1726</ele>
        <time>2014-03-30T10:31:36Z</time>
      </trkpt>
      <trkpt lat="42.90616" lon="0.26618">
        <ele>1728</ele>
        <time>2014-03-30T10:31:52Z</time>
      </trkpt>
      <trkpt lat="42.90617" lon="0.26611">
        <ele>1730</ele>
        <time>2014-03-30T10:32:06Z</time>
      </trkpt>
      <trkpt lat="42.90619" lon="0.26606">
        <ele>1731</ele>
        <time>2014-03-30T10:32:31Z</time>
      </trkpt>
      <trkpt lat="42.9062" lon="0.26604">
        <ele>1731</ele>
        <time>2014-03-30T10:32:45Z</time>
      </trkpt>
      <trkpt lat="42.90622" lon="0.26591">
        <ele>1733</ele>
        <time>2014-03-30T10:33:03Z</time>
      </trkpt>
      <trkpt lat="42.90621" lon="0.26579">
        <ele>1735</ele>
        <time>2014-03-30T10:33:18Z</time>
      </trkpt>
      <trkpt lat="42.90621" lon="0.26571">
        <ele>1737</ele>
        <time>2014-03-30T10:33:32Z</time>
      </trkpt>
      <trkpt lat="42.90621" lon="0.26559">
        <ele>1739</ele>
        <time>2014-03-30T10:33:47Z</time>
      </trkpt>
      <trkpt lat="42.9062" lon="0.26546">
        <ele>1742</ele>
        <time>2014-03-30T10:34:04Z</time>
      </trkpt>
      <trkpt lat="42.90618" lon="0.26536">
        <ele>1744</ele>
        <time>2014-03-30T10:34:17Z</time>
      </trkpt>
      <trkpt lat="42.90609" lon="0.26542">
        <ele>1746</ele>
        <time>2014-03-30T10:34:37Z</time>
      </trkpt>
      <trkpt lat="42.90608" lon="0.26542">
        <ele>1748</ele>
        <time>2014-03-30T10:34:55Z</time>
      </trkpt>
      <trkpt lat="42.90608" lon="0.26542">
        <ele>1748</ele>
        <time>2014-03-30T10:35:21Z</time>
      </trkpt>
      <trkpt lat="42.90608" lon="0.2654">
        <ele>1749</ele>
        <time>2014-03-30T10:35:43Z</time>
      </trkpt>
      <trkpt lat="42.90608" lon="0.2654">
        <ele>1749</ele>
        <time>2014-03-30T10:36:03Z</time>
      </trkpt>
      <trkpt lat="42.90608" lon="0.26538">
        <ele>1749</ele>
        <time>2014-03-30T10:36:42Z</time>
      </trkpt>
      <trkpt lat="42.90606" lon="0.26528">
        <ele>1751</ele>
        <time>2014-03-30T10:36:55Z</time>
      </trkpt>
      <trkpt lat="42.90605" lon="0.26518">
        <ele>1753</ele>
        <time>2014-03-30T10:37:08Z</time>
      </trkpt>
      <trkpt lat="42.90603" lon="0.26505">
        <ele>1754</ele>
        <time>2014-03-30T10:37:24Z</time>
      </trkpt>
      <trkpt lat="42.90603" lon="0.26492">
        <ele>1755</ele>
        <time>2014-03-30T10:37:40Z</time>
      </trkpt>
      <trkpt lat="42.90603" lon="0.26479">
        <ele>1757</ele>
        <time>2014-03-30T10:37:55Z</time>
      </trkpt>
      <trkpt lat="42.90603" lon="0.26466">
        <ele>1759</ele>
        <time>2014-03-30T10:38:10Z</time>
      </trkpt>
      <trkpt lat="42.90603" lon="0.26451">
        <ele>1761</ele>
        <time>2014-03-30T10:38:25Z</time>
      </trkpt>
      <trkpt lat="42.90602" lon="0.26437">
        <ele>1763</ele>
        <time>2014-03-30T10:38:40Z</time>
      </trkpt>
      <trkpt lat="42.90602" lon="0.26428">
        <ele>1766</ele>
        <time>2014-03-30T10:38:55Z</time>
      </trkpt>
      <trkpt lat="42.90601" lon="0.26417">
        <ele>1768</ele>
        <time>2014-03-30T10:39:09Z</time>
      </trkpt>
      <trkpt lat="42.90601" lon="0.26407">
        <ele>1770</ele>
        <time>2014-03-30T10:39:25Z</time>
      </trkpt>
      <trkpt lat="42.906" lon="0.26395">
        <ele>1772</ele>
        <time>2014-03-30T10:39:40Z</time>
      </trkpt>
      <trkpt lat="42.906" lon="0.26387">
        <ele>1774</ele>
        <time>2014-03-30T10:39:52Z</time>
      </trkpt>
      <trkpt lat="42.90601" lon="0.26391">
        <ele>1773</ele>
        <time>2014-03-30T10:40:16Z</time>
      </trkpt>
      <trkpt lat="42.90601" lon="0.26384">
        <ele>1775</ele>
        <time>2014-03-30T10:40:31Z</time>
      </trkpt>
      <trkpt lat="42.906" lon="0.26372">
        <ele>1777</ele>
        <time>2014-03-30T10:40:48Z</time>
      </trkpt>
      <trkpt lat="42.906" lon="0.26362">
        <ele>1780</ele>
        <time>2014-03-30T10:41:02Z</time>
      </trkpt>
      <trkpt lat="42.906" lon="0.26352">
        <ele>1782</ele>
        <time>2014-03-30T10:41:16Z</time>
      </trkpt>
      <trkpt lat="42.906" lon="0.26347">
        <ele>1783</ele>
        <time>2014-03-30T10:41:23Z</time>
      </trkpt>
      <trkpt lat="42.90602" lon="0.26335">
        <ele>1785</ele>
        <time>2014-03-30T10:41:38Z</time>
      </trkpt>
      <trkpt lat="42.90605" lon="0.26323">
        <ele>1787</ele>
        <time>2014-03-30T10:41:55Z</time>
      </trkpt>
      <trkpt lat="42.90606" lon="0.26313">
        <ele>1789</ele>
        <time>2014-03-30T10:42:10Z</time>
      </trkpt>
      <trkpt lat="42.90609" lon="0.26298">
        <ele>1791</ele>
        <time>2014-03-30T10:42:27Z</time>
      </trkpt>
      <trkpt lat="42.90611" lon="0.26284">
        <ele>1793</ele>
        <time>2014-03-30T10:42:43Z</time>
      </trkpt>
      <trkpt lat="42.90614" lon="0.26273">
        <ele>1795</ele>
        <time>2014-03-30T10:43:00Z</time>
      </trkpt>
      <trkpt lat="42.90617" lon="0.26262">
        <ele>1797</ele>
        <time>2014-03-30T10:43:16Z</time>
      </trkpt>
      <trkpt lat="42.90621" lon="0.2625">
        <ele>1799</ele>
        <time>2014-03-30T10:43:33Z</time>
      </trkpt>
      <trkpt lat="42.90623" lon="0.26234">
        <ele>1802</ele>
        <time>2014-03-30T10:43:50Z</time>
      </trkpt>
      <trkpt lat="42.90626" lon="0.26222">
        <ele>1803</ele>
        <time>2014-03-30T10:44:06Z</time>
      </trkpt>
      <trkpt lat="42.90627" lon="0.26221">
        <ele>1803</ele>
        <time>2014-03-30T10:44:28Z</time>
      </trkpt>
      <trkpt lat="42.90628" lon="0.26221">
        <ele>1804</ele>
        <time>2014-03-30T10:45:05Z</time>
      </trkpt>
      <trkpt lat="42.90627" lon="0.26213">
        <ele>1805</ele>
        <time>2014-03-30T10:45:29Z</time>
      </trkpt>
      <trkpt lat="42.90628" lon="0.26202">
        <ele>1807</ele>
        <time>2014-03-30T10:45:44Z</time>
      </trkpt>
      <trkpt lat="42.90632" lon="0.26193">
        <ele>1809</ele>
        <time>2014-03-30T10:45:58Z</time>
      </trkpt>
      <trkpt lat="42.90634" lon="0.26185">
        <ele>1811</ele>
        <time>2014-03-30T10:46:10Z</time>
      </trkpt>
      <trkpt lat="42.90637" lon="0.26173">
        <ele>1814</ele>
        <time>2014-03-30T10:46:26Z</time>
      </trkpt>
      <trkpt lat="42.90641" lon="0.26159">
        <ele>1815</ele>
        <time>2014-03-30T10:46:43Z</time>
      </trkpt>
      <trkpt lat="42.90646" lon="0.26147">
        <ele>1817</ele>
        <time>2014-03-30T10:47:00Z</time>
      </trkpt>
      <trkpt lat="42.90648" lon="0.26138">
        <ele>1819</ele>
        <time>2014-03-30T10:47:15Z</time>
      </trkpt>
      <trkpt lat="42.9065" lon="0.26133">
        <ele>1820</ele>
        <time>2014-03-30T10:47:32Z</time>
      </trkpt>
      <trkpt lat="42.90651" lon="0.26133">
        <ele>1821</ele>
        <time>2014-03-30T10:48:08Z</time>
      </trkpt>
      <trkpt lat="42.90648" lon="0.26133">
        <ele>1821</ele>
        <time>2014-03-30T10:48:45Z</time>
      </trkpt>
      <trkpt lat="42.90652" lon="0.26125">
        <ele>1823</ele>
        <time>2014-03-30T10:48:59Z</time>
      </trkpt>
      <trkpt lat="42.90656" lon="0.26114">
        <ele>1825</ele>
        <time>2014-03-30T10:49:16Z</time>
      </trkpt>
      <trkpt lat="42.90657" lon="0.26106">
        <ele>1828</ele>
        <time>2014-03-30T10:49:32Z</time>
      </trkpt>
      <trkpt lat="42.9066" lon="0.26096">
        <ele>1830</ele>
        <time>2014-03-30T10:49:46Z</time>
      </trkpt>
      <trkpt lat="42.90663" lon="0.26088">
        <ele>1833</ele>
        <time>2014-03-30T10:50:02Z</time>
      </trkpt>
      <trkpt lat="42.90665" lon="0.2608">
        <ele>1834</ele>
        <time>2014-03-30T10:50:17Z</time>
      </trkpt>
      <trkpt lat="42.90667" lon="0.26079">
        <ele>1835</ele>
        <time>2014-03-30T10:50:38Z</time>
      </trkpt>
      <trkpt lat="42.90665" lon="0.26081">
        <ele>1835</ele>
        <time>2014-03-30T10:51:13Z</time>
      </trkpt>
      <trkpt lat="42.90666" lon="0.2608">
        <ele>1835</ele>
        <time>2014-03-30T10:51:45Z</time>
      </trkpt>
      <trkpt lat="42.90665" lon="0.26081">
        <ele>1835</ele>
        <time>2014-03-30T10:52:22Z</time>
      </trkpt>
      <trkpt lat="42.90665" lon="0.26081">
        <ele>1835</ele>
        <time>2014-03-30T10:52:50Z</time>
      </trkpt>
      <trkpt lat="42.90665" lon="0.26081">
        <ele>1835</ele>
        <time>2014-03-30T10:53:25Z</time>
      </trkpt>
      <trkpt lat="42.90666" lon="0.26075">
        <ele>1837</ele>
        <time>2014-03-30T10:53:47Z</time>
      </trkpt>
      <trkpt lat="42.9067" lon="0.26067">
        <ele>1839</ele>
        <time>2014-03-30T10:54:00Z</time>
      </trkpt>
      <trkpt lat="42.90674" lon="0.26056">
        <ele>1841</ele>
        <time>2014-03-30T10:54:17Z</time>
      </trkpt>
      <trkpt lat="42.90676" lon="0.26047">
        <ele>1843</ele>
        <time>2014-03-30T10:54:34Z</time>
      </trkpt>
      <trkpt lat="42.90676" lon="0.26041">
        <ele>1845</ele>
        <time>2014-03-30T10:54:47Z</time>
      </trkpt>
      <trkpt lat="42.90679" lon="0.26032">
        <ele>1847</ele>
        <time>2014-03-30T10:55:02Z</time>
      </trkpt>
      <trkpt lat="42.90682" lon="0.26023">
        <ele>1849</ele>
        <time>2014-03-30T10:55:16Z</time>
      </trkpt>
      <trkpt lat="42.90686" lon="0.26018">
        <ele>1850</ele>
        <time>2014-03-30T10:55:29Z</time>
      </trkpt>
      <trkpt lat="42.90685" lon="0.26016">
        <ele>1851</ele>
        <time>2014-03-30T10:55:51Z</time>
      </trkpt>
      <trkpt lat="42.90686" lon="0.26006">
        <ele>1853</ele>
        <time>2014-03-30T10:56:09Z</time>
      </trkpt>
      <trkpt lat="42.90688" lon="0.25999">
        <ele>1855</ele>
        <time>2014-03-30T10:56:22Z</time>
      </trkpt>
      <trkpt lat="42.9069" lon="0.25992">
        <ele>1857</ele>
        <time>2014-03-30T10:56:40Z</time>
      </trkpt>
      <trkpt lat="42.90691" lon="0.25986">
        <ele>1858</ele>
        <time>2014-03-30T10:56:58Z</time>
      </trkpt>
      <trkpt lat="42.90692" lon="0.25979">
        <ele>1861</ele>
        <time>2014-03-30T10:57:14Z</time>
      </trkpt>
      <trkpt lat="42.90693" lon="0.25975">
        <ele>1862</ele>
        <time>2014-03-30T10:57:21Z</time>
      </trkpt>
      <trkpt lat="42.90695" lon="0.2597">
        <ele>1864</ele>
        <time>2014-03-30T10:57:34Z</time>
      </trkpt>
      <trkpt lat="42.90702" lon="0.25968">
        <ele>1867</ele>
        <time>2014-03-30T10:57:52Z</time>
      </trkpt>
      <trkpt lat="42.90709" lon="0.25962">
        <ele>1869</ele>
        <time>2014-03-30T10:58:07Z</time>
      </trkpt>
      <trkpt lat="42.90707" lon="0.25954">
        <ele>1872</ele>
        <time>2014-03-30T10:58:22Z</time>
      </trkpt>
      <trkpt lat="42.90709" lon="0.25951">
        <ele>1873</ele>
        <time>2014-03-30T10:58:36Z</time>
      </trkpt>
      <trkpt lat="42.90709" lon="0.2595">
        <ele>1874</ele>
        <time>2014-03-30T10:58:54Z</time>
      </trkpt>
      <trkpt lat="42.90708" lon="0.2595">
        <ele>1874</ele>
        <time>2014-03-30T10:59:31Z</time>
      </trkpt>
      <trkpt lat="42.90706" lon="0.2595">
        <ele>1874</ele>
        <time>2014-03-30T10:59:51Z</time>
      </trkpt>
      <trkpt lat="42.90708" lon="0.25948">
        <ele>1875</ele>
        <time>2014-03-30T11:00:14Z</time>
      </trkpt>
      <trkpt lat="42.90708" lon="0.25944">
        <ele>1875</ele>
        <time>2014-03-30T11:00:35Z</time>
      </trkpt>
      <trkpt lat="42.9071" lon="0.25938">
        <ele>1877</ele>
        <time>2014-03-30T11:00:45Z</time>
      </trkpt>
      <trkpt lat="42.90712" lon="0.2593">
        <ele>1880</ele>
        <time>2014-03-30T11:01:02Z</time>
      </trkpt>
      <trkpt lat="42.90713" lon="0.25923">
        <ele>1882</ele>
        <time>2014-03-30T11:01:15Z</time>
      </trkpt>
      <trkpt lat="42.90716" lon="0.25917">
        <ele>1884</ele>
        <time>2014-03-30T11:01:27Z</time>
      </trkpt>
      <trkpt lat="42.90717" lon="0.25908">
        <ele>1886</ele>
        <time>2014-03-30T11:01:47Z</time>
      </trkpt>
      <trkpt lat="42.90717" lon="0.25905">
        <ele>1888</ele>
        <time>2014-03-30T11:02:16Z</time>
      </trkpt>
      <trkpt lat="42.9072" lon="0.25894">
        <ele>1891</ele>
        <time>2014-03-30T11:02:33Z</time>
      </trkpt>
      <trkpt lat="42.90721" lon="0.25887">
        <ele>1892</ele>
        <time>2014-03-30T11:02:45Z</time>
      </trkpt>
      <trkpt lat="42.90724" lon="0.25879">
        <ele>1895</ele>
        <time>2014-03-30T11:03:01Z</time>
      </trkpt>
      <trkpt lat="42.90724" lon="0.25878">
        <ele>1895</ele>
        <time>2014-03-30T11:03:22Z</time>
      </trkpt>
      <trkpt lat="42.90724" lon="0.25877">
        <ele>1895</ele>
        <time>2014-03-30T11:03:48Z</time>
      </trkpt>
      <trkpt lat="42.90723" lon="0.25879">
        <ele>1895</ele>
        <time>2014-03-30T11:04:16Z</time>
      </trkpt>
      <trkpt lat="42.90723" lon="0.25879">
        <ele>1896</ele>
        <time>2014-03-30T11:04:49Z</time>
      </trkpt>
      <trkpt lat="42.90724" lon="0.25878">
        <ele>1896</ele>
        <time>2014-03-30T11:05:15Z</time>
      </trkpt>
      <trkpt lat="42.90724" lon="0.25877">
        <ele>1896</ele>
        <time>2014-03-30T11:05:41Z</time>
      </trkpt>
      <trkpt lat="42.90724" lon="0.25877">
        <ele>1896</ele>
        <time>2014-03-30T11:06:04Z</time>
      </trkpt>
      <trkpt lat="42.90725" lon="0.25868">
        <ele>1897</ele>
        <time>2014-03-30T11:06:15Z</time>
      </trkpt>
      <trkpt lat="42.90727" lon="0.2586">
        <ele>1900</ele>
        <time>2014-03-30T11:06:30Z</time>
      </trkpt>
      <trkpt lat="42.90729" lon="0.25852">
        <ele>1902</ele>
        <time>2014-03-30T11:06:43Z</time>
      </trkpt>
      <trkpt lat="42.90731" lon="0.25841">
        <ele>1905</ele>
        <time>2014-03-30T11:06:58Z</time>
      </trkpt>
      <trkpt lat="42.90733" lon="0.25833">
        <ele>1907</ele>
        <time>2014-03-30T11:07:13Z</time>
      </trkpt>
      <trkpt lat="42.90734" lon="0.25831">
        <ele>1909</ele>
        <time>2014-03-30T11:07:27Z</time>
      </trkpt>
      <trkpt lat="42.90736" lon="0.25826">
        <ele>1910</ele>
        <time>2014-03-30T11:07:42Z</time>
      </trkpt>
      <trkpt lat="42.90737" lon="0.25821">
        <ele>1910</ele>
        <time>2014-03-30T11:07:54Z</time>
      </trkpt>
      <trkpt lat="42.9074" lon="0.25812">
        <ele>1912</ele>
        <time>2014-03-30T11:08:11Z</time>
      </trkpt>
      <trkpt lat="42.90742" lon="0.25802">
        <ele>1914</ele>
        <time>2014-03-30T11:08:23Z</time>
      </trkpt>
      <trkpt lat="42.90744" lon="0.25794">
        <ele>1916</ele>
        <time>2014-03-30T11:08:38Z</time>
      </trkpt>
      <trkpt lat="42.90747" lon="0.25787">
        <ele>1917</ele>
        <time>2014-03-30T11:08:53Z</time>
      </trkpt>
      <trkpt lat="42.90751" lon="0.25776">
        <ele>1918</ele>
        <time>2014-03-30T11:09:07Z</time>
      </trkpt>
      <trkpt lat="42.90752" lon="0.25775">
        <ele>1919</ele>
        <time>2014-03-30T11:09:27Z</time>
      </trkpt>
      <trkpt lat="42.90753" lon="0.25773">
        <ele>1918</ele>
        <time>2014-03-30T11:09:54Z</time>
      </trkpt>
      <trkpt lat="42.90756" lon="0.25759">
        <ele>1918</ele>
        <time>2014-03-30T11:10:09Z</time>
      </trkpt>
      <trkpt lat="42.9076" lon="0.25744">
        <ele>1918</ele>
        <time>2014-03-30T11:10:24Z</time>
      </trkpt>
      <trkpt lat="42.90764" lon="0.25734">
        <ele>1917</ele>
        <time>2014-03-30T11:10:36Z</time>
      </trkpt>
      <trkpt lat="42.90766" lon="0.2573">
        <ele>1917</ele>
        <time>2014-03-30T11:10:51Z</time>
      </trkpt>
      <trkpt lat="42.90766" lon="0.2573">
        <ele>1917</ele>
        <time>2014-03-30T11:11:26Z</time>
      </trkpt>
      <trkpt lat="42.90766" lon="0.25731">
        <ele>1917</ele>
        <time>2014-03-30T11:12:03Z</time>
      </trkpt>
      <trkpt lat="42.90767" lon="0.25725">
        <ele>1916</ele>
        <time>2014-03-30T11:12:17Z</time>
      </trkpt>
      <trkpt lat="42.90768" lon="0.25724">
        <ele>1916</ele>
        <time>2014-03-30T11:12:41Z</time>
      </trkpt>
      <trkpt lat="42.90767" lon="0.25724">
        <ele>1916</ele>
        <time>2014-03-30T11:12:57Z</time>
      </trkpt>
      <trkpt lat="42.90766" lon="0.25726">
        <ele>1916</ele>
        <time>2014-03-30T11:13:16Z</time>
      </trkpt>
      <trkpt lat="42.90767" lon="0.25726">
        <ele>1916</ele>
        <time>2014-03-30T11:13:30Z</time>
      </trkpt>
      <trkpt lat="42.90766" lon="0.25724">
        <ele>1916</ele>
        <time>2014-03-30T11:13:47Z</time>
      </trkpt>
      <trkpt lat="42.90765" lon="0.25718">
        <ele>1914</ele>
        <time>2014-03-30T11:13:57Z</time>
      </trkpt>
      <trkpt lat="42.90769" lon="0.25708">
        <ele>1911</ele>
        <time>2014-03-30T11:14:11Z</time>
      </trkpt>
      <trkpt lat="42.90772" lon="0.25708">
        <ele>1910</ele>
        <time>2014-03-30T11:14:25Z</time>
      </trkpt>
      <trkpt lat="42.90772" lon="0.25707">
        <ele>1911</ele>
        <time>2014-03-30T11:14:41Z</time>
      </trkpt>
      <trkpt lat="42.90771" lon="0.25707">
        <ele>1911</ele>
        <time>2014-03-30T11:15:01Z</time>
      </trkpt>
      <trkpt lat="42.90774" lon="0.25708">
        <ele>1911</ele>
        <time>2014-03-30T11:15:21Z</time>
      </trkpt>
      <trkpt lat="42.90774" lon="0.2571">
        <ele>1910</ele>
        <time>2014-03-30T11:15:42Z</time>
      </trkpt>
      <trkpt lat="42.90772" lon="0.25708">
        <ele>1909</ele>
        <time>2014-03-30T11:16:16Z</time>
      </trkpt>
      <trkpt lat="42.90773" lon="0.25707">
        <ele>1910</ele>
        <time>2014-03-30T11:16:51Z</time>
      </trkpt>
      <trkpt lat="42.90776" lon="0.25708">
        <ele>1909</ele>
        <time>2014-03-30T11:17:15Z</time>
      </trkpt>
      <trkpt lat="42.90775" lon="0.25708">
        <ele>1908</ele>
        <time>2014-03-30T11:17:17Z</time>
      </trkpt>
      <trkpt lat="42.90774" lon="0.25707">
        <ele>1908</ele>
        <time>2014-03-30T11:17:40Z</time>
      </trkpt>
      <trkpt lat="42.90774" lon="0.25707">
        <ele>1909</ele>
        <time>2014-03-30T11:17:54Z</time>
      </trkpt>
      <trkpt lat="42.90772" lon="0.25706">
        <ele>1910</ele>
        <time>2014-03-30T11:18:23Z</time>
      </trkpt>
      <trkpt lat="42.90776" lon="0.25709">
        <ele>1909</ele>
        <time>2014-03-30T11:18:54Z</time>
      </trkpt>
      <trkpt lat="42.90774" lon="0.25707">
        <ele>1908</ele>
        <time>2014-03-30T11:19:27Z</time>
      </trkpt>
      <trkpt lat="42.90775" lon="0.25707">
        <ele>1909</ele>
        <time>2014-03-30T11:19:43Z</time>
      </trkpt>
      <trkpt lat="42.90772" lon="0.25706">
        <ele>1909</ele>
        <time>2014-03-30T11:20:12Z</time>
      </trkpt>
      <trkpt lat="42.90772" lon="0.25707">
        <ele>1908</ele>
        <time>2014-03-30T11:20:48Z</time>
      </trkpt>
      <trkpt lat="42.90772" lon="0.25705">
        <ele>1909</ele>
        <time>2014-03-30T11:21:28Z</time>
      </trkpt>
      <trkpt lat="42.90773" lon="0.25706">
        <ele>1909</ele>
        <time>2014-03-30T11:21:56Z</time>
      </trkpt>
      <trkpt lat="42.90774" lon="0.25706">
        <ele>1908</ele>
        <time>2014-03-30T11:22:34Z</time>
      </trkpt>
      <trkpt lat="42.90775" lon="0.25707">
        <ele>1909</ele>
        <time>2014-03-30T11:23:03Z</time>
      </trkpt>
      <trkpt lat="42.90775" lon="0.25707">
        <ele>1909</ele>
        <time>2014-03-30T11:23:42Z</time>
      </trkpt>
      <trkpt lat="42.90774" lon="0.25705">
        <ele>1909</ele>
        <time>2014-03-30T11:24:16Z</time>
      </trkpt>
      <trkpt lat="42.90773" lon="0.25706">
        <ele>1909</ele>
        <time>2014-03-30T11:25:00Z</time>
      </trkpt>
      <trkpt lat="42.90774" lon="0.25705">
        <ele>1909</ele>
        <time>2014-03-30T11:25:39Z</time>
      </trkpt>
      <trkpt lat="42.90773" lon="0.25706">
        <ele>1909</ele>
        <time>2014-03-30T11:26:15Z</time>
      </trkpt>
      <trkpt lat="42.90774" lon="0.25706">
        <ele>1909</ele>
        <time>2014-03-30T11:26:37Z</time>
      </trkpt>
      <trkpt lat="42.90773" lon="0.25705">
        <ele>1908</ele>
        <time>2014-03-30T11:27:02Z</time>
      </trkpt>
      <trkpt lat="42.90773" lon="0.25705">
        <ele>1908</ele>
        <time>2014-03-30T11:27:32Z</time>
      </trkpt>
      <trkpt lat="42.90771" lon="0.25705">
        <ele>1908</ele>
        <time>2014-03-30T11:28:07Z</time>
      </trkpt>
      <trkpt lat="42.90773" lon="0.25704">
        <ele>1908</ele>
        <time>2014-03-30T11:28:40Z</time>
      </trkpt>
      <trkpt lat="42.90771" lon="0.25704">
        <ele>1908</ele>
        <time>2014-03-30T11:29:08Z</time>
      </trkpt>
      <trkpt lat="42.90772" lon="0.25704">
        <ele>1908</ele>
        <time>2014-03-30T11:29:50Z</time>
      </trkpt>
      <trkpt lat="42.90773" lon="0.25706">
        <ele>1908</ele>
        <time>2014-03-30T11:30:25Z</time>
      </trkpt>
      <trkpt lat="42.90772" lon="0.25704">
        <ele>1908</ele>
        <time>2014-03-30T11:31:03Z</time>
      </trkpt>
      <trkpt lat="42.90772" lon="0.25704">
        <ele>1907</ele>
        <time>2014-03-30T11:31:36Z</time>
      </trkpt>
      <trkpt lat="42.90769" lon="0.257">
        <ele>1907</ele>
        <time>2014-03-30T11:32:12Z</time>
      </trkpt>
      <trkpt lat="42.90768" lon="0.25699">
        <ele>1908</ele>
        <time>2014-03-30T11:32:41Z</time>
      </trkpt>
      <trkpt lat="42.90767" lon="0.25698">
        <ele>1908</ele>
        <time>2014-03-30T11:33:08Z</time>
      </trkpt>
      <trkpt lat="42.90767" lon="0.25697">
        <ele>1908</ele>
        <time>2014-03-30T11:33:44Z</time>
      </trkpt>
      <trkpt lat="42.90767" lon="0.25697">
        <ele>1908</ele>
        <time>2014-03-30T11:34:23Z</time>
      </trkpt>
      <trkpt lat="42.90768" lon="0.25698">
        <ele>1908</ele>
        <time>2014-03-30T11:35:02Z</time>
      </trkpt>
      <trkpt lat="42.90767" lon="0.25698">
        <ele>1909</ele>
        <time>2014-03-30T11:35:43Z</time>
      </trkpt>
      <trkpt lat="42.90767" lon="0.25697">
        <ele>1909</ele>
        <time>2014-03-30T11:36:24Z</time>
      </trkpt>
      <trkpt lat="42.90767" lon="0.25697">
        <ele>1909</ele>
        <time>2014-03-30T11:37:08Z</time>
      </trkpt>
      <trkpt lat="42.90768" lon="0.25698">
        <ele>1909</ele>
        <time>2014-03-30T11:37:43Z</time>
      </trkpt>
      <trkpt lat="42.90768" lon="0.25697">
        <ele>1909</ele>
        <time>2014-03-30T11:38:22Z</time>
      </trkpt>
      <trkpt lat="42.90768" lon="0.257">
        <ele>1909</ele>
        <time>2014-03-30T11:39:04Z</time>
      </trkpt>
      <trkpt lat="42.90769" lon="0.25701">
        <ele>1909</ele>
        <time>2014-03-30T11:39:38Z</time>
      </trkpt>
      <trkpt lat="42.90768" lon="0.25701">
        <ele>1910</ele>
        <time>2014-03-30T11:40:10Z</time>
      </trkpt>
      <trkpt lat="42.90767" lon="0.25701">
        <ele>1909</ele>
        <time>2014-03-30T11:40:41Z</time>
      </trkpt>
      <trkpt lat="42.90767" lon="0.25701">
        <ele>1910</ele>
        <time>2014-03-30T11:41:12Z</time>
      </trkpt>
      <trkpt lat="42.90765" lon="0.25699">
        <ele>1910</ele>
        <time>2014-03-30T11:41:48Z</time>
      </trkpt>
      <trkpt lat="42.90769" lon="0.25702">
        <ele>1910</ele>
        <time>2014-03-30T11:42:23Z</time>
      </trkpt>
      <trkpt lat="42.90769" lon="0.25703">
        <ele>1909</ele>
        <time>2014-03-30T11:42:55Z</time>
      </trkpt>
      <trkpt lat="42.90766" lon="0.257">
        <ele>1909</ele>
        <time>2014-03-30T11:43:22Z</time>
      </trkpt>
      <trkpt lat="42.90765" lon="0.25699">
        <ele>1910</ele>
        <time>2014-03-30T11:43:50Z</time>
      </trkpt>
      <trkpt lat="42.90767" lon="0.257">
        <ele>1909</ele>
        <time>2014-03-30T11:44:26Z</time>
      </trkpt>
      <trkpt lat="42.90767" lon="0.257">
        <ele>1910</ele>
        <time>2014-03-30T11:44:58Z</time>
      </trkpt>
      <trkpt lat="42.90768" lon="0.25702">
        <ele>1910</ele>
        <time>2014-03-30T11:45:33Z</time>
      </trkpt>
      <trkpt lat="42.90768" lon="0.25703">
        <ele>1910</ele>
        <time>2014-03-30T11:46:04Z</time>
      </trkpt>
      <trkpt lat="42.90767" lon="0.25702">
        <ele>1910</ele>
        <time>2014-03-30T11:46:32Z</time>
      </trkpt>
      <trkpt lat="42.90768" lon="0.25702">
        <ele>1910</ele>
        <time>2014-03-30T11:47:03Z</time>
      </trkpt>
      <trkpt lat="42.90769" lon="0.25704">
        <ele>1910</ele>
        <time>2014-03-30T11:47:34Z</time>
      </trkpt>
      <trkpt lat="42.90769" lon="0.25703">
        <ele>1910</ele>
        <time>2014-03-30T11:48:08Z</time>
      </trkpt>
      <trkpt lat="42.90768" lon="0.25703">
        <ele>1910</ele>
        <time>2014-03-30T11:48:42Z</time>
      </trkpt>
      <trkpt lat="42.90769" lon="0.25703">
        <ele>1911</ele>
        <time>2014-03-30T11:49:18Z</time>
      </trkpt>
      <trkpt lat="42.90769" lon="0.25702">
        <ele>1910</ele>
        <time>2014-03-30T11:49:51Z</time>
      </trkpt>
      <trkpt lat="42.90769" lon="0.25702">
        <ele>1911</ele>
        <time>2014-03-30T11:50:17Z</time>
      </trkpt>
      <trkpt lat="42.9077" lon="0.25705">
        <ele>1910</ele>
        <time>2014-03-30T11:50:52Z</time>
      </trkpt>
      <trkpt lat="42.90769" lon="0.25704">
        <ele>1911</ele>
        <time>2014-03-30T11:51:27Z</time>
      </trkpt>
      <trkpt lat="42.9077" lon="0.25705">
        <ele>1910</ele>
        <time>2014-03-30T11:51:56Z</time>
      </trkpt>
      <trkpt lat="42.90769" lon="0.25704">
        <ele>1911</ele>
        <time>2014-03-30T11:52:21Z</time>
      </trkpt>
      <trkpt lat="42.90768" lon="0.25703">
        <ele>1911</ele>
        <time>2014-03-30T11:52:46Z</time>
      </trkpt>
      <trkpt lat="42.9077" lon="0.25704">
        <ele>1910</ele>
        <time>2014-03-30T11:53:19Z</time>
      </trkpt>
      <trkpt lat="42.9077" lon="0.25705">
        <ele>1911</ele>
        <time>2014-03-30T11:53:43Z</time>
      </trkpt>
      <trkpt lat="42.90769" lon="0.25704">
        <ele>1911</ele>
        <time>2014-03-30T11:54:12Z</time>
      </trkpt>
      <trkpt lat="42.90769" lon="0.25704">
        <ele>1911</ele>
        <time>2014-03-30T11:54:42Z</time>
      </trkpt>
      <trkpt lat="42.9077" lon="0.25705">
        <ele>1911</ele>
        <time>2014-03-30T11:55:12Z</time>
      </trkpt>
      <trkpt lat="42.9077" lon="0.25704">
        <ele>1911</ele>
        <time>2014-03-30T11:55:39Z</time>
      </trkpt>
      <trkpt lat="42.90769" lon="0.25703">
        <ele>1911</ele>
        <time>2014-03-30T11:56:13Z</time>
      </trkpt>
      <trkpt lat="42.90769" lon="0.25703">
        <ele>1912</ele>
        <time>2014-03-30T11:56:38Z</time>
      </trkpt>
      <trkpt lat="42.90771" lon="0.25706">
        <ele>1911</ele>
        <time>2014-03-30T11:57:08Z</time>
      </trkpt>
      <trkpt lat="42.9077" lon="0.25705">
        <ele>1911</ele>
        <time>2014-03-30T11:57:34Z</time>
      </trkpt>
      <trkpt lat="42.9077" lon="0.25705">
        <ele>1911</ele>
        <time>2014-03-30T11:58:03Z</time>
      </trkpt>
      <trkpt lat="42.90771" lon="0.25706">
        <ele>1911</ele>
        <time>2014-03-30T11:58:40Z</time>
      </trkpt>
      <trkpt lat="42.90771" lon="0.25705">
        <ele>1911</ele>
        <time>2014-03-30T11:59:16Z</time>
      </trkpt>
      <trkpt lat="42.90771" lon="0.25705">
        <ele>1911</ele>
        <time>2014-03-30T11:59:46Z</time>
      </trkpt>
      <trkpt lat="42.90771" lon="0.25705">
        <ele>1912</ele>
        <time>2014-03-30T12:00:17Z</time>
      </trkpt>
      <trkpt lat="42.90771" lon="0.25706">
        <ele>1911</ele>
        <time>2014-03-30T12:00:45Z</time>
      </trkpt>
      <trkpt lat="42.90771" lon="0.25705">
        <ele>1911</ele>
        <time>2014-03-30T12:01:13Z</time>
      </trkpt>
      <trkpt lat="42.9077" lon="0.25705">
        <ele>1911</ele>
        <time>2014-03-30T12:01:51Z</time>
      </trkpt>
      <trkpt lat="42.90771" lon="0.25706">
        <ele>1911</ele>
        <time>2014-03-30T12:02:18Z</time>
      </trkpt>
      <trkpt lat="42.90771" lon="0.25705">
        <ele>1911</ele>
        <time>2014-03-30T12:02:46Z</time>
      </trkpt>
      <trkpt lat="42.90771" lon="0.25704">
        <ele>1911</ele>
        <time>2014-03-30T12:03:24Z</time>
      </trkpt>
      <trkpt lat="42.90771" lon="0.25704">
        <ele>1911</ele>
        <time>2014-03-30T12:03:53Z</time>
      </trkpt>
      <trkpt lat="42.90772" lon="0.25705">
        <ele>1911</ele>
        <time>2014-03-30T12:04:26Z</time>
      </trkpt>
      <trkpt lat="42.90773" lon="0.25705">
        <ele>1911</ele>
        <time>2014-03-30T12:04:57Z</time>
      </trkpt>
      <trkpt lat="42.90772" lon="0.25706">
        <ele>1911</ele>
        <time>2014-03-30T12:05:34Z</time>
      </trkpt>
      <trkpt lat="42.90772" lon="0.25705">
        <ele>1911</ele>
        <time>2014-03-30T12:06:09Z</time>
      </trkpt>
      <trkpt lat="42.90772" lon="0.25705">
        <ele>1911</ele>
        <time>2014-03-30T12:06:39Z</time>
      </trkpt>
      <trkpt lat="42.90772" lon="0.25704">
        <ele>1911</ele>
        <time>2014-03-30T12:07:09Z</time>
      </trkpt>
      <trkpt lat="42.90772" lon="0.25705">
        <ele>1911</ele>
        <time>2014-03-30T12:07:39Z</time>
      </trkpt>
      <trkpt lat="42.90772" lon="0.25705">
        <ele>1911</ele>
        <time>2014-03-30T12:08:14Z</time>
      </trkpt>
      <trkpt lat="42.90771" lon="0.25704">
        <ele>1910</ele>
        <time>2014-03-30T12:08:46Z</time>
      </trkpt>
      <trkpt lat="42.90772" lon="0.25705">
        <ele>1911</ele>
        <time>2014-03-30T12:09:27Z</time>
      </trkpt>
      <trkpt lat="42.90772" lon="0.25705">
        <ele>1911</ele>
        <time>2014-03-30T12:10:00Z</time>
      </trkpt>
      <trkpt lat="42.90772" lon="0.25703">
        <ele>1910</ele>
        <time>2014-03-30T12:10:30Z</time>
      </trkpt>
      <trkpt lat="42.90772" lon="0.25705">
        <ele>1910</ele>
        <time>2014-03-30T12:10:54Z</time>
      </trkpt>
      <trkpt lat="42.90772" lon="0.25704">
        <ele>1910</ele>
        <time>2014-03-30T12:11:27Z</time>
      </trkpt>
      <trkpt lat="42.90771" lon="0.25705">
        <ele>1910</ele>
        <time>2014-03-30T12:11:56Z</time>
      </trkpt>
      <trkpt lat="42.90772" lon="0.25705">
        <ele>1909</ele>
        <time>2014-03-30T12:12:20Z</time>
      </trkpt>
      <trkpt lat="42.90773" lon="0.25706">
        <ele>1910</ele>
        <time>2014-03-30T12:12:46Z</time>
      </trkpt>
      <trkpt lat="42.90773" lon="0.25707">
        <ele>1909</ele>
        <time>2014-03-30T12:13:16Z</time>
      </trkpt>
      <trkpt lat="42.90774" lon="0.25707">
        <ele>1910</ele>
        <time>2014-03-30T12:13:44Z</time>
      </trkpt>
      <trkpt lat="42.90774" lon="0.25708">
        <ele>1909</ele>
        <time>2014-03-30T12:14:14Z</time>
      </trkpt>
      <trkpt lat="42.90773" lon="0.25707">
        <ele>1909</ele>
        <time>2014-03-30T12:14:49Z</time>
      </trkpt>
      <trkpt lat="42.90773" lon="0.25706">
        <ele>1910</ele>
        <time>2014-03-30T12:15:18Z</time>
      </trkpt>
      <trkpt lat="42.90774" lon="0.25706">
        <ele>1909</ele>
        <time>2014-03-30T12:15:51Z</time>
      </trkpt>
      <trkpt lat="42.90773" lon="0.25706">
        <ele>1909</ele>
        <time>2014-03-30T12:16:02Z</time>
      </trkpt>
      <trkpt lat="42.90771" lon="0.25705">
        <ele>1910</ele>
        <time>2014-03-30T12:16:08Z</time>
      </trkpt>
      <trkpt lat="42.90771" lon="0.25706">
        <ele>1909</ele>
        <time>2014-03-30T12:16:11Z</time>
      </trkpt>
      <trkpt lat="42.90773" lon="0.25706">
        <ele>1910</ele>
        <time>2014-03-30T12:16:23Z</time>
      </trkpt>
      <trkpt lat="42.90773" lon="0.25707">
        <ele>1909</ele>
        <time>2014-03-30T12:16:43Z</time>
      </trkpt>
      <trkpt lat="42.9077" lon="0.25706">
        <ele>1910</ele>
        <time>2014-03-30T12:17:11Z</time>
      </trkpt>
      <trkpt lat="42.9077" lon="0.25706">
        <ele>1910</ele>
        <time>2014-03-30T12:17:34Z</time>
      </trkpt>
      <trkpt lat="42.9077" lon="0.25708">
        <ele>1910</ele>
        <time>2014-03-30T12:17:54Z</time>
      </trkpt>
      <trkpt lat="42.90771" lon="0.25706">
        <ele>1910</ele>
        <time>2014-03-30T12:18:16Z</time>
      </trkpt>
      <trkpt lat="42.90766" lon="0.25707">
        <ele>1911</ele>
        <time>2014-03-30T12:18:37Z</time>
      </trkpt>
      <trkpt lat="42.90765" lon="0.25708">
        <ele>1911</ele>
        <time>2014-03-30T12:18:39Z</time>
      </trkpt>
      <trkpt lat="42.90761" lon="0.25716">
        <ele>1913</ele>
        <time>2014-03-30T12:18:52Z</time>
      </trkpt>
      <trkpt lat="42.90757" lon="0.25728">
        <ele>1915</ele>
        <time>2014-03-30T12:19:07Z</time>
      </trkpt>
      <trkpt lat="42.9075" lon="0.25738">
        <ele>1916</ele>
        <time>2014-03-30T12:19:22Z</time>
      </trkpt>
      <trkpt lat="42.90748" lon="0.25741">
        <ele>1917</ele>
        <time>2014-03-30T12:19:25Z</time>
      </trkpt>
      <trkpt lat="42.9075" lon="0.25752">
        <ele>1917</ele>
        <time>2014-03-30T12:19:37Z</time>
      </trkpt>
      <trkpt lat="42.90751" lon="0.25755">
        <ele>1917</ele>
        <time>2014-03-30T12:19:53Z</time>
      </trkpt>
      <trkpt lat="42.90751" lon="0.25757">
        <ele>1917</ele>
        <time>2014-03-30T12:20:05Z</time>
      </trkpt>
      <trkpt lat="42.9075" lon="0.25762">
        <ele>1917</ele>
        <time>2014-03-30T12:20:09Z</time>
      </trkpt>
      <trkpt lat="42.90749" lon="0.25773">
        <ele>1918</ele>
        <time>2014-03-30T12:20:21Z</time>
      </trkpt>
      <trkpt lat="42.9075" lon="0.25777">
        <ele>1917</ele>
        <time>2014-03-30T12:20:35Z</time>
      </trkpt>
      <trkpt lat="42.90749" lon="0.25777">
        <ele>1917</ele>
        <time>2014-03-30T12:20:48Z</time>
      </trkpt>
      <trkpt lat="42.90749" lon="0.25777">
        <ele>1917</ele>
        <time>2014-03-30T12:21:05Z</time>
      </trkpt>
      <trkpt lat="42.90748" lon="0.25776">
        <ele>1917</ele>
        <time>2014-03-30T12:21:27Z</time>
      </trkpt>
      <trkpt lat="42.90749" lon="0.25776">
        <ele>1917</ele>
        <time>2014-03-30T12:21:46Z</time>
      </trkpt>
      <trkpt lat="42.9075" lon="0.25775">
        <ele>1917</ele>
        <time>2014-03-30T12:22:02Z</time>
      </trkpt>
      <trkpt lat="42.90749" lon="0.25775">
        <ele>1917</ele>
        <time>2014-03-30T12:22:14Z</time>
      </trkpt>
      <trkpt lat="42.90748" lon="0.25775">
        <ele>1918</ele>
        <time>2014-03-30T12:22:40Z</time>
      </trkpt>
      <trkpt lat="42.90746" lon="0.25774">
        <ele>1916</ele>
        <time>2014-03-30T12:22:50Z</time>
      </trkpt>
      <trkpt lat="42.90746" lon="0.25773">
        <ele>1917</ele>
        <time>2014-03-30T12:23:11Z</time>
      </trkpt>
      <trkpt lat="42.90748" lon="0.25773">
        <ele>1917</ele>
        <time>2014-03-30T12:23:29Z</time>
      </trkpt>
      <trkpt lat="42.90746" lon="0.25774">
        <ele>1917</ele>
        <time>2014-03-30T12:24:07Z</time>
      </trkpt>
      <trkpt lat="42.90747" lon="0.25774">
        <ele>1917</ele>
        <time>2014-03-30T12:24:26Z</time>
      </trkpt>
      <trkpt lat="42.90746" lon="0.25775">
        <ele>1916</ele>
        <time>2014-03-30T12:24:41Z</time>
      </trkpt>
      <trkpt lat="42.90747" lon="0.25782">
        <ele>1916</ele>
        <time>2014-03-30T12:24:54Z</time>
      </trkpt>
      <trkpt lat="42.90744" lon="0.25782">
        <ele>1915</ele>
        <time>2014-03-30T12:25:09Z</time>
      </trkpt>
      <trkpt lat="42.90741" lon="0.25782">
        <ele>1915</ele>
        <time>2014-03-30T12:25:26Z</time>
      </trkpt>
      <trkpt lat="42.90732" lon="0.25779">
        <ele>1913</ele>
        <time>2014-03-30T12:25:39Z</time>
      </trkpt>
      <trkpt lat="42.90727" lon="0.25778">
        <ele>1911</ele>
        <time>2014-03-30T12:25:45Z</time>
      </trkpt>
      <trkpt lat="42.90715" lon="0.25774">
        <ele>1909</ele>
        <time>2014-03-30T12:26:00Z</time>
      </trkpt>
      <trkpt lat="42.90706" lon="0.2577">
        <ele>1907</ele>
        <time>2014-03-30T12:26:13Z</time>
      </trkpt>
      <trkpt lat="42.90705" lon="0.25767">
        <ele>1906</ele>
        <time>2014-03-30T12:26:20Z</time>
      </trkpt>
      <trkpt lat="42.90703" lon="0.25761">
        <ele>1906</ele>
        <time>2014-03-30T12:26:33Z</time>
      </trkpt>
      <trkpt lat="42.907" lon="0.25752">
        <ele>1905</ele>
        <time>2014-03-30T12:26:45Z</time>
      </trkpt>
      <trkpt lat="42.90698" lon="0.25745">
        <ele>1904</ele>
        <time>2014-03-30T12:26:59Z</time>
      </trkpt>
      <trkpt lat="42.90697" lon="0.25744">
        <ele>1904</ele>
        <time>2014-03-30T12:27:21Z</time>
      </trkpt>
      <trkpt lat="42.90694" lon="0.25743">
        <ele>1903</ele>
        <time>2014-03-30T12:27:39Z</time>
      </trkpt>
      <trkpt lat="42.90694" lon="0.25741">
        <ele>1904</ele>
        <time>2014-03-30T12:27:51Z</time>
      </trkpt>
      <trkpt lat="42.90699" lon="0.25755">
        <ele>1905</ele>
        <time>2014-03-30T12:28:06Z</time>
      </trkpt>
      <trkpt lat="42.90703" lon="0.25769">
        <ele>1906</ele>
        <time>2014-03-30T12:28:20Z</time>
      </trkpt>
      <trkpt lat="42.90704" lon="0.25768">
        <ele>1907</ele>
        <time>2014-03-30T12:28:39Z</time>
      </trkpt>
      <trkpt lat="42.90706" lon="0.2577">
        <ele>1906</ele>
        <time>2014-03-30T12:29:03Z</time>
      </trkpt>
      <trkpt lat="42.90703" lon="0.25779">
        <ele>1907</ele>
        <time>2014-03-30T12:29:21Z</time>
      </trkpt>
      <trkpt lat="42.90707" lon="0.25795">
        <ele>1905</ele>
        <time>2014-03-30T12:29:36Z</time>
      </trkpt>
      <trkpt lat="42.90707" lon="0.25796">
        <ele>1906</ele>
        <time>2014-03-30T12:29:37Z</time>
      </trkpt>
      <trkpt lat="42.90713" lon="0.25814">
        <ele>1905</ele>
        <time>2014-03-30T12:29:54Z</time>
      </trkpt>
      <trkpt lat="42.90716" lon="0.2583">
        <ele>1904</ele>
        <time>2014-03-30T12:30:08Z</time>
      </trkpt>
      <trkpt lat="42.90718" lon="0.25829">
        <ele>1904</ele>
        <time>2014-03-30T12:30:28Z</time>
      </trkpt>
      <trkpt lat="42.90717" lon="0.25838">
        <ele>1903</ele>
        <time>2014-03-30T12:30:47Z</time>
      </trkpt>
      <trkpt lat="42.90718" lon="0.25852">
        <ele>1900</ele>
        <time>2014-03-30T12:30:59Z</time>
      </trkpt>
      <trkpt lat="42.9072" lon="0.25859">
        <ele>1899</ele>
        <time>2014-03-30T12:31:13Z</time>
      </trkpt>
      <trkpt lat="42.9072" lon="0.25862">
        <ele>1898</ele>
        <time>2014-03-30T12:31:35Z</time>
      </trkpt>
      <trkpt lat="42.90719" lon="0.25866">
        <ele>1897</ele>
        <time>2014-03-30T12:31:48Z</time>
      </trkpt>
      <trkpt lat="42.9072" lon="0.25874">
        <ele>1894</ele>
        <time>2014-03-30T12:31:59Z</time>
      </trkpt>
      <trkpt lat="42.9072" lon="0.25885">
        <ele>1891</ele>
        <time>2014-03-30T12:32:09Z</time>
      </trkpt>
      <trkpt lat="42.90719" lon="0.25892">
        <ele>1889</ele>
        <time>2014-03-30T12:32:15Z</time>
      </trkpt>
      <trkpt lat="42.90716" lon="0.25902">
        <ele>1886</ele>
        <time>2014-03-30T12:32:25Z</time>
      </trkpt>
      <trkpt lat="42.90713" lon="0.25914">
        <ele>1883</ele>
        <time>2014-03-30T12:32:35Z</time>
      </trkpt>
      <trkpt lat="42.90713" lon="0.25923">
        <ele>1880</ele>
        <time>2014-03-30T12:32:47Z</time>
      </trkpt>
      <trkpt lat="42.90711" lon="0.25933">
        <ele>1877</ele>
        <time>2014-03-30T12:32:59Z</time>
      </trkpt>
      <trkpt lat="42.90711" lon="0.2594">
        <ele>1874</ele>
        <time>2014-03-30T12:33:09Z</time>
      </trkpt>
      <trkpt lat="42.90707" lon="0.25951">
        <ele>1871</ele>
        <time>2014-03-30T12:33:23Z</time>
      </trkpt>
      <trkpt lat="42.90705" lon="0.25958">
        <ele>1867</ele>
        <time>2014-03-30T12:33:32Z</time>
      </trkpt>
      <trkpt lat="42.90702" lon="0.25967">
        <ele>1864</ele>
        <time>2014-03-30T12:33:45Z</time>
      </trkpt>
      <trkpt lat="42.90701" lon="0.25975">
        <ele>1862</ele>
        <time>2014-03-30T12:33:59Z</time>
      </trkpt>
      <trkpt lat="42.907" lon="0.25977">
        <ele>1861</ele>
        <time>2014-03-30T12:34:01Z</time>
      </trkpt>
      <trkpt lat="42.90697" lon="0.25981">
        <ele>1859</ele>
        <time>2014-03-30T12:34:06Z</time>
      </trkpt>
      <trkpt lat="42.90695" lon="0.25985">
        <ele>1857</ele>
        <time>2014-03-30T12:34:25Z</time>
      </trkpt>
      <trkpt lat="42.90694" lon="0.25985">
        <ele>1858</ele>
        <time>2014-03-30T12:35:03Z</time>
      </trkpt>
      <trkpt lat="42.90694" lon="0.25985">
        <ele>1858</ele>
        <time>2014-03-30T12:35:38Z</time>
      </trkpt>
      <trkpt lat="42.90693" lon="0.25984">
        <ele>1858</ele>
        <time>2014-03-30T12:36:07Z</time>
      </trkpt>
      <trkpt lat="42.90693" lon="0.25985">
        <ele>1858</ele>
        <time>2014-03-30T12:36:40Z</time>
      </trkpt>
      <trkpt lat="42.90691" lon="0.25992">
        <ele>1855</ele>
        <time>2014-03-30T12:36:59Z</time>
      </trkpt>
      <trkpt lat="42.90686" lon="0.26001">
        <ele>1853</ele>
        <time>2014-03-30T12:37:10Z</time>
      </trkpt>
      <trkpt lat="42.90685" lon="0.2601">
        <ele>1850</ele>
        <time>2014-03-30T12:37:21Z</time>
      </trkpt>
      <trkpt lat="42.90683" lon="0.26017">
        <ele>1849</ele>
        <time>2014-03-30T12:37:35Z</time>
      </trkpt>
      <trkpt lat="42.90683" lon="0.26018">
        <ele>1848</ele>
        <time>2014-03-30T12:37:54Z</time>
      </trkpt>
      <trkpt lat="42.9068" lon="0.26022">
        <ele>1847</ele>
        <time>2014-03-30T12:38:18Z</time>
      </trkpt>
      <trkpt lat="42.90675" lon="0.26035">
        <ele>1843</ele>
        <time>2014-03-30T12:38:31Z</time>
      </trkpt>
      <trkpt lat="42.90671" lon="0.2605">
        <ele>1841</ele>
        <time>2014-03-30T12:38:44Z</time>
      </trkpt>
      <trkpt lat="42.90669" lon="0.26054">
        <ele>1840</ele>
        <time>2014-03-30T12:38:48Z</time>
      </trkpt>
      <trkpt lat="42.90667" lon="0.26058">
        <ele>1839</ele>
        <time>2014-03-30T12:38:52Z</time>
      </trkpt>
      <trkpt lat="42.90666" lon="0.2606">
        <ele>1838</ele>
        <time>2014-03-30T12:38:54Z</time>
      </trkpt>
      <trkpt lat="42.9066" lon="0.26072">
        <ele>1835</ele>
        <time>2014-03-30T12:39:07Z</time>
      </trkpt>
      <trkpt lat="42.90655" lon="0.26084">
        <ele>1831</ele>
        <time>2014-03-30T12:39:19Z</time>
      </trkpt>
      <trkpt lat="42.90648" lon="0.26098">
        <ele>1830</ele>
        <time>2014-03-30T12:39:34Z</time>
      </trkpt>
      <trkpt lat="42.90641" lon="0.2611">
        <ele>1826</ele>
        <time>2014-03-30T12:39:47Z</time>
      </trkpt>
      <trkpt lat="42.90638" lon="0.2612">
        <ele>1824</ele>
        <time>2014-03-30T12:39:59Z</time>
      </trkpt>
      <trkpt lat="42.90636" lon="0.26128">
        <ele>1822</ele>
        <time>2014-03-30T12:40:07Z</time>
      </trkpt>
      <trkpt lat="42.90635" lon="0.26133">
        <ele>1821</ele>
        <time>2014-03-30T12:40:11Z</time>
      </trkpt>
      <trkpt lat="42.90634" lon="0.26136">
        <ele>1820</ele>
        <time>2014-03-30T12:40:14Z</time>
      </trkpt>
      <trkpt lat="42.90631" lon="0.26149">
        <ele>1817</ele>
        <time>2014-03-30T12:40:27Z</time>
      </trkpt>
      <trkpt lat="42.90629" lon="0.26161">
        <ele>1815</ele>
        <time>2014-03-30T12:40:39Z</time>
      </trkpt>
      <trkpt lat="42.90627" lon="0.26171">
        <ele>1814</ele>
        <time>2014-03-30T12:40:48Z</time>
      </trkpt>
      <trkpt lat="42.90627" lon="0.26172">
        <ele>1813</ele>
        <time>2014-03-30T12:40:50Z</time>
      </trkpt>
      <trkpt lat="42.90627" lon="0.26175">
        <ele>1812</ele>
        <time>2014-03-30T12:40:53Z</time>
      </trkpt>
      <trkpt lat="42.90625" lon="0.26179">
        <ele>1812</ele>
        <time>2014-03-30T12:40:58Z</time>
      </trkpt>
      <trkpt lat="42.90625" lon="0.26181">
        <ele>1810</ele>
        <time>2014-03-30T12:41:01Z</time>
      </trkpt>
      <trkpt lat="42.90624" lon="0.26184">
        <ele>1809</ele>
        <time>2014-03-30T12:41:05Z</time>
      </trkpt>
      <trkpt lat="42.90622" lon="0.26198">
        <ele>1806</ele>
        <time>2014-03-30T12:41:18Z</time>
      </trkpt>
      <trkpt lat="42.9062" lon="0.26206">
        <ele>1805</ele>
        <time>2014-03-30T12:41:24Z</time>
      </trkpt>
      <trkpt lat="42.90619" lon="0.26211">
        <ele>1804</ele>
        <time>2014-03-30T12:41:28Z</time>
      </trkpt>
      <trkpt lat="42.90616" lon="0.26228">
        <ele>1802</ele>
        <time>2014-03-30T12:41:41Z</time>
      </trkpt>
      <trkpt lat="42.90618" lon="0.26234">
        <ele>1802</ele>
        <time>2014-03-30T12:42:00Z</time>
      </trkpt>
      <trkpt lat="42.90618" lon="0.26234">
        <ele>1802</ele>
        <time>2014-03-30T12:42:39Z</time>
      </trkpt>
      <trkpt lat="42.90616" lon="0.26241">
        <ele>1801</ele>
        <time>2014-03-30T12:42:56Z</time>
      </trkpt>
      <trkpt lat="42.90612" lon="0.26255">
        <ele>1799</ele>
        <time>2014-03-30T12:43:09Z</time>
      </trkpt>
      <trkpt lat="42.9061" lon="0.26258">
        <ele>1798</ele>
        <time>2014-03-30T12:43:12Z</time>
      </trkpt>
      <trkpt lat="42.90606" lon="0.26273">
        <ele>1795</ele>
        <time>2014-03-30T12:43:25Z</time>
      </trkpt>
      <trkpt lat="42.90605" lon="0.26282">
        <ele>1793</ele>
        <time>2014-03-30T12:43:31Z</time>
      </trkpt>
      <trkpt lat="42.90602" lon="0.26293">
        <ele>1792</ele>
        <time>2014-03-30T12:43:41Z</time>
      </trkpt>
      <trkpt lat="42.90601" lon="0.26297">
        <ele>1792</ele>
        <time>2014-03-30T12:43:44Z</time>
      </trkpt>
      <trkpt lat="42.90597" lon="0.26314">
        <ele>1788</ele>
        <time>2014-03-30T12:43:58Z</time>
      </trkpt>
      <trkpt lat="42.90594" lon="0.26328">
        <ele>1785</ele>
        <time>2014-03-30T12:44:10Z</time>
      </trkpt>
      <trkpt lat="42.90593" lon="0.26335">
        <ele>1784</ele>
        <time>2014-03-30T12:44:23Z</time>
      </trkpt>
      <trkpt lat="42.90591" lon="0.26336">
        <ele>1784</ele>
        <time>2014-03-30T12:44:42Z</time>
      </trkpt>
      <trkpt lat="42.90591" lon="0.26336">
        <ele>1784</ele>
        <time>2014-03-30T12:45:08Z</time>
      </trkpt>
      <trkpt lat="42.90592" lon="0.26337">
        <ele>1784</ele>
        <time>2014-03-30T12:45:36Z</time>
      </trkpt>
      <trkpt lat="42.90592" lon="0.26335">
        <ele>1784</ele>
        <time>2014-03-30T12:45:57Z</time>
      </trkpt>
      <trkpt lat="42.90592" lon="0.26339">
        <ele>1783</ele>
        <time>2014-03-30T12:46:28Z</time>
      </trkpt>
      <trkpt lat="42.90592" lon="0.26338">
        <ele>1783</ele>
        <time>2014-03-30T12:46:44Z</time>
      </trkpt>
      <trkpt lat="42.90591" lon="0.26338">
        <ele>1783</ele>
        <time>2014-03-30T12:47:05Z</time>
      </trkpt>
      <trkpt lat="42.90591" lon="0.26339">
        <ele>1783</ele>
        <time>2014-03-30T12:47:29Z</time>
      </trkpt>
      <trkpt lat="42.90592" lon="0.26337">
        <ele>1783</ele>
        <time>2014-03-30T12:47:51Z</time>
      </trkpt>
      <trkpt lat="42.9059" lon="0.26341">
        <ele>1783</ele>
        <time>2014-03-30T12:48:11Z</time>
      </trkpt>
      <trkpt lat="42.9059" lon="0.26345">
        <ele>1782</ele>
        <time>2014-03-30T12:48:15Z</time>
      </trkpt>
      <trkpt lat="42.90591" lon="0.26348">
        <ele>1781</ele>
        <time>2014-03-30T12:48:19Z</time>
      </trkpt>
      <trkpt lat="42.90591" lon="0.26355">
        <ele>1780</ele>
        <time>2014-03-30T12:48:25Z</time>
      </trkpt>
      <trkpt lat="42.9059" lon="0.26365">
        <ele>1778</ele>
        <time>2014-03-30T12:48:33Z</time>
      </trkpt>
      <trkpt lat="42.90582" lon="0.26375">
        <ele>1777</ele>
        <time>2014-03-30T12:48:46Z</time>
      </trkpt>
      <trkpt lat="42.90581" lon="0.26376">
        <ele>1777</ele>
        <time>2014-03-30T12:48:47Z</time>
      </trkpt>
      <trkpt lat="42.90577" lon="0.26377">
        <ele>1777</ele>
        <time>2014-03-30T12:49:00Z</time>
      </trkpt>
      <trkpt lat="42.90569" lon="0.26378">
        <ele>1776</ele>
        <time>2014-03-30T12:49:19Z</time>
      </trkpt>
      <trkpt lat="42.90557" lon="0.26378">
        <ele>1774</ele>
        <time>2014-03-30T12:49:35Z</time>
      </trkpt>
      <trkpt lat="42.90555" lon="0.26378">
        <ele>1773</ele>
        <time>2014-03-30T12:49:55Z</time>
      </trkpt>
      <trkpt lat="42.90554" lon="0.26378">
        <ele>1774</ele>
        <time>2014-03-30T12:50:05Z</time>
      </trkpt>
      <trkpt lat="42.9056" lon="0.26381">
        <ele>1773</ele>
        <time>2014-03-30T12:50:22Z</time>
      </trkpt>
      <trkpt lat="42.90562" lon="0.2638">
        <ele>1774</ele>
        <time>2014-03-30T12:50:52Z</time>
      </trkpt>
      <trkpt lat="42.9057" lon="0.2639">
        <ele>1773</ele>
        <time>2014-03-30T12:51:04Z</time>
      </trkpt>
      <trkpt lat="42.90581" lon="0.264">
        <ele>1771</ele>
        <time>2014-03-30T12:51:17Z</time>
      </trkpt>
      <trkpt lat="42.90587" lon="0.26404">
        <ele>1770</ele>
        <time>2014-03-30T12:51:24Z</time>
      </trkpt>
      <trkpt lat="42.90593" lon="0.26412">
        <ele>1768</ele>
        <time>2014-03-30T12:51:36Z</time>
      </trkpt>
      <trkpt lat="42.90596" lon="0.26421">
        <ele>1765</ele>
        <time>2014-03-30T12:51:46Z</time>
      </trkpt>
      <trkpt lat="42.90596" lon="0.26431">
        <ele>1762</ele>
        <time>2014-03-30T12:51:57Z</time>
      </trkpt>
      <trkpt lat="42.90597" lon="0.26438">
        <ele>1760</ele>
        <time>2014-03-30T12:52:04Z</time>
      </trkpt>
      <trkpt lat="42.90597" lon="0.26441">
        <ele>1759</ele>
        <time>2014-03-30T12:52:06Z</time>
      </trkpt>
      <trkpt lat="42.90599" lon="0.26459">
        <ele>1757</ele>
        <time>2014-03-30T12:52:21Z</time>
      </trkpt>
      <trkpt lat="42.906" lon="0.26464">
        <ele>1757</ele>
        <time>2014-03-30T12:52:25Z</time>
      </trkpt>
      <trkpt lat="42.906" lon="0.26478">
        <ele>1755</ele>
        <time>2014-03-30T12:52:35Z</time>
      </trkpt>
      <trkpt lat="42.90598" lon="0.26497">
        <ele>1753</ele>
        <time>2014-03-30T12:52:51Z</time>
      </trkpt>
      <trkpt lat="42.90599" lon="0.26499">
        <ele>1753</ele>
        <time>2014-03-30T12:52:55Z</time>
      </trkpt>
      <trkpt lat="42.90601" lon="0.26519">
        <ele>1750</ele>
        <time>2014-03-30T12:53:09Z</time>
      </trkpt>
      <trkpt lat="42.906" lon="0.2653">
        <ele>1748</ele>
        <time>2014-03-30T12:53:22Z</time>
      </trkpt>
      <trkpt lat="42.90601" lon="0.26539">
        <ele>1747</ele>
        <time>2014-03-30T12:53:29Z</time>
      </trkpt>
      <trkpt lat="42.906" lon="0.26547">
        <ele>1746</ele>
        <time>2014-03-30T12:53:35Z</time>
      </trkpt>
      <trkpt lat="42.90599" lon="0.26551">
        <ele>1745</ele>
        <time>2014-03-30T12:53:39Z</time>
      </trkpt>
      <trkpt lat="42.906" lon="0.2657">
        <ele>1743</ele>
        <time>2014-03-30T12:53:54Z</time>
      </trkpt>
      <trkpt lat="42.90602" lon="0.26581">
        <ele>1740</ele>
        <time>2014-03-30T12:54:07Z</time>
      </trkpt>
      <trkpt lat="42.90604" lon="0.26585">
        <ele>1739</ele>
        <time>2014-03-30T12:54:11Z</time>
      </trkpt>
      <trkpt lat="42.90604" lon="0.26594">
        <ele>1735</ele>
        <time>2014-03-30T12:54:21Z</time>
      </trkpt>
      <trkpt lat="42.90604" lon="0.26597">
        <ele>1734</ele>
        <time>2014-03-30T12:54:25Z</time>
      </trkpt>
      <trkpt lat="42.90608" lon="0.26605">
        <ele>1731</ele>
        <time>2014-03-30T12:54:37Z</time>
      </trkpt>
      <trkpt lat="42.90609" lon="0.26609">
        <ele>1730</ele>
        <time>2014-03-30T12:54:42Z</time>
      </trkpt>
      <trkpt lat="42.90611" lon="0.26619">
        <ele>1726</ele>
        <time>2014-03-30T12:54:51Z</time>
      </trkpt>
      <trkpt lat="42.90612" lon="0.26631">
        <ele>1723</ele>
        <time>2014-03-30T12:55:01Z</time>
      </trkpt>
      <trkpt lat="42.90613" lon="0.26632">
        <ele>1723</ele>
        <time>2014-03-30T12:55:02Z</time>
      </trkpt>
      <trkpt lat="42.90613" lon="0.26639">
        <ele>1721</ele>
        <time>2014-03-30T12:55:14Z</time>
      </trkpt>
      <trkpt lat="42.90615" lon="0.26639">
        <ele>1721</ele>
        <time>2014-03-30T12:55:31Z</time>
      </trkpt>
      <trkpt lat="42.90615" lon="0.26641">
        <ele>1721</ele>
        <time>2014-03-30T12:55:56Z</time>
      </trkpt>
      <trkpt lat="42.90615" lon="0.2664">
        <ele>1721</ele>
        <time>2014-03-30T12:56:20Z</time>
      </trkpt>
      <trkpt lat="42.90615" lon="0.26649">
        <ele>1719</ele>
        <time>2014-03-30T12:56:41Z</time>
      </trkpt>
      <trkpt lat="42.90616" lon="0.26656">
        <ele>1716</ele>
        <time>2014-03-30T12:56:49Z</time>
      </trkpt>
      <trkpt lat="42.90618" lon="0.26665">
        <ele>1713</ele>
        <time>2014-03-30T12:56:58Z</time>
      </trkpt>
      <trkpt lat="42.90618" lon="0.2667">
        <ele>1712</ele>
        <time>2014-03-30T12:57:02Z</time>
      </trkpt>
      <trkpt lat="42.90619" lon="0.26681">
        <ele>1708</ele>
        <time>2014-03-30T12:57:12Z</time>
      </trkpt>
      <trkpt lat="42.9062" lon="0.26691">
        <ele>1705</ele>
        <time>2014-03-30T12:57:20Z</time>
      </trkpt>
      <trkpt lat="42.9062" lon="0.26693">
        <ele>1704</ele>
        <time>2014-03-30T12:57:22Z</time>
      </trkpt>
      <trkpt lat="42.9062" lon="0.26703">
        <ele>1701</ele>
        <time>2014-03-30T12:57:31Z</time>
      </trkpt>
      <trkpt lat="42.9062" lon="0.26707">
        <ele>1700</ele>
        <time>2014-03-30T12:57:34Z</time>
      </trkpt>
      <trkpt lat="42.9062" lon="0.26717">
        <ele>1696</ele>
        <time>2014-03-30T12:57:43Z</time>
      </trkpt>
      <trkpt lat="42.9062" lon="0.26718">
        <ele>1696</ele>
        <time>2014-03-30T12:57:44Z</time>
      </trkpt>
      <trkpt lat="42.9062" lon="0.2673">
        <ele>1692</ele>
        <time>2014-03-30T12:57:55Z</time>
      </trkpt>
      <trkpt lat="42.90621" lon="0.26736">
        <ele>1690</ele>
        <time>2014-03-30T12:58:01Z</time>
      </trkpt>
      <trkpt lat="42.90621" lon="0.26748">
        <ele>1687</ele>
        <time>2014-03-30T12:58:12Z</time>
      </trkpt>
      <trkpt lat="42.90618" lon="0.2675">
        <ele>1687</ele>
        <time>2014-03-30T12:58:32Z</time>
      </trkpt>
      <trkpt lat="42.90616" lon="0.26749">
        <ele>1687</ele>
        <time>2014-03-30T12:58:59Z</time>
      </trkpt>
      <trkpt lat="42.90617" lon="0.26751">
        <ele>1687</ele>
        <time>2014-03-30T12:59:23Z</time>
      </trkpt>
      <trkpt lat="42.90616" lon="0.26752">
        <ele>1686</ele>
        <time>2014-03-30T12:59:49Z</time>
      </trkpt>
      <trkpt lat="42.90615" lon="0.26755">
        <ele>1685</ele>
        <time>2014-03-30T12:59:52Z</time>
      </trkpt>
      <trkpt lat="42.90615" lon="0.26758">
        <ele>1684</ele>
        <time>2014-03-30T12:59:55Z</time>
      </trkpt>
      <trkpt lat="42.90615" lon="0.26765">
        <ele>1681</ele>
        <time>2014-03-30T13:00:02Z</time>
      </trkpt>
      <trkpt lat="42.90615" lon="0.26768">
        <ele>1681</ele>
        <time>2014-03-30T13:00:05Z</time>
      </trkpt>
      <trkpt lat="42.90615" lon="0.26783">
        <ele>1678</ele>
        <time>2014-03-30T13:00:16Z</time>
      </trkpt>
      <trkpt lat="42.90614" lon="0.26797">
        <ele>1675</ele>
        <time>2014-03-30T13:00:27Z</time>
      </trkpt>
      <trkpt lat="42.90613" lon="0.26809">
        <ele>1672</ele>
        <time>2014-03-30T13:00:35Z</time>
      </trkpt>
      <trkpt lat="42.90614" lon="0.26825">
        <ele>1669</ele>
        <time>2014-03-30T13:00:47Z</time>
      </trkpt>
      <trkpt lat="42.90612" lon="0.26838">
        <ele>1666</ele>
        <time>2014-03-30T13:00:57Z</time>
      </trkpt>
      <trkpt lat="42.90611" lon="0.2685">
        <ele>1664</ele>
        <time>2014-03-30T13:01:10Z</time>
      </trkpt>
      <trkpt lat="42.90609" lon="0.26855">
        <ele>1660</ele>
        <time>2014-03-30T13:01:18Z</time>
      </trkpt>
      <trkpt lat="42.90609" lon="0.26856">
        <ele>1660</ele>
        <time>2014-03-30T13:01:19Z</time>
      </trkpt>
      <trkpt lat="42.90607" lon="0.2686">
        <ele>1660</ele>
        <time>2014-03-30T13:01:32Z</time>
      </trkpt>
      <trkpt lat="42.90606" lon="0.26865">
        <ele>1658</ele>
        <time>2014-03-30T13:01:42Z</time>
      </trkpt>
      <trkpt lat="42.90606" lon="0.26868">
        <ele>1657</ele>
        <time>2014-03-30T13:01:45Z</time>
      </trkpt>
      <trkpt lat="42.90602" lon="0.26881">
        <ele>1654</ele>
        <time>2014-03-30T13:01:56Z</time>
      </trkpt>
      <trkpt lat="42.90597" lon="0.26893">
        <ele>1651</ele>
        <time>2014-03-30T13:02:08Z</time>
      </trkpt>
      <trkpt lat="42.90594" lon="0.26901">
        <ele>1649</ele>
        <time>2014-03-30T13:02:15Z</time>
      </trkpt>
      <trkpt lat="42.90592" lon="0.26911">
        <ele>1648</ele>
        <time>2014-03-30T13:02:27Z</time>
      </trkpt>
      <trkpt lat="42.90592" lon="0.26911">
        <ele>1647</ele>
        <time>2014-03-30T13:02:53Z</time>
      </trkpt>
      <trkpt lat="42.90592" lon="0.26912">
        <ele>1647</ele>
        <time>2014-03-30T13:02:55Z</time>
      </trkpt>
      <trkpt lat="42.90588" lon="0.26924">
        <ele>1645</ele>
        <time>2014-03-30T13:03:05Z</time>
      </trkpt>
      <trkpt lat="42.90586" lon="0.26925">
        <ele>1645</ele>
        <time>2014-03-30T13:03:07Z</time>
      </trkpt>
      <trkpt lat="42.90582" lon="0.2694">
        <ele>1643</ele>
        <time>2014-03-30T13:03:19Z</time>
      </trkpt>
      <trkpt lat="42.90579" lon="0.26949">
        <ele>1642</ele>
        <time>2014-03-30T13:03:27Z</time>
      </trkpt>
      <trkpt lat="42.90578" lon="0.26952">
        <ele>1642</ele>
        <time>2014-03-30T13:03:29Z</time>
      </trkpt>
      <trkpt lat="42.90574" lon="0.26966">
        <ele>1639</ele>
        <time>2014-03-30T13:03:40Z</time>
      </trkpt>
      <trkpt lat="42.90571" lon="0.26973">
        <ele>1637</ele>
        <time>2014-03-30T13:03:46Z</time>
      </trkpt>
      <trkpt lat="42.90572" lon="0.26979">
        <ele>1636</ele>
        <time>2014-03-30T13:03:59Z</time>
      </trkpt>
      <trkpt lat="42.90569" lon="0.26976">
        <ele>1636</ele>
        <time>2014-03-30T13:04:18Z</time>
      </trkpt>
      <trkpt lat="42.90571" lon="0.26976">
        <ele>1636</ele>
        <time>2014-03-30T13:04:50Z</time>
      </trkpt>
      <trkpt lat="42.90568" lon="0.26979">
        <ele>1636</ele>
        <time>2014-03-30T13:05:13Z</time>
      </trkpt>
      <trkpt lat="42.90568" lon="0.26979">
        <ele>1636</ele>
        <time>2014-03-30T13:05:43Z</time>
      </trkpt>
      <trkpt lat="42.90568" lon="0.26978">
        <ele>1636</ele>
        <time>2014-03-30T13:06:15Z</time>
      </trkpt>
      <trkpt lat="42.90569" lon="0.26979">
        <ele>1636</ele>
        <time>2014-03-30T13:06:38Z</time>
      </trkpt>
      <trkpt lat="42.90568" lon="0.2698">
        <ele>1636</ele>
        <time>2014-03-30T13:06:47Z</time>
      </trkpt>
      <trkpt lat="42.90568" lon="0.26985">
        <ele>1635</ele>
        <time>2014-03-30T13:06:51Z</time>
      </trkpt>
      <trkpt lat="42.90563" lon="0.27001">
        <ele>1633</ele>
        <time>2014-03-30T13:07:03Z</time>
      </trkpt>
      <trkpt lat="42.90557" lon="0.27019">
        <ele>1631</ele>
        <time>2014-03-30T13:07:16Z</time>
      </trkpt>
      <trkpt lat="42.90553" lon="0.27033">
        <ele>1631</ele>
        <time>2014-03-30T13:07:26Z</time>
      </trkpt>
      <trkpt lat="42.90548" lon="0.27048">
        <ele>1628</ele>
        <time>2014-03-30T13:07:37Z</time>
      </trkpt>
      <trkpt lat="42.90545" lon="0.27055">
        <ele>1626</ele>
        <time>2014-03-30T13:07:43Z</time>
      </trkpt>
      <trkpt lat="42.90546" lon="0.27073">
        <ele>1623</ele>
        <time>2014-03-30T13:07:55Z</time>
      </trkpt>
      <trkpt lat="42.90548" lon="0.27082">
        <ele>1622</ele>
        <time>2014-03-30T13:08:02Z</time>
      </trkpt>
      <trkpt lat="42.90554" lon="0.27096">
        <ele>1619</ele>
        <time>2014-03-30T13:08:12Z</time>
      </trkpt>
      <trkpt lat="42.90555" lon="0.27104">
        <ele>1618</ele>
        <time>2014-03-30T13:08:17Z</time>
      </trkpt>
      <trkpt lat="42.90556" lon="0.27106">
        <ele>1618</ele>
        <time>2014-03-30T13:08:19Z</time>
      </trkpt>
      <trkpt lat="42.90557" lon="0.2712">
        <ele>1615</ele>
        <time>2014-03-30T13:08:28Z</time>
      </trkpt>
      <trkpt lat="42.90558" lon="0.27128">
        <ele>1613</ele>
        <time>2014-03-30T13:08:35Z</time>
      </trkpt>
      <trkpt lat="42.9056" lon="0.27136">
        <ele>1610</ele>
        <time>2014-03-30T13:08:42Z</time>
      </trkpt>
      <trkpt lat="42.90562" lon="0.27145">
        <ele>1608</ele>
        <time>2014-03-30T13:08:56Z</time>
      </trkpt>
      <trkpt lat="42.90563" lon="0.27149">
        <ele>1608</ele>
        <time>2014-03-30T13:08:59Z</time>
      </trkpt>
      <trkpt lat="42.90562" lon="0.27153">
        <ele>1606</ele>
        <time>2014-03-30T13:09:13Z</time>
      </trkpt>
      <trkpt lat="42.90562" lon="0.2716">
        <ele>1605</ele>
        <time>2014-03-30T13:09:27Z</time>
      </trkpt>
      <trkpt lat="42.90564" lon="0.27166">
        <ele>1604</ele>
        <time>2014-03-30T13:09:33Z</time>
      </trkpt>
      <trkpt lat="42.90568" lon="0.27175">
        <ele>1602</ele>
        <time>2014-03-30T13:09:44Z</time>
      </trkpt>
      <trkpt lat="42.90574" lon="0.27187">
        <ele>1600</ele>
        <time>2014-03-30T13:10:00Z</time>
      </trkpt>
      <trkpt lat="42.90578" lon="0.27191">
        <ele>1601</ele>
        <time>2014-03-30T13:10:06Z</time>
      </trkpt>
      <trkpt lat="42.90587" lon="0.27199">
        <ele>1601</ele>
        <time>2014-03-30T13:10:20Z</time>
      </trkpt>
      <trkpt lat="42.90596" lon="0.2721">
        <ele>1600</ele>
        <time>2014-03-30T13:10:37Z</time>
      </trkpt>
      <trkpt lat="42.90604" lon="0.27218">
        <ele>1598</ele>
        <time>2014-03-30T13:10:50Z</time>
      </trkpt>
      <trkpt lat="42.90615" lon="0.27229">
        <ele>1596</ele>
        <time>2014-03-30T13:11:03Z</time>
      </trkpt>
      <trkpt lat="42.90623" lon="0.27236">
        <ele>1594</ele>
        <time>2014-03-30T13:11:16Z</time>
      </trkpt>
      <trkpt lat="42.90629" lon="0.27239">
        <ele>1594</ele>
        <time>2014-03-30T13:11:25Z</time>
      </trkpt>
      <trkpt lat="42.90632" lon="0.27241">
        <ele>1594</ele>
        <time>2014-03-30T13:11:29Z</time>
      </trkpt>
      <trkpt lat="42.90635" lon="0.27245">
        <ele>1593</ele>
        <time>2014-03-30T13:11:33Z</time>
      </trkpt>
      <trkpt lat="42.90638" lon="0.27247">
        <ele>1593</ele>
        <time>2014-03-30T13:11:46Z</time>
      </trkpt>
      <trkpt lat="42.9064" lon="0.27249">
        <ele>1592</ele>
        <time>2014-03-30T13:12:08Z</time>
      </trkpt>
      <trkpt lat="42.90644" lon="0.27253">
        <ele>1593</ele>
        <time>2014-03-30T13:12:21Z</time>
      </trkpt>
      <trkpt lat="42.90645" lon="0.27254">
        <ele>1593</ele>
        <time>2014-03-30T13:12:35Z</time>
      </trkpt>
      <trkpt lat="42.9065" lon="0.27257">
        <ele>1594</ele>
        <time>2014-03-30T13:12:48Z</time>
      </trkpt>
      <trkpt lat="42.90659" lon="0.27259">
        <ele>1594</ele>
        <time>2014-03-30T13:13:12Z</time>
      </trkpt>
      <trkpt lat="42.90664" lon="0.27266">
        <ele>1591</ele>
        <time>2014-03-30T13:13:21Z</time>
      </trkpt>
      <trkpt lat="42.90673" lon="0.27275">
        <ele>1588</ele>
        <time>2014-03-30T13:13:36Z</time>
      </trkpt>
      <trkpt lat="42.90675" lon="0.27277">
        <ele>1588</ele>
        <time>2014-03-30T13:13:39Z</time>
      </trkpt>
      <trkpt lat="42.90674" lon="0.27284">
        <ele>1584</ele>
        <time>2014-03-30T13:13:47Z</time>
      </trkpt>
      <trkpt lat="42.90674" lon="0.27292">
        <ele>1581</ele>
        <time>2014-03-30T13:13:56Z</time>
      </trkpt>
      <trkpt lat="42.90674" lon="0.27299">
        <ele>1580</ele>
        <time>2014-03-30T13:14:02Z</time>
      </trkpt>
      <trkpt lat="42.90675" lon="0.27305">
        <ele>1579</ele>
        <time>2014-03-30T13:14:06Z</time>
      </trkpt>
      <trkpt lat="42.9068" lon="0.27316">
        <ele>1575</ele>
        <time>2014-03-30T13:14:18Z</time>
      </trkpt>
      <trkpt lat="42.90687" lon="0.2732">
        <ele>1572</ele>
        <time>2014-03-30T13:14:31Z</time>
      </trkpt>
      <trkpt lat="42.90691" lon="0.27323">
        <ele>1570</ele>
        <time>2014-03-30T13:14:48Z</time>
      </trkpt>
      <trkpt lat="42.90698" lon="0.27324">
        <ele>1567</ele>
        <time>2014-03-30T13:15:00Z</time>
      </trkpt>
      <trkpt lat="42.90705" lon="0.27328">
        <ele>1564</ele>
        <time>2014-03-30T13:15:11Z</time>
      </trkpt>
      <trkpt lat="42.90707" lon="0.27329">
        <ele>1563</ele>
        <time>2014-03-30T13:15:15Z</time>
      </trkpt>
      <trkpt lat="42.90713" lon="0.27336">
        <ele>1560</ele>
        <time>2014-03-30T13:15:26Z</time>
      </trkpt>
      <trkpt lat="42.90719" lon="0.27346">
        <ele>1556</ele>
        <time>2014-03-30T13:15:36Z</time>
      </trkpt>
      <trkpt lat="42.9072" lon="0.27347">
        <ele>1556</ele>
        <time>2014-03-30T13:15:39Z</time>
      </trkpt>
      <trkpt lat="42.90722" lon="0.27353">
        <ele>1554</ele>
        <time>2014-03-30T13:15:46Z</time>
      </trkpt>
      <trkpt lat="42.90724" lon="0.27356">
        <ele>1553</ele>
        <time>2014-03-30T13:15:49Z</time>
      </trkpt>
      <trkpt lat="42.90725" lon="0.2736">
        <ele>1551</ele>
        <time>2014-03-30T13:15:52Z</time>
      </trkpt>
      <trkpt lat="42.90725" lon="0.27366">
        <ele>1550</ele>
        <time>2014-03-30T13:15:57Z</time>
      </trkpt>
      <trkpt lat="42.90727" lon="0.27374">
        <ele>1548</ele>
        <time>2014-03-30T13:16:04Z</time>
      </trkpt>
      <trkpt lat="42.90727" lon="0.27381">
        <ele>1546</ele>
        <time>2014-03-30T13:16:09Z</time>
      </trkpt>
      <trkpt lat="42.90728" lon="0.27383">
        <ele>1545</ele>
        <time>2014-03-30T13:16:11Z</time>
      </trkpt>
      <trkpt lat="42.9073" lon="0.27396">
        <ele>1543</ele>
        <time>2014-03-30T13:16:24Z</time>
      </trkpt>
      <trkpt lat="42.9073" lon="0.274">
        <ele>1542</ele>
        <time>2014-03-30T13:16:44Z</time>
      </trkpt>
      <trkpt lat="42.90731" lon="0.27406">
        <ele>1541</ele>
        <time>2014-03-30T13:17:07Z</time>
      </trkpt>
      <trkpt lat="42.90732" lon="0.27407">
        <ele>1540</ele>
        <time>2014-03-30T13:17:09Z</time>
      </trkpt>
      <trkpt lat="42.90732" lon="0.27412">
        <ele>1539</ele>
        <time>2014-03-30T13:17:14Z</time>
      </trkpt>
      <trkpt lat="42.90733" lon="0.27414">
        <ele>1539</ele>
        <time>2014-03-30T13:17:16Z</time>
      </trkpt>
      <trkpt lat="42.90733" lon="0.27416">
        <ele>1538</ele>
        <time>2014-03-30T13:17:18Z</time>
      </trkpt>
      <trkpt lat="42.90734" lon="0.27422">
        <ele>1536</ele>
        <time>2014-03-30T13:17:22Z</time>
      </trkpt>
      <trkpt lat="42.90737" lon="0.27434">
        <ele>1533</ele>
        <time>2014-03-30T13:17:31Z</time>
      </trkpt>
      <trkpt lat="42.9074" lon="0.27446">
        <ele>1531</ele>
        <time>2014-03-30T13:17:40Z</time>
      </trkpt>
      <trkpt lat="42.90744" lon="0.27456">
        <ele>1529</ele>
        <time>2014-03-30T13:17:53Z</time>
      </trkpt>
      <trkpt lat="42.90745" lon="0.27466">
        <ele>1526</ele>
        <time>2014-03-30T13:18:05Z</time>
      </trkpt>
      <trkpt lat="42.90748" lon="0.27477">
        <ele>1522</ele>
        <time>2014-03-30T13:18:17Z</time>
      </trkpt>
      <trkpt lat="42.90749" lon="0.27481">
        <ele>1522</ele>
        <time>2014-03-30T13:18:20Z</time>
      </trkpt>
      <trkpt lat="42.90751" lon="0.27491">
        <ele>1519</ele>
        <time>2014-03-30T13:18:29Z</time>
      </trkpt>
      <trkpt lat="42.90753" lon="0.27497">
        <ele>1518</ele>
        <time>2014-03-30T13:18:33Z</time>
      </trkpt>
      <trkpt lat="42.90754" lon="0.27507">
        <ele>1515</ele>
        <time>2014-03-30T13:18:41Z</time>
      </trkpt>
      <trkpt lat="42.90756" lon="0.27517">
        <ele>1514</ele>
        <time>2014-03-30T13:18:49Z</time>
      </trkpt>
      <trkpt lat="42.90759" lon="0.27531">
        <ele>1510</ele>
        <time>2014-03-30T13:19:01Z</time>
      </trkpt>
      <trkpt lat="42.90758" lon="0.27538">
        <ele>1509</ele>
        <time>2014-03-30T13:19:06Z</time>
      </trkpt>
      <trkpt lat="42.9076" lon="0.27552">
        <ele>1507</ele>
        <time>2014-03-30T13:19:17Z</time>
      </trkpt>
      <trkpt lat="42.90763" lon="0.27563">
        <ele>1503</ele>
        <time>2014-03-30T13:19:26Z</time>
      </trkpt>
      <trkpt lat="42.90764" lon="0.27565">
        <ele>1503</ele>
        <time>2014-03-30T13:19:28Z</time>
      </trkpt>
      <trkpt lat="42.90765" lon="0.27576">
        <ele>1500</ele>
        <time>2014-03-30T13:19:37Z</time>
      </trkpt>
      <trkpt lat="42.90768" lon="0.27582">
        <ele>1498</ele>
        <time>2014-03-30T13:19:49Z</time>
      </trkpt>
      <trkpt lat="42.90767" lon="0.2758">
        <ele>1498</ele>
        <time>2014-03-30T13:20:11Z</time>
      </trkpt>
      <trkpt lat="42.90767" lon="0.27578">
        <ele>1498</ele>
        <time>2014-03-30T13:20:36Z</time>
      </trkpt>
      <trkpt lat="42.90766" lon="0.27581">
        <ele>1498</ele>
        <time>2014-03-30T13:21:07Z</time>
      </trkpt>
      <trkpt lat="42.90765" lon="0.27582">
        <ele>1498</ele>
        <time>2014-03-30T13:21:47Z</time>
      </trkpt>
      <trkpt lat="42.90767" lon="0.27587">
        <ele>1497</ele>
        <time>2014-03-30T13:22:02Z</time>
      </trkpt>
      <trkpt lat="42.90768" lon="0.27593">
        <ele>1496</ele>
        <time>2014-03-30T13:22:07Z</time>
      </trkpt>
      <trkpt lat="42.90771" lon="0.27605">
        <ele>1492</ele>
        <time>2014-03-30T13:22:18Z</time>
      </trkpt>
      <trkpt lat="42.90773" lon="0.27616">
        <ele>1489</ele>
        <time>2014-03-30T13:22:27Z</time>
      </trkpt>
      <trkpt lat="42.90774" lon="0.27628">
        <ele>1486</ele>
        <time>2014-03-30T13:22:36Z</time>
      </trkpt>
      <trkpt lat="42.90774" lon="0.2763">
        <ele>1485</ele>
        <time>2014-03-30T13:22:38Z</time>
      </trkpt>
      <trkpt lat="42.90775" lon="0.27635">
        <ele>1483</ele>
        <time>2014-03-30T13:22:41Z</time>
      </trkpt>
      <trkpt lat="42.90776" lon="0.27638">
        <ele>1483</ele>
        <time>2014-03-30T13:22:44Z</time>
      </trkpt>
      <trkpt lat="42.9078" lon="0.27649">
        <ele>1481</ele>
        <time>2014-03-30T13:22:57Z</time>
      </trkpt>
      <trkpt lat="42.90782" lon="0.27655">
        <ele>1479</ele>
        <time>2014-03-30T13:23:03Z</time>
      </trkpt>
      <trkpt lat="42.90783" lon="0.27663">
        <ele>1478</ele>
        <time>2014-03-30T13:23:08Z</time>
      </trkpt>
      <trkpt lat="42.90783" lon="0.27666">
        <ele>1477</ele>
        <time>2014-03-30T13:23:10Z</time>
      </trkpt>
      <trkpt lat="42.90787" lon="0.27682">
        <ele>1474</ele>
        <time>2014-03-30T13:23:22Z</time>
      </trkpt>
      <trkpt lat="42.90787" lon="0.27685">
        <ele>1474</ele>
        <time>2014-03-30T13:23:24Z</time>
      </trkpt>
      <trkpt lat="42.90787" lon="0.27698">
        <ele>1472</ele>
        <time>2014-03-30T13:23:32Z</time>
      </trkpt>
      <trkpt lat="42.90788" lon="0.27704">
        <ele>1470</ele>
        <time>2014-03-30T13:23:36Z</time>
      </trkpt>
      <trkpt lat="42.90788" lon="0.27714">
        <ele>1469</ele>
        <time>2014-03-30T13:23:42Z</time>
      </trkpt>
      <trkpt lat="42.9079" lon="0.27721">
        <ele>1467</ele>
        <time>2014-03-30T13:23:48Z</time>
      </trkpt>
      <trkpt lat="42.90792" lon="0.27737">
        <ele>1465</ele>
        <time>2014-03-30T13:24:00Z</time>
      </trkpt>
      <trkpt lat="42.90793" lon="0.27753">
        <ele>1462</ele>
        <time>2014-03-30T13:24:10Z</time>
      </trkpt>
      <trkpt lat="42.908" lon="0.27777">
        <ele>1459</ele>
        <time>2014-03-30T13:24:27Z</time>
      </trkpt>
      <trkpt lat="42.90802" lon="0.27785">
        <ele>1458</ele>
        <time>2014-03-30T13:24:33Z</time>
      </trkpt>
      <trkpt lat="42.90805" lon="0.27797">
        <ele>1456</ele>
        <time>2014-03-30T13:24:46Z</time>
      </trkpt>
      <trkpt lat="42.90808" lon="0.27811">
        <ele>1454</ele>
        <time>2014-03-30T13:24:59Z</time>
      </trkpt>
      <trkpt lat="42.9081" lon="0.27817">
        <ele>1452</ele>
        <time>2014-03-30T13:25:03Z</time>
      </trkpt>
      <trkpt lat="42.90816" lon="0.27819">
        <ele>1451</ele>
        <time>2014-03-30T13:25:06Z</time>
      </trkpt>
      <trkpt lat="42.90817" lon="0.27827">
        <ele>1450</ele>
        <time>2014-03-30T13:25:13Z</time>
      </trkpt>
      <trkpt lat="42.90817" lon="0.27834">
        <ele>1449</ele>
        <time>2014-03-30T13:25:18Z</time>
      </trkpt>
      <trkpt lat="42.90802" lon="0.27853">
        <ele>1447</ele>
        <time>2014-03-30T13:25:31Z</time>
      </trkpt>
      <trkpt lat="42.90794" lon="0.27854">
        <ele>1446</ele>
        <time>2014-03-30T13:25:43Z</time>
      </trkpt>
      <trkpt lat="42.90788" lon="0.27853">
        <ele>1446</ele>
        <time>2014-03-30T13:25:56Z</time>
      </trkpt>
      <trkpt lat="42.90785" lon="0.27854">
        <ele>1446</ele>
        <time>2014-03-30T13:26:08Z</time>
      </trkpt>
      <trkpt lat="42.90781" lon="0.27852">
        <ele>1448</ele>
        <time>2014-03-30T13:26:21Z</time>
      </trkpt>
      <trkpt lat="42.9078" lon="0.27849">
        <ele>1448</ele>
        <time>2014-03-30T13:26:37Z</time>
      </trkpt>
      <trkpt lat="42.90779" lon="0.27851">
        <ele>1448</ele>
        <time>2014-03-30T13:26:40Z</time>
      </trkpt>
      <trkpt lat="42.90782" lon="0.2786">
        <ele>1447</ele>
        <time>2014-03-30T13:26:52Z</time>
      </trkpt>
      <trkpt lat="42.90785" lon="0.27864">
        <ele>1446</ele>
        <time>2014-03-30T13:26:57Z</time>
      </trkpt>
      <trkpt lat="42.90789" lon="0.2788">
        <ele>1445</ele>
        <time>2014-03-30T13:27:11Z</time>
      </trkpt>
      <trkpt lat="42.90791" lon="0.27883">
        <ele>1445</ele>
        <time>2014-03-30T13:27:13Z</time>
      </trkpt>
      <trkpt lat="42.90802" lon="0.27893">
        <ele>1444</ele>
        <time>2014-03-30T13:27:23Z</time>
      </trkpt>
      <trkpt lat="42.90804" lon="0.27895">
        <ele>1443</ele>
        <time>2014-03-30T13:27:25Z</time>
      </trkpt>
      <trkpt lat="42.90805" lon="0.27904">
        <ele>1442</ele>
        <time>2014-03-30T13:27:31Z</time>
      </trkpt>
      <trkpt lat="42.90807" lon="0.27908">
        <ele>1442</ele>
        <time>2014-03-30T13:27:34Z</time>
      </trkpt>
      <trkpt lat="42.90813" lon="0.27915">
        <ele>1442</ele>
        <time>2014-03-30T13:27:40Z</time>
      </trkpt>
      <trkpt lat="42.90814" lon="0.27921">
        <ele>1441</ele>
        <time>2014-03-30T13:27:44Z</time>
      </trkpt>
      <trkpt lat="42.90819" lon="0.27945">
        <ele>1439</ele>
        <time>2014-03-30T13:28:00Z</time>
      </trkpt>
      <trkpt lat="42.90833" lon="0.2796">
        <ele>1437</ele>
        <time>2014-03-30T13:28:13Z</time>
      </trkpt>
      <trkpt lat="42.90836" lon="0.27972">
        <ele>1435</ele>
        <time>2014-03-30T13:28:22Z</time>
      </trkpt>
      <trkpt lat="42.90845" lon="0.27987">
        <ele>1434</ele>
        <time>2014-03-30T13:28:35Z</time>
      </trkpt>
      <trkpt lat="42.90843" lon="0.28004">
        <ele>1433</ele>
        <time>2014-03-30T13:28:46Z</time>
      </trkpt>
      <trkpt lat="42.90842" lon="0.28024">
        <ele>1431</ele>
        <time>2014-03-30T13:28:57Z</time>
      </trkpt>
      <trkpt lat="42.90838" lon="0.2804">
        <ele>1430</ele>
        <time>2014-03-30T13:29:08Z</time>
      </trkpt>
      <trkpt lat="42.90837" lon="0.28054">
        <ele>1429</ele>
        <time>2014-03-30T13:29:18Z</time>
      </trkpt>
      <trkpt lat="42.90836" lon="0.28062">
        <ele>1428</ele>
        <time>2014-03-30T13:29:24Z</time>
      </trkpt>
      <trkpt lat="42.90839" lon="0.28075">
        <ele>1428</ele>
        <time>2014-03-30T13:29:35Z</time>
      </trkpt>
      <trkpt lat="42.9084" lon="0.28074">
        <ele>1428</ele>
        <time>2014-03-30T13:29:53Z</time>
      </trkpt>
      <trkpt lat="42.9084" lon="0.28072">
        <ele>1425</ele>
        <time>2014-03-30T13:29:59Z</time>
      </trkpt>
      <trkpt lat="42.9084" lon="0.28072">
        <ele>1427</ele>
        <time>2014-03-30T13:30:31Z</time>
      </trkpt>
      <trkpt lat="42.9084" lon="0.28073">
        <ele>1426</ele>
        <time>2014-03-30T13:31:07Z</time>
      </trkpt>
      <trkpt lat="42.9084" lon="0.28071">
        <ele>1427</ele>
        <time>2014-03-30T13:31:52Z</time>
      </trkpt>
      <trkpt lat="42.9084" lon="0.28071">
        <ele>1426</ele>
        <time>2014-03-30T13:32:31Z</time>
      </trkpt>
      <trkpt lat="42.90841" lon="0.28072">
        <ele>1426</ele>
        <time>2014-03-30T13:33:14Z</time>
      </trkpt>
      <trkpt lat="42.9084" lon="0.28072">
        <ele>1427</ele>
        <time>2014-03-30T13:33:55Z</time>
      </trkpt>
      <trkpt lat="42.90841" lon="0.28074">
        <ele>1428</ele>
        <time>2014-03-30T13:34:16Z</time>
      </trkpt>
      <trkpt lat="42.90841" lon="0.28072">
        <ele>1428</ele>
        <time>2014-03-30T13:34:41Z</time>
      </trkpt>
      <trkpt lat="42.90842" lon="0.28073">
        <ele>1428</ele>
        <time>2014-03-30T13:35:07Z</time>
      </trkpt>
      <trkpt lat="42.90841" lon="0.28074">
        <ele>1428</ele>
        <time>2014-03-30T13:35:38Z</time>
      </trkpt>
      <trkpt lat="42.90841" lon="0.28072">
        <ele>1428</ele>
        <time>2014-03-30T13:36:05Z</time>
      </trkpt>
      <trkpt lat="42.90843" lon="0.28073">
        <ele>1428</ele>
        <time>2014-03-30T13:36:29Z</time>
      </trkpt>
      <trkpt lat="42.90839" lon="0.28072">
        <ele>1428</ele>
        <time>2014-03-30T13:36:42Z</time>
      </trkpt>
      <trkpt lat="42.90838" lon="0.2807">
        <ele>1427</ele>
        <time>2014-03-30T13:37:04Z</time>
      </trkpt>
      <trkpt lat="42.90841" lon="0.28073">
        <ele>1428</ele>
        <time>2014-03-30T13:37:33Z</time>
      </trkpt>
      <trkpt lat="42.90839" lon="0.28082">
        <ele>1428</ele>
        <time>2014-03-30T13:37:48Z</time>
      </trkpt>
      <trkpt lat="42.90841" lon="0.28093">
        <ele>1427</ele>
        <time>2014-03-30T13:38:00Z</time>
      </trkpt>
      <trkpt lat="42.90846" lon="0.28105">
        <ele>1426</ele>
        <time>2014-03-30T13:38:12Z</time>
      </trkpt>
      <trkpt lat="42.90853" lon="0.28116">
        <ele>1426</ele>
        <time>2014-03-30T13:38:22Z</time>
      </trkpt>
      <trkpt lat="42.90866" lon="0.28131">
        <ele>1423</ele>
        <time>2014-03-30T13:38:37Z</time>
      </trkpt>
      <trkpt lat="42.90875" lon="0.28142">
        <ele>1422</ele>
        <time>2014-03-30T13:38:49Z</time>
      </trkpt>
      <trkpt lat="42.90882" lon="0.28152">
        <ele>1421</ele>
        <time>2014-03-30T13:38:57Z</time>
      </trkpt>
      <trkpt lat="42.90882" lon="0.2815">
        <ele>1421</ele>
        <time>2014-03-30T13:39:14Z</time>
      </trkpt>
      <trkpt lat="42.90882" lon="0.28153">
        <ele>1421</ele>
        <time>2014-03-30T13:39:31Z</time>
      </trkpt>
      <trkpt lat="42.90883" lon="0.28158">
        <ele>1421</ele>
        <time>2014-03-30T13:39:43Z</time>
      </trkpt>
      <trkpt lat="42.90896" lon="0.28171">
        <ele>1419</ele>
        <time>2014-03-30T13:39:57Z</time>
      </trkpt>
      <trkpt lat="42.9091" lon="0.28185">
        <ele>1417</ele>
        <time>2014-03-30T13:40:12Z</time>
      </trkpt>
      <trkpt lat="42.90922" lon="0.28198">
        <ele>1414</ele>
        <time>2014-03-30T13:40:24Z</time>
      </trkpt>
      <trkpt lat="42.90935" lon="0.28213">
        <ele>1412</ele>
        <time>2014-03-30T13:40:38Z</time>
      </trkpt>
      <trkpt lat="42.90951" lon="0.28228">
        <ele>1410</ele>
        <time>2014-03-30T13:40:52Z</time>
      </trkpt>
      <trkpt lat="42.90964" lon="0.28242">
        <ele>1409</ele>
        <time>2014-03-30T13:41:06Z</time>
      </trkpt>
      <trkpt lat="42.90967" lon="0.28245">
        <ele>1408</ele>
        <time>2014-03-30T13:41:09Z</time>
      </trkpt>
      <trkpt lat="42.9098" lon="0.28261">
        <ele>1407</ele>
        <time>2014-03-30T13:41:24Z</time>
      </trkpt>
      <trkpt lat="42.90984" lon="0.28267">
        <ele>1406</ele>
        <time>2014-03-30T13:41:29Z</time>
      </trkpt>
      <trkpt lat="42.90988" lon="0.28271">
        <ele>1406</ele>
        <time>2014-03-30T13:41:33Z</time>
      </trkpt>
      <trkpt lat="42.91003" lon="0.28287">
        <ele>1404</ele>
        <time>2014-03-30T13:41:49Z</time>
      </trkpt>
      <trkpt lat="42.91018" lon="0.28305">
        <ele>1402</ele>
        <time>2014-03-30T13:42:06Z</time>
      </trkpt>
      <trkpt lat="42.91027" lon="0.28315">
        <ele>1401</ele>
        <time>2014-03-30T13:42:16Z</time>
      </trkpt>
      <trkpt lat="42.91039" lon="0.28324">
        <ele>1400</ele>
        <time>2014-03-30T13:42:29Z</time>
      </trkpt>
      <trkpt lat="42.91052" lon="0.28337">
        <ele>1398</ele>
        <time>2014-03-30T13:42:45Z</time>
      </trkpt>
      <trkpt lat="42.91063" lon="0.28353">
        <ele>1397</ele>
        <time>2014-03-30T13:43:00Z</time>
      </trkpt>
      <trkpt lat="42.91068" lon="0.28356">
        <ele>1397</ele>
        <time>2014-03-30T13:43:04Z</time>
      </trkpt>
      <trkpt lat="42.91073" lon="0.2836">
        <ele>1397</ele>
        <time>2014-03-30T13:43:10Z</time>
      </trkpt>
      <trkpt lat="42.91087" lon="0.28371">
        <ele>1395</ele>
        <time>2014-03-30T13:43:24Z</time>
      </trkpt>
      <trkpt lat="42.911" lon="0.2838">
        <ele>1395</ele>
        <time>2014-03-30T13:43:36Z</time>
      </trkpt>
      <trkpt lat="42.91113" lon="0.28388">
        <ele>1394</ele>
        <time>2014-03-30T13:43:50Z</time>
      </trkpt>
      <trkpt lat="42.9112" lon="0.28393">
        <ele>1393</ele>
        <time>2014-03-30T13:44:00Z</time>
      </trkpt>
      <trkpt lat="42.91133" lon="0.284">
        <ele>1392</ele>
        <time>2014-03-30T13:44:13Z</time>
      </trkpt>
      <trkpt lat="42.91146" lon="0.28408">
        <ele>1391</ele>
        <time>2014-03-30T13:44:25Z</time>
      </trkpt>
      <trkpt lat="42.9116" lon="0.28417">
        <ele>1389</ele>
        <time>2014-03-30T13:44:39Z</time>
      </trkpt>
      <trkpt lat="42.91173" lon="0.28425">
        <ele>1387</ele>
        <time>2014-03-30T13:44:52Z</time>
      </trkpt>
      <trkpt lat="42.91176" lon="0.28427">
        <ele>1387</ele>
        <time>2014-03-30T13:44:55Z</time>
      </trkpt>
      <trkpt lat="42.91185" lon="0.28433">
        <ele>1387</ele>
        <time>2014-03-30T13:45:07Z</time>
      </trkpt>
      <trkpt lat="42.91184" lon="0.28432">
        <ele>1387</ele>
        <time>2014-03-30T13:45:24Z</time>
      </trkpt>
      <trkpt lat="42.91185" lon="0.28432">
        <ele>1386</ele>
        <time>2014-03-30T13:45:28Z</time>
      </trkpt>
      <trkpt lat="42.91199" lon="0.28441">
        <ele>1386</ele>
        <time>2014-03-30T13:45:42Z</time>
      </trkpt>
      <trkpt lat="42.91215" lon="0.28448">
        <ele>1385</ele>
        <time>2014-03-30T13:45:57Z</time>
      </trkpt>
      <trkpt lat="42.91226" lon="0.28454">
        <ele>1384</ele>
        <time>2014-03-30T13:46:10Z</time>
      </trkpt>
      <trkpt lat="42.91227" lon="0.28456">
        <ele>1384</ele>
        <time>2014-03-30T13:46:11Z</time>
      </trkpt>
      <trkpt lat="42.91241" lon="0.28465">
        <ele>1382</ele>
        <time>2014-03-30T13:46:26Z</time>
      </trkpt>
      <trkpt lat="42.91248" lon="0.28471">
        <ele>1382</ele>
        <time>2014-03-30T13:46:33Z</time>
      </trkpt>
      <trkpt lat="42.91263" lon="0.28481">
        <ele>1381</ele>
        <time>2014-03-30T13:46:49Z</time>
      </trkpt>
      <trkpt lat="42.91265" lon="0.28483">
        <ele>1380</ele>
        <time>2014-03-30T13:46:51Z</time>
      </trkpt>
      <trkpt lat="42.91267" lon="0.28485">
        <ele>1381</ele>
        <time>2014-03-30T13:46:53Z</time>
      </trkpt>
      <trkpt lat="42.91282" lon="0.28494">
        <ele>1380</ele>
        <time>2014-03-30T13:47:08Z</time>
      </trkpt>
      <trkpt lat="42.91295" lon="0.28501">
        <ele>1378</ele>
        <time>2014-03-30T13:47:20Z</time>
      </trkpt>
      <trkpt lat="42.9131" lon="0.28511">
        <ele>1377</ele>
        <time>2014-03-30T13:47:35Z</time>
      </trkpt>
      <trkpt lat="42.91324" lon="0.28521">
        <ele>1377</ele>
        <time>2014-03-30T13:47:49Z</time>
      </trkpt>
      <trkpt lat="42.91338" lon="0.28529">
        <ele>1376</ele>
        <time>2014-03-30T13:48:03Z</time>
      </trkpt>
      <trkpt lat="42.91352" lon="0.28538">
        <ele>1375</ele>
        <time>2014-03-30T13:48:16Z</time>
      </trkpt>
      <trkpt lat="42.91365" lon="0.28546">
        <ele>1374</ele>
        <time>2014-03-30T13:48:29Z</time>
      </trkpt>
      <trkpt lat="42.91375" lon="0.28552">
        <ele>1373</ele>
        <time>2014-03-30T13:48:39Z</time>
      </trkpt>
      <trkpt lat="42.91382" lon="0.28557">
        <ele>1372</ele>
        <time>2014-03-30T13:48:47Z</time>
      </trkpt>
      <trkpt lat="42.91394" lon="0.28569">
        <ele>1371</ele>
        <time>2014-03-30T13:49:02Z</time>
      </trkpt>
      <trkpt lat="42.91406" lon="0.28582">
        <ele>1370</ele>
        <time>2014-03-30T13:49:16Z</time>
      </trkpt>
      <trkpt lat="42.91407" lon="0.28582">
        <ele>1369</ele>
        <time>2014-03-30T13:49:17Z</time>
      </trkpt>
      <trkpt lat="42.91419" lon="0.28594">
        <ele>1366</ele>
        <time>2014-03-30T13:49:31Z</time>
      </trkpt>
      <trkpt lat="42.91424" lon="0.28594">
        <ele>1367</ele>
        <time>2014-03-30T13:49:47Z</time>
      </trkpt>
      <trkpt lat="42.91425" lon="0.28594">
        <ele>1366</ele>
        <time>2014-03-30T13:50:14Z</time>
      </trkpt>
      <trkpt lat="42.91425" lon="0.28596">
        <ele>1366</ele>
        <time>2014-03-30T13:50:38Z</time>
      </trkpt>
      <trkpt lat="42.91429" lon="0.28599">
        <ele>1365</ele>
        <time>2014-03-30T13:50:43Z</time>
      </trkpt>
      <trkpt lat="42.9144" lon="0.28608">
        <ele>1364</ele>
        <time>2014-03-30T13:50:56Z</time>
      </trkpt>
      <trkpt lat="42.91443" lon="0.2861">
        <ele>1364</ele>
        <time>2014-03-30T13:50:59Z</time>
      </trkpt>
      <trkpt lat="42.91447" lon="0.28611">
        <ele>1363</ele>
        <time>2014-03-30T13:51:03Z</time>
      </trkpt>
      <trkpt lat="42.91463" lon="0.28614">
        <ele>1362</ele>
        <time>2014-03-30T13:51:18Z</time>
      </trkpt>
      <trkpt lat="42.9147" lon="0.28616">
        <ele>1361</ele>
        <time>2014-03-30T13:51:24Z</time>
      </trkpt>
      <trkpt lat="42.91487" lon="0.2862">
        <ele>1360</ele>
        <time>2014-03-30T13:51:39Z</time>
      </trkpt>
      <trkpt lat="42.91491" lon="0.28621">
        <ele>1360</ele>
        <time>2014-03-30T13:51:43Z</time>
      </trkpt>
      <trkpt lat="42.91506" lon="0.28623">
        <ele>1358</ele>
        <time>2014-03-30T13:51:56Z</time>
      </trkpt>
      <trkpt lat="42.91515" lon="0.28626">
        <ele>1358</ele>
        <time>2014-03-30T13:52:05Z</time>
      </trkpt>
      <trkpt lat="42.91529" lon="0.28631">
        <ele>1356</ele>
        <time>2014-03-30T13:52:21Z</time>
      </trkpt>
      <trkpt lat="42.91538" lon="0.28634">
        <ele>1354</ele>
        <time>2014-03-30T13:52:34Z</time>
      </trkpt>
      <trkpt lat="42.9155" lon="0.28637">
        <ele>1353</ele>
        <time>2014-03-30T13:52:47Z</time>
      </trkpt>
      <trkpt lat="42.91551" lon="0.28637">
        <ele>1353</ele>
        <time>2014-03-30T13:52:48Z</time>
      </trkpt>
      <trkpt lat="42.91563" lon="0.28641">
        <ele>1352</ele>
        <time>2014-03-30T13:53:02Z</time>
      </trkpt>
      <trkpt lat="42.91577" lon="0.28644">
        <ele>1351</ele>
        <time>2014-03-30T13:53:17Z</time>
      </trkpt>
      <trkpt lat="42.91587" lon="0.28645">
        <ele>1349</ele>
        <time>2014-03-30T13:53:30Z</time>
      </trkpt>
      <trkpt lat="42.91599" lon="0.28645">
        <ele>1348</ele>
        <time>2014-03-30T13:53:45Z</time>
      </trkpt>
      <trkpt lat="42.91607" lon="0.28642">
        <ele>1347</ele>
        <time>2014-03-30T13:53:57Z</time>
      </trkpt>
      <trkpt lat="42.91617" lon="0.28636">
        <ele>1346</ele>
        <time>2014-03-30T13:54:10Z</time>
      </trkpt>
      <trkpt lat="42.91628" lon="0.28626">
        <ele>1345</ele>
        <time>2014-03-30T13:54:22Z</time>
      </trkpt>
      <trkpt lat="42.91637" lon="0.28619">
        <ele>1345</ele>
        <time>2014-03-30T13:54:31Z</time>
      </trkpt>
      <trkpt lat="42.91642" lon="0.28618">
        <ele>1344</ele>
        <time>2014-03-30T13:54:36Z</time>
      </trkpt>
      <trkpt lat="42.91646" lon="0.28616">
        <ele>1344</ele>
        <time>2014-03-30T13:54:41Z</time>
      </trkpt>
      <trkpt lat="42.91661" lon="0.28608">
        <ele>1342</ele>
        <time>2014-03-30T13:54:55Z</time>
      </trkpt>
      <trkpt lat="42.91673" lon="0.28603">
        <ele>1342</ele>
        <time>2014-03-30T13:55:09Z</time>
      </trkpt>
      <trkpt lat="42.91683" lon="0.286">
        <ele>1341</ele>
        <time>2014-03-30T13:55:22Z</time>
      </trkpt>
      <trkpt lat="42.91698" lon="0.28592">
        <ele>1340</ele>
        <time>2014-03-30T13:55:37Z</time>
      </trkpt>
      <trkpt lat="42.91701" lon="0.28592">
        <ele>1339</ele>
        <time>2014-03-30T13:55:40Z</time>
      </trkpt>
      <trkpt lat="42.91706" lon="0.28591">
        <ele>1340</ele>
        <time>2014-03-30T13:55:45Z</time>
      </trkpt>
      <trkpt lat="42.91717" lon="0.28586">
        <ele>1338</ele>
        <time>2014-03-30T13:55:56Z</time>
      </trkpt>
      <trkpt lat="42.91731" lon="0.28583">
        <ele>1337</ele>
        <time>2014-03-30T13:56:12Z</time>
      </trkpt>
      <trkpt lat="42.9174" lon="0.28583">
        <ele>1336</ele>
        <time>2014-03-30T13:56:21Z</time>
      </trkpt>
      <trkpt lat="42.91753" lon="0.28576">
        <ele>1336</ele>
        <time>2014-03-30T13:56:35Z</time>
      </trkpt>
      <trkpt lat="42.91766" lon="0.28571">
        <ele>1335</ele>
        <time>2014-03-30T13:56:48Z</time>
      </trkpt>
      <trkpt lat="42.91771" lon="0.2857">
        <ele>1334</ele>
        <time>2014-03-30T13:56:52Z</time>
      </trkpt>
      <trkpt lat="42.91779" lon="0.28572">
        <ele>1334</ele>
        <time>2014-03-30T13:57:02Z</time>
      </trkpt>
      <trkpt lat="42.91787" lon="0.28573">
        <ele>1333</ele>
        <time>2014-03-30T13:57:10Z</time>
      </trkpt>
      <trkpt lat="42.91789" lon="0.28573">
        <ele>1333</ele>
        <time>2014-03-30T13:57:12Z</time>
      </trkpt>
      <trkpt lat="42.9179" lon="0.28573">
        <ele>1333</ele>
        <time>2014-03-30T13:57:14Z</time>
      </trkpt>
      <trkpt lat="42.91795" lon="0.28573">
        <ele>1333</ele>
        <time>2014-03-30T13:57:19Z</time>
      </trkpt>
      <trkpt lat="42.918" lon="0.28575">
        <ele>1333</ele>
        <time>2014-03-30T13:57:24Z</time>
      </trkpt>
      <trkpt lat="42.91802" lon="0.28575">
        <ele>1332</ele>
        <time>2014-03-30T13:57:26Z</time>
      </trkpt>
      <trkpt lat="42.91814" lon="0.28578">
        <ele>1331</ele>
        <time>2014-03-30T13:57:40Z</time>
      </trkpt>
      <trkpt lat="42.91818" lon="0.28578">
        <ele>1330</ele>
        <time>2014-03-30T13:57:45Z</time>
      </trkpt>
      <trkpt lat="42.9183" lon="0.28579">
        <ele>1330</ele>
        <time>2014-03-30T13:58:00Z</time>
      </trkpt>
      <trkpt lat="42.91832" lon="0.2858">
        <ele>1329</ele>
        <time>2014-03-30T13:58:02Z</time>
      </trkpt>
      <trkpt lat="42.91846" lon="0.28586">
        <ele>1329</ele>
        <time>2014-03-30T13:58:16Z</time>
      </trkpt>
      <trkpt lat="42.91851" lon="0.28588">
        <ele>1329</ele>
        <time>2014-03-30T13:58:19Z</time>
      </trkpt>
      <trkpt lat="42.91876" lon="0.28601">
        <ele>1328</ele>
        <time>2014-03-30T13:58:33Z</time>
      </trkpt>
      <trkpt lat="42.91899" lon="0.28614">
        <ele>1327</ele>
        <time>2014-03-30T13:58:46Z</time>
      </trkpt>
      <trkpt lat="42.91901" lon="0.28615">
        <ele>1328</ele>
        <time>2014-03-30T13:58:47Z</time>
      </trkpt>
      <trkpt lat="42.91922" lon="0.28626">
        <ele>1327</ele>
        <time>2014-03-30T13:59:02Z</time>
      </trkpt>
      <trkpt lat="42.9193" lon="0.2863">
        <ele>1326</ele>
        <time>2014-03-30T13:59:08Z</time>
      </trkpt>
      <trkpt lat="42.91933" lon="0.28631">
        <ele>1326</ele>
        <time>2014-03-30T13:59:10Z</time>
      </trkpt>
      <trkpt lat="42.91958" lon="0.28644">
        <ele>1325</ele>
        <time>2014-03-30T13:59:25Z</time>
      </trkpt>
      <trkpt lat="42.91968" lon="0.28651">
        <ele>1325</ele>
        <time>2014-03-30T13:59:33Z</time>
      </trkpt>
      <trkpt lat="42.91983" lon="0.28664">
        <ele>1323</ele>
        <time>2014-03-30T13:59:48Z</time>
      </trkpt>
      <trkpt lat="42.91998" lon="0.28673">
        <ele>1322</ele>
        <time>2014-03-30T14:00:02Z</time>
      </trkpt>
      <trkpt lat="42.92" lon="0.28674">
        <ele>1322</ele>
        <time>2014-03-30T14:00:04Z</time>
      </trkpt>
      <trkpt lat="42.92012" lon="0.28677">
        <ele>1322</ele>
        <time>2014-03-30T14:00:19Z</time>
      </trkpt>
      <trkpt lat="42.92016" lon="0.28679">
        <ele>1322</ele>
        <time>2014-03-30T14:00:30Z</time>
      </trkpt>
      <trkpt lat="42.92029" lon="0.2869">
        <ele>1322</ele>
        <time>2014-03-30T14:00:53Z</time>
      </trkpt>
      <trkpt lat="42.92025" lon="0.28689">
        <ele>1322</ele>
        <time>2014-03-30T14:01:07Z</time>
      </trkpt>
      <trkpt lat="42.92028" lon="0.28692">
        <ele>1321</ele>
        <time>2014-03-30T14:01:14Z</time>
      </trkpt>
      <trkpt lat="42.92032" lon="0.28695">
        <ele>1321</ele>
        <time>2014-03-30T14:01:19Z</time>
      </trkpt>
      <trkpt lat="42.92036" lon="0.28696">
        <ele>1320</ele>
        <time>2014-03-30T14:01:23Z</time>
      </trkpt>
      <trkpt lat="42.92046" lon="0.287">
        <ele>1321</ele>
        <time>2014-03-30T14:01:34Z</time>
      </trkpt>
      <trkpt lat="42.92058" lon="0.28708">
        <ele>1321</ele>
        <time>2014-03-30T14:01:50Z</time>
      </trkpt>
      <trkpt lat="42.92062" lon="0.28711">
        <ele>1320</ele>
        <time>2014-03-30T14:01:56Z</time>
      </trkpt>
      <trkpt lat="42.92071" lon="0.28714">
        <ele>1321</ele>
        <time>2014-03-30T14:02:10Z</time>
      </trkpt>
      <trkpt lat="42.92069" lon="0.28717">
        <ele>1321</ele>
        <time>2014-03-30T14:02:27Z</time>
      </trkpt>
      <trkpt lat="42.92069" lon="0.28716">
        <ele>1320</ele>
        <time>2014-03-30T14:02:35Z</time>
      </trkpt>
      <trkpt lat="42.92075" lon="0.28719">
        <ele>1320</ele>
        <time>2014-03-30T14:02:44Z</time>
      </trkpt>
      <trkpt lat="42.92089" lon="0.28717">
        <ele>1320</ele>
        <time>2014-03-30T14:02:58Z</time>
      </trkpt>
      <trkpt lat="42.92099" lon="0.28726">
        <ele>1319</ele>
        <time>2014-03-30T14:03:12Z</time>
      </trkpt>
      <trkpt lat="42.92108" lon="0.28736">
        <ele>1319</ele>
        <time>2014-03-30T14:03:25Z</time>
      </trkpt>
      <trkpt lat="42.92116" lon="0.28746">
        <ele>1318</ele>
        <time>2014-03-30T14:03:39Z</time>
      </trkpt>
      <trkpt lat="42.92125" lon="0.28752">
        <ele>1318</ele>
        <time>2014-03-30T14:03:53Z</time>
      </trkpt>
      <trkpt lat="42.92136" lon="0.28766">
        <ele>1318</ele>
        <time>2014-03-30T14:04:10Z</time>
      </trkpt>
      <trkpt lat="42.92144" lon="0.2877">
        <ele>1317</ele>
        <time>2014-03-30T14:04:24Z</time>
      </trkpt>
      <trkpt lat="42.92157" lon="0.28781">
        <ele>1317</ele>
        <time>2014-03-30T14:04:41Z</time>
      </trkpt>
      <trkpt lat="42.92167" lon="0.28788">
        <ele>1316</ele>
        <time>2014-03-30T14:04:53Z</time>
      </trkpt>
      <trkpt lat="42.9218" lon="0.28798">
        <ele>1317</ele>
        <time>2014-03-30T14:05:08Z</time>
      </trkpt>
      <trkpt lat="42.92193" lon="0.28805">
        <ele>1315</ele>
        <time>2014-03-30T14:05:22Z</time>
      </trkpt>
      <trkpt lat="42.92202" lon="0.28817">
        <ele>1314</ele>
        <time>2014-03-30T14:05:36Z</time>
      </trkpt>
      <trkpt lat="42.92216" lon="0.28828">
        <ele>1313</ele>
        <time>2014-03-30T14:05:52Z</time>
      </trkpt>
      <trkpt lat="42.92228" lon="0.28838">
        <ele>1312</ele>
        <time>2014-03-30T14:06:07Z</time>
      </trkpt>
      <trkpt lat="42.92245" lon="0.28852">
        <ele>1312</ele>
        <time>2014-03-30T14:06:22Z</time>
      </trkpt>
      <trkpt lat="42.92261" lon="0.28863">
        <ele>1311</ele>
        <time>2014-03-30T14:06:38Z</time>
      </trkpt>
      <trkpt lat="42.92271" lon="0.28876">
        <ele>1309</ele>
        <time>2014-03-30T14:06:54Z</time>
      </trkpt>
      <trkpt lat="42.9228" lon="0.28881">
        <ele>1308</ele>
        <time>2014-03-30T14:07:08Z</time>
      </trkpt>
      <trkpt lat="42.92281" lon="0.28886">
        <ele>1309</ele>
        <time>2014-03-30T14:07:18Z</time>
      </trkpt>
      <trkpt lat="42.92295" lon="0.28905">
        <ele>1307</ele>
        <time>2014-03-30T14:07:35Z</time>
      </trkpt>
      <trkpt lat="42.92318" lon="0.2892">
        <ele>1307</ele>
        <time>2014-03-30T14:07:50Z</time>
      </trkpt>
      <trkpt lat="42.9232" lon="0.28931">
        <ele>1306</ele>
        <time>2014-03-30T14:08:03Z</time>
      </trkpt>
      <trkpt lat="42.92324" lon="0.28943">
        <ele>1303</ele>
        <time>2014-03-30T14:08:14Z</time>
      </trkpt>
      <trkpt lat="42.92342" lon="0.28958">
        <ele>1304</ele>
        <time>2014-03-30T14:08:26Z</time>
      </trkpt>
      <trkpt lat="42.92364" lon="0.2898">
        <ele>1302</ele>
        <time>2014-03-30T14:08:40Z</time>
      </trkpt>
      <trkpt lat="42.92374" lon="0.28992">
        <ele>1301</ele>
        <time>2014-03-30T14:08:52Z</time>
      </trkpt>
      <trkpt lat="42.92381" lon="0.29007">
        <ele>1300</ele>
        <time>2014-03-30T14:09:06Z</time>
      </trkpt>
      <trkpt lat="42.92379" lon="0.29024">
        <ele>1297</ele>
        <time>2014-03-30T14:09:21Z</time>
      </trkpt>
      <trkpt lat="42.92381" lon="0.29026">
        <ele>1298</ele>
        <time>2014-03-30T14:09:23Z</time>
      </trkpt>
      <trkpt lat="42.92381" lon="0.2904">
        <ele>1296</ele>
        <time>2014-03-30T14:09:37Z</time>
      </trkpt>
      <trkpt lat="42.92377" lon="0.29047">
        <ele>1295</ele>
        <time>2014-03-30T14:09:53Z</time>
      </trkpt>
      <trkpt lat="42.9237" lon="0.29056">
        <ele>1295</ele>
        <time>2014-03-30T14:10:17Z</time>
      </trkpt>
      <trkpt lat="42.9237" lon="0.2905">
        <ele>1295</ele>
        <time>2014-03-30T14:10:46Z</time>
      </trkpt>
      <trkpt lat="42.9237" lon="0.29058">
        <ele>1295</ele>
        <time>2014-03-30T14:11:04Z</time>
      </trkpt>
      <trkpt lat="42.92362" lon="0.29065">
        <ele>1293</ele>
        <time>2014-03-30T14:11:19Z</time>
      </trkpt>
      <trkpt lat="42.92353" lon="0.29072">
        <ele>1292</ele>
        <time>2014-03-30T14:11:34Z</time>
      </trkpt>
      <trkpt lat="42.92342" lon="0.29078">
        <ele>1291</ele>
        <time>2014-03-30T14:11:46Z</time>
      </trkpt>
      <trkpt lat="42.92332" lon="0.2909">
        <ele>1289</ele>
        <time>2014-03-30T14:12:01Z</time>
      </trkpt>
      <trkpt lat="42.92323" lon="0.29097">
        <ele>1288</ele>
        <time>2014-03-30T14:12:12Z</time>
      </trkpt>
      <trkpt lat="42.92312" lon="0.29108">
        <ele>1287</ele>
        <time>2014-03-30T14:12:25Z</time>
      </trkpt>
      <trkpt lat="42.92307" lon="0.29115">
        <ele>1285</ele>
        <time>2014-03-30T14:12:38Z</time>
      </trkpt>
      <trkpt lat="42.92293" lon="0.29124">
        <ele>1284</ele>
        <time>2014-03-30T14:12:52Z</time>
      </trkpt>
      <trkpt lat="42.92268" lon="0.29138">
        <ele>1283</ele>
        <time>2014-03-30T14:13:04Z</time>
      </trkpt>
      <trkpt lat="42.92253" lon="0.29145">
        <ele>1281</ele>
        <time>2014-03-30T14:13:17Z</time>
      </trkpt>
      <trkpt lat="42.92248" lon="0.29147">
        <ele>1281</ele>
        <time>2014-03-30T14:13:30Z</time>
      </trkpt>
      <trkpt lat="42.92239" lon="0.29152">
        <ele>1280</ele>
        <time>2014-03-30T14:13:41Z</time>
      </trkpt>
      <trkpt lat="42.92227" lon="0.29162">
        <ele>1279</ele>
        <time>2014-03-30T14:13:55Z</time>
      </trkpt>
      <trkpt lat="42.92222" lon="0.29163">
        <ele>1280</ele>
        <time>2014-03-30T14:13:59Z</time>
      </trkpt>
      <trkpt lat="42.9222" lon="0.29164">
        <ele>1278</ele>
        <time>2014-03-30T14:14:01Z</time>
      </trkpt>
      <trkpt lat="42.92201" lon="0.29174">
        <ele>1278</ele>
        <time>2014-03-30T14:14:14Z</time>
      </trkpt>
      <trkpt lat="42.92191" lon="0.29185">
        <ele>1277</ele>
        <time>2014-03-30T14:14:33Z</time>
      </trkpt>
      <trkpt lat="42.9218" lon="0.29193">
        <ele>1275</ele>
        <time>2014-03-30T14:14:49Z</time>
      </trkpt>
      <trkpt lat="42.92172" lon="0.29201">
        <ele>1275</ele>
        <time>2014-03-30T14:15:04Z</time>
      </trkpt>
      <trkpt lat="42.92164" lon="0.29219">
        <ele>1273</ele>
        <time>2014-03-30T14:15:16Z</time>
      </trkpt>
      <trkpt lat="42.92147" lon="0.29234">
        <ele>1272</ele>
        <time>2014-03-30T14:15:31Z</time>
      </trkpt>
      <trkpt lat="42.92144" lon="0.29241">
        <ele>1271</ele>
        <time>2014-03-30T14:15:46Z</time>
      </trkpt>
      <trkpt lat="42.92143" lon="0.29246">
        <ele>1271</ele>
        <time>2014-03-30T14:16:04Z</time>
      </trkpt>
      <trkpt lat="42.92138" lon="0.29247">
        <ele>1272</ele>
        <time>2014-03-30T14:16:07Z</time>
      </trkpt>
      <trkpt lat="42.92137" lon="0.29251">
        <ele>1272</ele>
        <time>2014-03-30T14:16:31Z</time>
      </trkpt>
      <trkpt lat="42.92135" lon="0.29249">
        <ele>1271</ele>
        <time>2014-03-30T14:16:52Z</time>
      </trkpt>
      <trkpt lat="42.92128" lon="0.29251">
        <ele>1271</ele>
        <time>2014-03-30T14:17:20Z</time>
      </trkpt>
      <trkpt lat="42.92131" lon="0.29251">
        <ele>1271</ele>
        <time>2014-03-30T14:17:41Z</time>
      </trkpt>
      <trkpt lat="42.92134" lon="0.29249">
        <ele>1271</ele>
        <time>2014-03-30T14:18:00Z</time>
      </trkpt>
      <trkpt lat="42.92136" lon="0.29254">
        <ele>1271</ele>
        <time>2014-03-30T14:18:30Z</time>
      </trkpt>
      <trkpt lat="42.92137" lon="0.29257">
        <ele>1271</ele>
        <time>2014-03-30T14:19:02Z</time>
      </trkpt>
      <trkpt lat="42.92135" lon="0.29245">
        <ele>1270</ele>
        <time>2014-03-30T14:19:25Z</time>
      </trkpt>
      <trkpt lat="42.92135" lon="0.29246">
        <ele>1271</ele>
        <time>2014-03-30T14:19:28Z</time>
      </trkpt>
      <trkpt lat="42.92136" lon="0.29248">
        <ele>1270</ele>
        <time>2014-03-30T14:19:32Z</time>
      </trkpt>
      <trkpt lat="42.92145" lon="0.29264">
        <ele>1268</ele>
        <time>2014-03-30T14:19:48Z</time>
      </trkpt>
      <trkpt lat="42.92153" lon="0.29279">
        <ele>1266</ele>
        <time>2014-03-30T14:20:03Z</time>
      </trkpt>
      <trkpt lat="42.92164" lon="0.29295">
        <ele>1264</ele>
        <time>2014-03-30T14:20:18Z</time>
      </trkpt>
      <trkpt lat="42.92176" lon="0.2931">
        <ele>1263</ele>
        <time>2014-03-30T14:20:33Z</time>
      </trkpt>
      <trkpt lat="42.92187" lon="0.29322">
        <ele>1263</ele>
        <time>2014-03-30T14:20:49Z</time>
      </trkpt>
      <trkpt lat="42.92196" lon="0.29334">
        <ele>1263</ele>
        <time>2014-03-30T14:21:03Z</time>
      </trkpt>
      <trkpt lat="42.92208" lon="0.29336">
        <ele>1262</ele>
        <time>2014-03-30T14:21:17Z</time>
      </trkpt>
      <trkpt lat="42.9222" lon="0.29339">
        <ele>1261</ele>
        <time>2014-03-30T14:21:33Z</time>
      </trkpt>
      <trkpt lat="42.92237" lon="0.2936">
        <ele>1261</ele>
        <time>2014-03-30T14:22:04Z</time>
      </trkpt>
      <trkpt lat="42.9224" lon="0.29364">
        <ele>1262</ele>
        <time>2014-03-30T14:22:35Z</time>
      </trkpt>
      <trkpt lat="42.92247" lon="0.29375">
        <ele>1261</ele>
        <time>2014-03-30T14:23:08Z</time>
      </trkpt>
      <trkpt lat="42.92242" lon="0.29352">
        <ele>1262</ele>
        <time>2014-03-30T14:23:26Z</time>
      </trkpt>
      <trkpt lat="42.92234" lon="0.29341">
        <ele>1261</ele>
        <time>2014-03-30T14:23:46Z</time>
      </trkpt>
      <trkpt lat="42.92243" lon="0.2934">
        <ele>1259</ele>
        <time>2014-03-30T14:24:02Z</time>
      </trkpt>
      <trkpt lat="42.92249" lon="0.29333">
        <ele>1258</ele>
        <time>2014-03-30T14:24:18Z</time>
      </trkpt>
      <trkpt lat="42.92256" lon="0.29325">
        <ele>1258</ele>
        <time>2014-03-30T14:24:37Z</time>
      </trkpt>
      <trkpt lat="42.92256" lon="0.29328">
        <ele>1258</ele>
        <time>2014-03-30T14:24:45Z</time>
      </trkpt>
      <trkpt lat="42.9227" lon="0.29324">
        <ele>1257</ele>
        <time>2014-03-30T14:25:03Z</time>
      </trkpt>
      <trkpt lat="42.92278" lon="0.29321">
        <ele>1258</ele>
        <time>2014-03-30T14:25:20Z</time>
      </trkpt>
      <trkpt lat="42.92283" lon="0.29319">
        <ele>1257</ele>
        <time>2014-03-30T14:25:33Z</time>
      </trkpt>
      <trkpt lat="42.92296" lon="0.29318">
        <ele>1257</ele>
        <time>2014-03-30T14:25:47Z</time>
      </trkpt>
      <trkpt lat="42.92305" lon="0.29298">
        <ele>1257</ele>
        <time>2014-03-30T14:26:02Z</time>
      </trkpt>
      <trkpt lat="42.92314" lon="0.29301">
        <ele>1256</ele>
        <time>2014-03-30T14:26:13Z</time>
      </trkpt>
      <trkpt lat="42.92325" lon="0.29303">
        <ele>1256</ele>
        <time>2014-03-30T14:26:26Z</time>
      </trkpt>
      <trkpt lat="42.92344" lon="0.29298">
        <ele>1255</ele>
        <time>2014-03-30T14:26:43Z</time>
      </trkpt>
      <trkpt lat="42.92352" lon="0.29293">
        <ele>1253</ele>
        <time>2014-03-30T14:26:57Z</time>
      </trkpt>
      <trkpt lat="42.92368" lon="0.29287">
        <ele>1252</ele>
        <time>2014-03-30T14:27:11Z</time>
      </trkpt>
      <trkpt lat="42.92377" lon="0.2928">
        <ele>1250</ele>
        <time>2014-03-30T14:27:27Z</time>
      </trkpt>
      <trkpt lat="42.92385" lon="0.29272">
        <ele>1250</ele>
        <time>2014-03-30T14:27:41Z</time>
      </trkpt>
      <trkpt lat="42.92396" lon="0.29264">
        <ele>1249</ele>
        <time>2014-03-30T14:28:00Z</time>
      </trkpt>
      <trkpt lat="42.92407" lon="0.29257">
        <ele>1248</ele>
        <time>2014-03-30T14:28:16Z</time>
      </trkpt>
      <trkpt lat="42.92412" lon="0.29257">
        <ele>1247</ele>
        <time>2014-03-30T14:28:23Z</time>
      </trkpt>
      <trkpt lat="42.92418" lon="0.29258">
        <ele>1248</ele>
        <time>2014-03-30T14:28:27Z</time>
      </trkpt>
      <trkpt lat="42.92431" lon="0.29258">
        <ele>1247</ele>
        <time>2014-03-30T14:28:35Z</time>
      </trkpt>
      <trkpt lat="42.92456" lon="0.29263">
        <ele>1246</ele>
        <time>2014-03-30T14:28:54Z</time>
      </trkpt>
      <trkpt lat="42.92481" lon="0.29264">
        <ele>1245</ele>
        <time>2014-03-30T14:29:04Z</time>
      </trkpt>
      <trkpt lat="42.92483" lon="0.29265">
        <ele>1245</ele>
        <time>2014-03-30T14:29:05Z</time>
      </trkpt>
      <trkpt lat="42.92507" lon="0.29273">
        <ele>1244</ele>
        <time>2014-03-30T14:29:21Z</time>
      </trkpt>
      <trkpt lat="42.92536" lon="0.29279">
        <ele>1242</ele>
        <time>2014-03-30T14:29:39Z</time>
      </trkpt>
      <trkpt lat="42.92549" lon="0.29289">
        <ele>1242</ele>
        <time>2014-03-30T14:29:54Z</time>
      </trkpt>
      <trkpt lat="42.92567" lon="0.2929">
        <ele>1240</ele>
        <time>2014-03-30T14:30:09Z</time>
      </trkpt>
      <trkpt lat="42.92586" lon="0.29298">
        <ele>1238</ele>
        <time>2014-03-30T14:30:25Z</time>
      </trkpt>
      <trkpt lat="42.92603" lon="0.29303">
        <ele>1237</ele>
        <time>2014-03-30T14:30:39Z</time>
      </trkpt>
      <trkpt lat="42.92618" lon="0.29304">
        <ele>1236</ele>
        <time>2014-03-30T14:30:54Z</time>
      </trkpt>
      <trkpt lat="42.9264" lon="0.2931">
        <ele>1235</ele>
        <time>2014-03-30T14:31:10Z</time>
      </trkpt>
      <trkpt lat="42.92645" lon="0.29312">
        <ele>1234</ele>
        <time>2014-03-30T14:31:16Z</time>
      </trkpt>
      <trkpt lat="42.92658" lon="0.2932">
        <ele>1234</ele>
        <time>2014-03-30T14:31:26Z</time>
      </trkpt>
      <trkpt lat="42.92661" lon="0.29321">
        <ele>1233</ele>
        <time>2014-03-30T14:31:30Z</time>
      </trkpt>
      <trkpt lat="42.92666" lon="0.29321">
        <ele>1233</ele>
        <time>2014-03-30T14:31:35Z</time>
      </trkpt>
      <trkpt lat="42.92668" lon="0.29321">
        <ele>1233</ele>
        <time>2014-03-30T14:31:37Z</time>
      </trkpt>
      <trkpt lat="42.9268" lon="0.29323">
        <ele>1232</ele>
        <time>2014-03-30T14:31:51Z</time>
      </trkpt>
      <trkpt lat="42.92703" lon="0.29331">
        <ele>1231</ele>
        <time>2014-03-30T14:32:06Z</time>
      </trkpt>
      <trkpt lat="42.92719" lon="0.29333">
        <ele>1229</ele>
        <time>2014-03-30T14:32:19Z</time>
      </trkpt>
      <trkpt lat="42.92741" lon="0.2934">
        <ele>1227</ele>
        <time>2014-03-30T14:32:35Z</time>
      </trkpt>
      <trkpt lat="42.92759" lon="0.29342">
        <ele>1225</ele>
        <time>2014-03-30T14:32:52Z</time>
      </trkpt>
      <trkpt lat="42.92778" lon="0.29341">
        <ele>1223</ele>
        <time>2014-03-30T14:33:08Z</time>
      </trkpt>
      <trkpt lat="42.92793" lon="0.29339">
        <ele>1221</ele>
        <time>2014-03-30T14:33:22Z</time>
      </trkpt>
      <trkpt lat="42.92803" lon="0.29336">
        <ele>1220</ele>
        <time>2014-03-30T14:33:30Z</time>
      </trkpt>
      <trkpt lat="42.92808" lon="0.29336">
        <ele>1221</ele>
        <time>2014-03-30T14:33:45Z</time>
      </trkpt>
      <trkpt lat="42.92813" lon="0.2934">
        <ele>1221</ele>
        <time>2014-03-30T14:34:01Z</time>
      </trkpt>
      <trkpt lat="42.92824" lon="0.2934">
        <ele>1219</ele>
        <time>2014-03-30T14:34:15Z</time>
      </trkpt>
      <trkpt lat="42.92827" lon="0.29342">
        <ele>1218</ele>
        <time>2014-03-30T14:34:18Z</time>
      </trkpt>
      <trkpt lat="42.92841" lon="0.29346">
        <ele>1217</ele>
        <time>2014-03-30T14:34:34Z</time>
      </trkpt>
      <trkpt lat="42.92853" lon="0.29346">
        <ele>1216</ele>
        <time>2014-03-30T14:34:50Z</time>
      </trkpt>
      <trkpt lat="42.92864" lon="0.29347">
        <ele>1215</ele>
        <time>2014-03-30T14:35:05Z</time>
      </trkpt>
      <trkpt lat="42.92866" lon="0.29347">
        <ele>1214</ele>
        <time>2014-03-30T14:35:07Z</time>
      </trkpt>
      <trkpt lat="42.92875" lon="0.29348">
        <ele>1214</ele>
        <time>2014-03-30T14:35:23Z</time>
      </trkpt>
      <trkpt lat="42.92889" lon="0.29348">
        <ele>1212</ele>
        <time>2014-03-30T14:35:37Z</time>
      </trkpt>
      <trkpt lat="42.92905" lon="0.29346">
        <ele>1212</ele>
        <time>2014-03-30T14:35:53Z</time>
      </trkpt>
      <trkpt lat="42.92922" lon="0.29348">
        <ele>1211</ele>
        <time>2014-03-30T14:36:10Z</time>
      </trkpt>
      <trkpt lat="42.92938" lon="0.29351">
        <ele>1210</ele>
        <time>2014-03-30T14:36:27Z</time>
      </trkpt>
      <trkpt lat="42.9297" lon="0.29359">
        <ele>1210</ele>
        <time>2014-03-30T14:36:41Z</time>
      </trkpt>
      <trkpt lat="42.93" lon="0.2937">
        <ele>1209</ele>
        <time>2014-03-30T14:36:56Z</time>
      </trkpt>
      <trkpt lat="42.93023" lon="0.2937">
        <ele>1208</ele>
        <time>2014-03-30T14:37:13Z</time>
      </trkpt>
      <trkpt lat="42.93054" lon="0.2938">
        <ele>1208</ele>
        <time>2014-03-30T14:37:28Z</time>
      </trkpt>
      <trkpt lat="42.93077" lon="0.29384">
        <ele>1207</ele>
        <time>2014-03-30T14:37:43Z</time>
      </trkpt>
      <trkpt lat="42.93101" lon="0.29387">
        <ele>1205</ele>
        <time>2014-03-30T14:37:56Z</time>
      </trkpt>
      <trkpt lat="42.93136" lon="0.29398">
        <ele>1205</ele>
        <time>2014-03-30T14:38:11Z</time>
      </trkpt>
      <trkpt lat="42.93159" lon="0.29399">
        <ele>1202</ele>
        <time>2014-03-30T14:38:26Z</time>
      </trkpt>
      <trkpt lat="42.93165" lon="0.294">
        <ele>1201</ele>
        <time>2014-03-30T14:38:31Z</time>
      </trkpt>
      <trkpt lat="42.93185" lon="0.29398">
        <ele>1199</ele>
        <time>2014-03-30T14:38:46Z</time>
      </trkpt>
      <trkpt lat="42.93193" lon="0.29395">
        <ele>1198</ele>
        <time>2014-03-30T14:38:54Z</time>
      </trkpt>
      <trkpt lat="42.93203" lon="0.29394">
        <ele>1197</ele>
        <time>2014-03-30T14:39:02Z</time>
      </trkpt>
      <trkpt lat="42.9322" lon="0.29377">
        <ele>1196</ele>
        <time>2014-03-30T14:39:18Z</time>
      </trkpt>
      <trkpt lat="42.9323" lon="0.29361">
        <ele>1196</ele>
        <time>2014-03-30T14:39:30Z</time>
      </trkpt>
      <trkpt lat="42.93232" lon="0.29356">
        <ele>1196</ele>
        <time>2014-03-30T14:39:43Z</time>
      </trkpt>
      <trkpt lat="42.93246" lon="0.29348">
        <ele>1195</ele>
        <time>2014-03-30T14:39:58Z</time>
      </trkpt>
      <trkpt lat="42.9326" lon="0.29341">
        <ele>1194</ele>
        <time>2014-03-30T14:40:11Z</time>
      </trkpt>
      <trkpt lat="42.93276" lon="0.29327">
        <ele>1194</ele>
        <time>2014-03-30T14:40:25Z</time>
      </trkpt>
      <trkpt lat="42.93288" lon="0.29317">
        <ele>1194</ele>
        <time>2014-03-30T14:40:36Z</time>
      </trkpt>
      <trkpt lat="42.93298" lon="0.29309">
        <ele>1193</ele>
        <time>2014-03-30T14:40:45Z</time>
      </trkpt>
      <trkpt lat="42.93298" lon="0.29305">
        <ele>1193</ele>
        <time>2014-03-30T14:40:47Z</time>
      </trkpt>
      <trkpt lat="42.93299" lon="0.29302">
        <ele>1193</ele>
        <time>2014-03-30T14:40:50Z</time>
      </trkpt>
      <trkpt lat="42.933" lon="0.29301">
        <ele>1193</ele>
        <time>2014-03-30T14:40:51Z</time>
      </trkpt>
      <trkpt lat="42.93304" lon="0.29289">
        <ele>1193</ele>
        <time>2014-03-30T14:41:05Z</time>
      </trkpt>
      <trkpt lat="42.93305" lon="0.29277">
        <ele>1193</ele>
        <time>2014-03-30T14:41:21Z</time>
      </trkpt>
      <trkpt lat="42.93305" lon="0.29277">
        <ele>1191</ele>
        <time>2014-03-30T14:41:39Z</time>
      </trkpt>
      <trkpt lat="42.93304" lon="0.29278">
        <ele>1191</ele>
        <time>2014-03-30T14:41:40Z</time>
      </trkpt>
      <trkpt lat="42.93296" lon="0.29277">
        <ele>1192</ele>
        <time>2014-03-30T14:42:07Z</time>
      </trkpt>
      <trkpt lat="42.93296" lon="0.29275">
        <ele>1191</ele>
        <time>2014-03-30T14:42:30Z</time>
      </trkpt>
      <trkpt lat="42.93295" lon="0.29278">
        <ele>1191</ele>
        <time>2014-03-30T14:43:03Z</time>
      </trkpt>
      <trkpt lat="42.93297" lon="0.29275">
        <ele>1190</ele>
        <time>2014-03-30T14:43:34Z</time>
      </trkpt>
      <trkpt lat="42.93297" lon="0.29276">
        <ele>1190</ele>
        <time>2014-03-30T14:43:54Z</time>
      </trkpt>
    </trkseg>
  </trk>
</gpx>